<?xml version="1.0" encoding="UTF-8" standalone="no" ?>
<gpx xmlns="http://www.topografix.com/GPX/1/1" xmlns:xsi="http://www.w3.org/2001/XMLSchema-instance" xsi:schemaLocation="http://www.topografix.com/GPX/1/1 http://www.topografix.com/GPX/1/1/gpx.xsd" version="1.1" creator="VisuGPX - https://www.visugpx.com">
  <metadata>
    <name>12/07/2015 Croix St Jouanne.</name>
    <desc><![CDATA[Le Gps a tardé à se repérer..
dommage d'arriver sur la route, et oui on aurait dû aller à gauche pour longer l'étang neuf]]></desc>
  </metadata>
  <trk>
    <name><![CDATA[Poigny-la-Forêt Autre]]></name>
    <trkseg>
      <trkpt lat="48.69517" lon="1.75271">
        <ele>159.39999389648</ele>
        <time>2015-07-13T08:59:33.000Z</time>
      </trkpt>
      <trkpt lat="48.69517" lon="1.75269">
        <ele>159.39999389648</ele>
        <time>2015-07-13T08:59:34.000Z</time>
      </trkpt>
      <trkpt lat="48.69518" lon="1.75267">
        <ele>159.60000610352</ele>
        <time>2015-07-13T08:59:37.000Z</time>
      </trkpt>
      <trkpt lat="48.6954" lon="1.7526">
        <ele>160.39999389648</ele>
        <time>2015-07-13T08:59:43.000Z</time>
      </trkpt>
      <trkpt lat="48.69538" lon="1.75258">
        <ele>160.39999389648</ele>
        <time>2015-07-13T08:59:46.000Z</time>
      </trkpt>
      <trkpt lat="48.69539" lon="1.75252">
        <ele>160.60000610352</ele>
        <time>2015-07-13T08:59:47.000Z</time>
      </trkpt>
      <trkpt lat="48.69531" lon="1.75237">
        <ele>161</ele>
        <time>2015-07-13T08:59:52.000Z</time>
      </trkpt>
      <trkpt lat="48.69527" lon="1.75231">
        <ele>161.19999694824</ele>
        <time>2015-07-13T08:59:55.000Z</time>
      </trkpt>
      <trkpt lat="48.69517" lon="1.75214">
        <ele>161.80000305176</ele>
        <time>2015-07-13T09:00:03.000Z</time>
      </trkpt>
      <trkpt lat="48.69511" lon="1.75202">
        <ele>162.39999389648</ele>
        <time>2015-07-13T09:00:09.000Z</time>
      </trkpt>
      <trkpt lat="48.69508" lon="1.75189">
        <ele>162.80000305176</ele>
        <time>2015-07-13T09:00:15.000Z</time>
      </trkpt>
      <trkpt lat="48.695" lon="1.75171">
        <ele>163.60000610352</ele>
        <time>2015-07-13T09:00:23.000Z</time>
      </trkpt>
      <trkpt lat="48.69493" lon="1.75154">
        <ele>164.39999389648</ele>
        <time>2015-07-13T09:00:31.000Z</time>
      </trkpt>
      <trkpt lat="48.69491" lon="1.75145">
        <ele>164.60000610352</ele>
        <time>2015-07-13T09:00:36.000Z</time>
      </trkpt>
      <trkpt lat="48.69486" lon="1.75132">
        <ele>165.19999694824</ele>
        <time>2015-07-13T09:00:43.000Z</time>
      </trkpt>
      <trkpt lat="48.69484" lon="1.75124">
        <ele>165.60000610352</ele>
        <time>2015-07-13T09:00:47.000Z</time>
      </trkpt>
      <trkpt lat="48.69483" lon="1.75109">
        <ele>166</ele>
        <time>2015-07-13T09:00:54.000Z</time>
      </trkpt>
      <trkpt lat="48.69482" lon="1.75101">
        <ele>166.19999694824</ele>
        <time>2015-07-13T09:00:58.000Z</time>
      </trkpt>
      <trkpt lat="48.6948" lon="1.75086">
        <ele>166.60000610352</ele>
        <time>2015-07-13T09:01:05.000Z</time>
      </trkpt>
      <trkpt lat="48.69477" lon="1.7507">
        <ele>167</ele>
        <time>2015-07-13T09:01:13.000Z</time>
      </trkpt>
      <trkpt lat="48.69472" lon="1.75056">
        <ele>167.19999694824</ele>
        <time>2015-07-13T09:01:20.000Z</time>
      </trkpt>
      <trkpt lat="48.6947" lon="1.75052">
        <ele>167.19999694824</ele>
        <time>2015-07-13T09:01:22.000Z</time>
      </trkpt>
      <trkpt lat="48.69467" lon="1.75037">
        <ele>167.19999694824</ele>
        <time>2015-07-13T09:01:30.000Z</time>
      </trkpt>
      <trkpt lat="48.69463" lon="1.75026">
        <ele>167.39999389648</ele>
        <time>2015-07-13T09:01:36.000Z</time>
      </trkpt>
      <trkpt lat="48.69457" lon="1.75007">
        <ele>167.60000610352</ele>
        <time>2015-07-13T09:01:45.000Z</time>
      </trkpt>
      <trkpt lat="48.69456" lon="1.74999">
        <ele>167.80000305176</ele>
        <time>2015-07-13T09:01:49.000Z</time>
      </trkpt>
      <trkpt lat="48.69454" lon="1.74984">
        <ele>167.80000305176</ele>
        <time>2015-07-13T09:01:56.000Z</time>
      </trkpt>
      <trkpt lat="48.69453" lon="1.74977">
        <ele>167.60000610352</ele>
        <time>2015-07-13T09:01:59.000Z</time>
      </trkpt>
      <trkpt lat="48.69448" lon="1.74958">
        <ele>167</ele>
        <time>2015-07-13T09:02:07.000Z</time>
      </trkpt>
      <trkpt lat="48.69446" lon="1.74949">
        <ele>166.60000610352</ele>
        <time>2015-07-13T09:02:11.000Z</time>
      </trkpt>
      <trkpt lat="48.69443" lon="1.74935">
        <ele>166.19999694824</ele>
        <time>2015-07-13T09:02:17.000Z</time>
      </trkpt>
      <trkpt lat="48.69442" lon="1.74923">
        <ele>165.60000610352</ele>
        <time>2015-07-13T09:02:24.000Z</time>
      </trkpt>
      <trkpt lat="48.69425" lon="1.74915">
        <ele>164.80000305176</ele>
        <time>2015-07-13T09:02:28.000Z</time>
      </trkpt>
      <trkpt lat="48.694" lon="1.74901">
        <ele>163.39999389648</ele>
        <time>2015-07-13T09:02:32.000Z</time>
      </trkpt>
      <trkpt lat="48.69396" lon="1.74894">
        <ele>163.19999694824</ele>
        <time>2015-07-13T09:02:35.000Z</time>
      </trkpt>
      <trkpt lat="48.69392" lon="1.74877">
        <ele>163.19999694824</ele>
        <time>2015-07-13T09:02:42.000Z</time>
      </trkpt>
      <trkpt lat="48.69392" lon="1.74874">
        <ele>163.19999694824</ele>
        <time>2015-07-13T09:02:43.000Z</time>
      </trkpt>
      <trkpt lat="48.69386" lon="1.74861">
        <ele>163.19999694824</ele>
        <time>2015-07-13T09:02:49.000Z</time>
      </trkpt>
      <trkpt lat="48.69383" lon="1.74852">
        <ele>163</ele>
        <time>2015-07-13T09:02:53.000Z</time>
      </trkpt>
      <trkpt lat="48.69379" lon="1.74835">
        <ele>162.60000610352</ele>
        <time>2015-07-13T09:03:01.000Z</time>
      </trkpt>
      <trkpt lat="48.69377" lon="1.74823">
        <ele>162</ele>
        <time>2015-07-13T09:03:08.000Z</time>
      </trkpt>
      <trkpt lat="48.69374" lon="1.74811">
        <ele>162.60000610352</ele>
        <time>2015-07-13T09:03:15.000Z</time>
      </trkpt>
      <trkpt lat="48.6937" lon="1.74796">
        <ele>163.39999389648</ele>
        <time>2015-07-13T09:03:22.000Z</time>
      </trkpt>
      <trkpt lat="48.69364" lon="1.74777">
        <ele>164.60000610352</ele>
        <time>2015-07-13T09:03:31.000Z</time>
      </trkpt>
      <trkpt lat="48.69362" lon="1.74767">
        <ele>165.19999694824</ele>
        <time>2015-07-13T09:03:37.000Z</time>
      </trkpt>
      <trkpt lat="48.69358" lon="1.74753">
        <ele>166</ele>
        <time>2015-07-13T09:03:43.000Z</time>
      </trkpt>
      <trkpt lat="48.69356" lon="1.74738">
        <ele>166.80000305176</ele>
        <time>2015-07-13T09:03:50.000Z</time>
      </trkpt>
      <trkpt lat="48.69354" lon="1.74726">
        <ele>167</ele>
        <time>2015-07-13T09:03:57.000Z</time>
      </trkpt>
      <trkpt lat="48.69352" lon="1.74716">
        <ele>167</ele>
        <time>2015-07-13T09:04:03.000Z</time>
      </trkpt>
      <trkpt lat="48.69346" lon="1.74697">
        <ele>167</ele>
        <time>2015-07-13T09:04:13.000Z</time>
      </trkpt>
      <trkpt lat="48.6934" lon="1.74682">
        <ele>167.19999694824</ele>
        <time>2015-07-13T09:04:21.000Z</time>
      </trkpt>
      <trkpt lat="48.69338" lon="1.7467">
        <ele>167.19999694824</ele>
        <time>2015-07-13T09:04:26.000Z</time>
      </trkpt>
      <trkpt lat="48.69332" lon="1.74654">
        <ele>167.19999694824</ele>
        <time>2015-07-13T09:04:34.000Z</time>
      </trkpt>
      <trkpt lat="48.69326" lon="1.74636">
        <ele>167.60000610352</ele>
        <time>2015-07-13T09:04:41.000Z</time>
      </trkpt>
      <trkpt lat="48.69326" lon="1.74635">
        <ele>167.60000610352</ele>
        <time>2015-07-13T09:04:42.000Z</time>
      </trkpt>
      <trkpt lat="48.69323" lon="1.74624">
        <ele>167.80000305176</ele>
        <time>2015-07-13T09:04:47.000Z</time>
      </trkpt>
      <trkpt lat="48.69321" lon="1.74615">
        <ele>167.80000305176</ele>
        <time>2015-07-13T09:04:51.000Z</time>
      </trkpt>
      <trkpt lat="48.69319" lon="1.74601">
        <ele>168</ele>
        <time>2015-07-13T09:04:57.000Z</time>
      </trkpt>
      <trkpt lat="48.69313" lon="1.74587">
        <ele>168.19999694824</ele>
        <time>2015-07-13T09:05:05.000Z</time>
      </trkpt>
      <trkpt lat="48.69311" lon="1.74571">
        <ele>168.39999389648</ele>
        <time>2015-07-13T09:05:13.000Z</time>
      </trkpt>
      <trkpt lat="48.69306" lon="1.74556">
        <ele>168.60000610352</ele>
        <time>2015-07-13T09:05:21.000Z</time>
      </trkpt>
      <trkpt lat="48.69302" lon="1.74541">
        <ele>168.60000610352</ele>
        <time>2015-07-13T09:05:28.000Z</time>
      </trkpt>
      <trkpt lat="48.69299" lon="1.74532">
        <ele>168.60000610352</ele>
        <time>2015-07-13T09:05:33.000Z</time>
      </trkpt>
      <trkpt lat="48.69299" lon="1.74523">
        <ele>168.60000610352</ele>
        <time>2015-07-13T09:05:37.000Z</time>
      </trkpt>
      <trkpt lat="48.69298" lon="1.74515">
        <ele>168.60000610352</ele>
        <time>2015-07-13T09:05:41.000Z</time>
      </trkpt>
      <trkpt lat="48.69296" lon="1.7451">
        <ele>168.60000610352</ele>
        <time>2015-07-13T09:05:44.000Z</time>
      </trkpt>
      <trkpt lat="48.69291" lon="1.74493">
        <ele>168.60000610352</ele>
        <time>2015-07-13T09:05:52.000Z</time>
      </trkpt>
      <trkpt lat="48.69288" lon="1.74479">
        <ele>168.19999694824</ele>
        <time>2015-07-13T09:05:59.000Z</time>
      </trkpt>
      <trkpt lat="48.69283" lon="1.74458">
        <ele>167.19999694824</ele>
        <time>2015-07-13T09:06:09.000Z</time>
      </trkpt>
      <trkpt lat="48.69278" lon="1.74437">
        <ele>166.39999389648</ele>
        <time>2015-07-13T09:06:19.000Z</time>
      </trkpt>
      <trkpt lat="48.69273" lon="1.74414">
        <ele>165.39999389648</ele>
        <time>2015-07-13T09:06:29.000Z</time>
      </trkpt>
      <trkpt lat="48.69269" lon="1.74401">
        <ele>164.80000305176</ele>
        <time>2015-07-13T09:06:35.000Z</time>
      </trkpt>
      <trkpt lat="48.69265" lon="1.74386">
        <ele>163.80000305176</ele>
        <time>2015-07-13T09:06:42.000Z</time>
      </trkpt>
      <trkpt lat="48.69261" lon="1.74371">
        <ele>162.60000610352</ele>
        <time>2015-07-13T09:06:49.000Z</time>
      </trkpt>
      <trkpt lat="48.69257" lon="1.74356">
        <ele>161.60000610352</ele>
        <time>2015-07-13T09:06:56.000Z</time>
      </trkpt>
      <trkpt lat="48.69253" lon="1.74339">
        <ele>160.39999389648</ele>
        <time>2015-07-13T09:07:04.000Z</time>
      </trkpt>
      <trkpt lat="48.69246" lon="1.74327">
        <ele>159.60000610352</ele>
        <time>2015-07-13T09:07:09.000Z</time>
      </trkpt>
      <trkpt lat="48.69241" lon="1.74313">
        <ele>159.19999694824</ele>
        <time>2015-07-13T09:07:16.000Z</time>
      </trkpt>
      <trkpt lat="48.6924" lon="1.74304">
        <ele>159</ele>
        <time>2015-07-13T09:07:20.000Z</time>
      </trkpt>
      <trkpt lat="48.69238" lon="1.74295">
        <ele>159</ele>
        <time>2015-07-13T09:07:24.000Z</time>
      </trkpt>
      <trkpt lat="48.69233" lon="1.7428">
        <ele>158.80000305176</ele>
        <time>2015-07-13T09:07:31.000Z</time>
      </trkpt>
      <trkpt lat="48.69232" lon="1.74275">
        <ele>158.60000610352</ele>
        <time>2015-07-13T09:07:33.000Z</time>
      </trkpt>
      <trkpt lat="48.69232" lon="1.7426">
        <ele>158</ele>
        <time>2015-07-13T09:07:40.000Z</time>
      </trkpt>
      <trkpt lat="48.69228" lon="1.74244">
        <ele>157.80000305176</ele>
        <time>2015-07-13T09:07:48.000Z</time>
      </trkpt>
      <trkpt lat="48.69224" lon="1.74231">
        <ele>157.80000305176</ele>
        <time>2015-07-13T09:07:55.000Z</time>
      </trkpt>
      <trkpt lat="48.69221" lon="1.74221">
        <ele>158</ele>
        <time>2015-07-13T09:08:01.000Z</time>
      </trkpt>
      <trkpt lat="48.6922" lon="1.74205">
        <ele>158</ele>
        <time>2015-07-13T09:08:08.000Z</time>
      </trkpt>
      <trkpt lat="48.69217" lon="1.74188">
        <ele>158.19999694824</ele>
        <time>2015-07-13T09:08:16.000Z</time>
      </trkpt>
      <trkpt lat="48.69213" lon="1.74172">
        <ele>159</ele>
        <time>2015-07-13T09:08:23.000Z</time>
      </trkpt>
      <trkpt lat="48.69206" lon="1.74151">
        <ele>160.19999694824</ele>
        <time>2015-07-13T09:08:32.000Z</time>
      </trkpt>
      <trkpt lat="48.69203" lon="1.74142">
        <ele>160.39999389648</ele>
        <time>2015-07-13T09:08:36.000Z</time>
      </trkpt>
      <trkpt lat="48.69199" lon="1.74127">
        <ele>160.39999389648</ele>
        <time>2015-07-13T09:08:43.000Z</time>
      </trkpt>
      <trkpt lat="48.69195" lon="1.74115">
        <ele>160.60000610352</ele>
        <time>2015-07-13T09:08:49.000Z</time>
      </trkpt>
      <trkpt lat="48.69192" lon="1.74099">
        <ele>160.80000305176</ele>
        <time>2015-07-13T09:08:56.000Z</time>
      </trkpt>
      <trkpt lat="48.69187" lon="1.74078">
        <ele>161</ele>
        <time>2015-07-13T09:09:06.000Z</time>
      </trkpt>
      <trkpt lat="48.69182" lon="1.74061">
        <ele>161.39999389648</ele>
        <time>2015-07-13T09:09:14.000Z</time>
      </trkpt>
      <trkpt lat="48.69178" lon="1.74049">
        <ele>161.60000610352</ele>
        <time>2015-07-13T09:09:20.000Z</time>
      </trkpt>
      <trkpt lat="48.69175" lon="1.74034">
        <ele>162</ele>
        <time>2015-07-13T09:09:27.000Z</time>
      </trkpt>
      <trkpt lat="48.6917" lon="1.74017">
        <ele>162.39999389648</ele>
        <time>2015-07-13T09:09:35.000Z</time>
      </trkpt>
      <trkpt lat="48.69165" lon="1.74001">
        <ele>162.80000305176</ele>
        <time>2015-07-13T09:09:42.000Z</time>
      </trkpt>
      <trkpt lat="48.69162" lon="1.73988">
        <ele>163.19999694824</ele>
        <time>2015-07-13T09:09:48.000Z</time>
      </trkpt>
      <trkpt lat="48.69159" lon="1.73973">
        <ele>163.19999694824</ele>
        <time>2015-07-13T09:09:55.000Z</time>
      </trkpt>
      <trkpt lat="48.69156" lon="1.73959">
        <ele>163.39999389648</ele>
        <time>2015-07-13T09:10:02.000Z</time>
      </trkpt>
      <trkpt lat="48.69151" lon="1.73945">
        <ele>164</ele>
        <time>2015-07-13T09:10:08.000Z</time>
      </trkpt>
      <trkpt lat="48.69146" lon="1.73928">
        <ele>164.80000305176</ele>
        <time>2015-07-13T09:10:15.000Z</time>
      </trkpt>
      <trkpt lat="48.69144" lon="1.73913">
        <ele>165.60000610352</ele>
        <time>2015-07-13T09:10:21.000Z</time>
      </trkpt>
      <trkpt lat="48.6914" lon="1.73893">
        <ele>166.80000305176</ele>
        <time>2015-07-13T09:10:27.000Z</time>
      </trkpt>
      <trkpt lat="48.69137" lon="1.73877">
        <ele>168</ele>
        <time>2015-07-13T09:10:31.000Z</time>
      </trkpt>
      <trkpt lat="48.6913" lon="1.73852">
        <ele>169.80000305176</ele>
        <time>2015-07-13T09:10:37.000Z</time>
      </trkpt>
      <trkpt lat="48.69124" lon="1.73828">
        <ele>171.39999389648</ele>
        <time>2015-07-13T09:10:43.000Z</time>
      </trkpt>
      <trkpt lat="48.69117" lon="1.73805">
        <ele>172.60000610352</ele>
        <time>2015-07-13T09:10:48.000Z</time>
      </trkpt>
      <trkpt lat="48.6911" lon="1.73777">
        <ele>173.60000610352</ele>
        <time>2015-07-13T09:10:54.000Z</time>
      </trkpt>
      <trkpt lat="48.69101" lon="1.73747">
        <ele>174.60000610352</ele>
        <time>2015-07-13T09:11:01.000Z</time>
      </trkpt>
      <trkpt lat="48.69094" lon="1.73722">
        <ele>174.80000305176</ele>
        <time>2015-07-13T09:11:07.000Z</time>
      </trkpt>
      <trkpt lat="48.69087" lon="1.73695">
        <ele>174.60000610352</ele>
        <time>2015-07-13T09:11:13.000Z</time>
      </trkpt>
      <trkpt lat="48.69084" lon="1.73669">
        <ele>174.60000610352</ele>
        <time>2015-07-13T09:11:19.000Z</time>
      </trkpt>
      <trkpt lat="48.69077" lon="1.73643">
        <ele>174.19999694824</ele>
        <time>2015-07-13T09:11:25.000Z</time>
      </trkpt>
      <trkpt lat="48.69072" lon="1.73626">
        <ele>173.60000610352</ele>
        <time>2015-07-13T09:11:31.000Z</time>
      </trkpt>
      <trkpt lat="48.69064" lon="1.73612">
        <ele>173.19999694824</ele>
        <time>2015-07-13T09:11:39.000Z</time>
      </trkpt>
      <trkpt lat="48.69063" lon="1.73609">
        <ele>173</ele>
        <time>2015-07-13T09:11:42.000Z</time>
      </trkpt>
      <trkpt lat="48.69056" lon="1.73607">
        <ele>172.80000305176</ele>
        <time>2015-07-13T09:11:48.000Z</time>
      </trkpt>
      <trkpt lat="48.69046" lon="1.73605">
        <ele>172.39999389648</ele>
        <time>2015-07-13T09:11:53.000Z</time>
      </trkpt>
      <trkpt lat="48.69034" lon="1.73603">
        <ele>172.19999694824</ele>
        <time>2015-07-13T09:12:00.000Z</time>
      </trkpt>
      <trkpt lat="48.69025" lon="1.73602">
        <ele>171.80000305176</ele>
        <time>2015-07-13T09:12:06.000Z</time>
      </trkpt>
      <trkpt lat="48.69013" lon="1.73601">
        <ele>171.60000610352</ele>
        <time>2015-07-13T09:12:13.000Z</time>
      </trkpt>
      <trkpt lat="48.69003" lon="1.73598">
        <ele>171.19999694824</ele>
        <time>2015-07-13T09:12:18.000Z</time>
      </trkpt>
      <trkpt lat="48.68996" lon="1.73597">
        <ele>171</ele>
        <time>2015-07-13T09:12:22.000Z</time>
      </trkpt>
      <trkpt lat="48.68988" lon="1.73593">
        <ele>170.80000305176</ele>
        <time>2015-07-13T09:12:28.000Z</time>
      </trkpt>
      <trkpt lat="48.68979" lon="1.73591">
        <ele>170.60000610352</ele>
        <time>2015-07-13T09:12:35.000Z</time>
      </trkpt>
      <trkpt lat="48.68976" lon="1.7359">
        <ele>170.39999389648</ele>
        <time>2015-07-13T09:12:37.000Z</time>
      </trkpt>
      <trkpt lat="48.68957" lon="1.73586">
        <ele>169.80000305176</ele>
        <time>2015-07-13T09:12:46.000Z</time>
      </trkpt>
      <trkpt lat="48.68945" lon="1.73588">
        <ele>169.60000610352</ele>
        <time>2015-07-13T09:12:53.000Z</time>
      </trkpt>
      <trkpt lat="48.68935" lon="1.73585">
        <ele>169.39999389648</ele>
        <time>2015-07-13T09:12:58.000Z</time>
      </trkpt>
      <trkpt lat="48.68924" lon="1.73587">
        <ele>169.60000610352</ele>
        <time>2015-07-13T09:13:06.000Z</time>
      </trkpt>
      <trkpt lat="48.68915" lon="1.73586">
        <ele>169.60000610352</ele>
        <time>2015-07-13T09:13:14.000Z</time>
      </trkpt>
      <trkpt lat="48.68906" lon="1.73587">
        <ele>169.80000305176</ele>
        <time>2015-07-13T09:13:22.000Z</time>
      </trkpt>
      <trkpt lat="48.68901" lon="1.73587">
        <ele>169.80000305176</ele>
        <time>2015-07-13T09:13:27.000Z</time>
      </trkpt>
      <trkpt lat="48.68893" lon="1.73587">
        <ele>170</ele>
        <time>2015-07-13T09:13:33.000Z</time>
      </trkpt>
      <trkpt lat="48.68886" lon="1.73586">
        <ele>170</ele>
        <time>2015-07-13T09:13:37.000Z</time>
      </trkpt>
      <trkpt lat="48.68881" lon="1.73586">
        <ele>170</ele>
        <time>2015-07-13T09:13:40.000Z</time>
      </trkpt>
      <trkpt lat="48.68868" lon="1.73586">
        <ele>170.19999694824</ele>
        <time>2015-07-13T09:13:48.000Z</time>
      </trkpt>
      <trkpt lat="48.6886" lon="1.73584">
        <ele>170</ele>
        <time>2015-07-13T09:13:53.000Z</time>
      </trkpt>
      <trkpt lat="48.68842" lon="1.73579">
        <ele>170</ele>
        <time>2015-07-13T09:14:00.000Z</time>
      </trkpt>
      <trkpt lat="48.68827" lon="1.73577">
        <ele>170</ele>
        <time>2015-07-13T09:14:06.000Z</time>
      </trkpt>
      <trkpt lat="48.68825" lon="1.73574">
        <ele>170</ele>
        <time>2015-07-13T09:14:11.000Z</time>
      </trkpt>
      <trkpt lat="48.68813" lon="1.73573">
        <ele>170</ele>
        <time>2015-07-13T09:14:17.000Z</time>
      </trkpt>
      <trkpt lat="48.6881" lon="1.73573">
        <ele>170</ele>
        <time>2015-07-13T09:14:22.000Z</time>
      </trkpt>
      <trkpt lat="48.6881" lon="1.73573">
        <ele>170</ele>
        <time>2015-07-13T09:14:23.000Z</time>
      </trkpt>
      <trkpt lat="48.68808" lon="1.73573">
        <ele>170</ele>
        <time>2015-07-13T09:14:26.000Z</time>
      </trkpt>
      <trkpt lat="48.688" lon="1.73572">
        <ele>170</ele>
        <time>2015-07-13T09:14:27.000Z</time>
      </trkpt>
      <trkpt lat="48.68792" lon="1.73576">
        <ele>170</ele>
        <time>2015-07-13T09:14:32.000Z</time>
      </trkpt>
      <trkpt lat="48.68786" lon="1.73577">
        <ele>170</ele>
        <time>2015-07-13T09:14:34.000Z</time>
      </trkpt>
      <trkpt lat="48.68766" lon="1.73573">
        <ele>169.80000305176</ele>
        <time>2015-07-13T09:14:41.000Z</time>
      </trkpt>
      <trkpt lat="48.68771" lon="1.73573">
        <ele>170</ele>
        <time>2015-07-13T09:14:46.000Z</time>
      </trkpt>
      <trkpt lat="48.68769" lon="1.73573">
        <ele>170</ele>
        <time>2015-07-13T09:14:53.000Z</time>
      </trkpt>
      <trkpt lat="48.68756" lon="1.73571">
        <ele>169.39999389648</ele>
        <time>2015-07-13T09:14:58.000Z</time>
      </trkpt>
      <trkpt lat="48.68739" lon="1.73569">
        <ele>168.39999389648</ele>
        <time>2015-07-13T09:15:05.000Z</time>
      </trkpt>
      <trkpt lat="48.68729" lon="1.73569">
        <ele>168</ele>
        <time>2015-07-13T09:15:11.000Z</time>
      </trkpt>
      <trkpt lat="48.68716" lon="1.73568">
        <ele>167.39999389648</ele>
        <time>2015-07-13T09:15:18.000Z</time>
      </trkpt>
      <trkpt lat="48.68715" lon="1.73566">
        <ele>167.19999694824</ele>
        <time>2015-07-13T09:15:22.000Z</time>
      </trkpt>
      <trkpt lat="48.68719" lon="1.73567">
        <ele>167.39999389648</ele>
        <time>2015-07-13T09:15:27.000Z</time>
      </trkpt>
      <trkpt lat="48.68709" lon="1.73566">
        <ele>167</ele>
        <time>2015-07-13T09:15:41.000Z</time>
      </trkpt>
      <trkpt lat="48.68701" lon="1.73563">
        <ele>166.60000610352</ele>
        <time>2015-07-13T09:15:50.000Z</time>
      </trkpt>
      <trkpt lat="48.68696" lon="1.73562">
        <ele>166.19999694824</ele>
        <time>2015-07-13T09:15:53.000Z</time>
      </trkpt>
      <trkpt lat="48.68687" lon="1.73565">
        <ele>165.80000305176</ele>
        <time>2015-07-13T09:15:57.000Z</time>
      </trkpt>
      <trkpt lat="48.68666" lon="1.7356">
        <ele>165.19999694824</ele>
        <time>2015-07-13T09:16:04.000Z</time>
      </trkpt>
      <trkpt lat="48.68661" lon="1.73559">
        <ele>165</ele>
        <time>2015-07-13T09:16:10.000Z</time>
      </trkpt>
      <trkpt lat="48.68657" lon="1.73561">
        <ele>164.80000305176</ele>
        <time>2015-07-13T09:16:14.000Z</time>
      </trkpt>
      <trkpt lat="48.6864" lon="1.73558">
        <ele>164</ele>
        <time>2015-07-13T09:16:21.000Z</time>
      </trkpt>
      <trkpt lat="48.68633" lon="1.73557">
        <ele>163.80000305176</ele>
        <time>2015-07-13T09:16:27.000Z</time>
      </trkpt>
      <trkpt lat="48.68627" lon="1.73557">
        <ele>163.39999389648</ele>
        <time>2015-07-13T09:16:34.000Z</time>
      </trkpt>
      <trkpt lat="48.68623" lon="1.73556">
        <ele>163.19999694824</ele>
        <time>2015-07-13T09:16:39.000Z</time>
      </trkpt>
      <trkpt lat="48.68616" lon="1.73556">
        <ele>163</ele>
        <time>2015-07-13T09:16:43.000Z</time>
      </trkpt>
      <trkpt lat="48.68611" lon="1.73556">
        <ele>162.80000305176</ele>
        <time>2015-07-13T09:16:47.000Z</time>
      </trkpt>
      <trkpt lat="48.68608" lon="1.73555">
        <ele>162.60000610352</ele>
        <time>2015-07-13T09:16:48.000Z</time>
      </trkpt>
      <trkpt lat="48.686" lon="1.73553">
        <ele>162.60000610352</ele>
        <time>2015-07-13T09:16:55.000Z</time>
      </trkpt>
      <trkpt lat="48.68599" lon="1.73556">
        <ele>162.60000610352</ele>
        <time>2015-07-13T09:16:57.000Z</time>
      </trkpt>
      <trkpt lat="48.68598" lon="1.73566">
        <ele>162.39999389648</ele>
        <time>2015-07-13T09:17:02.000Z</time>
      </trkpt>
      <trkpt lat="48.68604" lon="1.73587">
        <ele>162</ele>
        <time>2015-07-13T09:17:09.000Z</time>
      </trkpt>
      <trkpt lat="48.68604" lon="1.73593">
        <ele>162</ele>
        <time>2015-07-13T09:17:11.000Z</time>
      </trkpt>
      <trkpt lat="48.68592" lon="1.736">
        <ele>162.60000610352</ele>
        <time>2015-07-13T09:17:16.000Z</time>
      </trkpt>
      <trkpt lat="48.68585" lon="1.73607">
        <ele>163</ele>
        <time>2015-07-13T09:17:21.000Z</time>
      </trkpt>
      <trkpt lat="48.68576" lon="1.73616">
        <ele>163.60000610352</ele>
        <time>2015-07-13T09:17:28.000Z</time>
      </trkpt>
      <trkpt lat="48.68577" lon="1.7362">
        <ele>163.60000610352</ele>
        <time>2015-07-13T09:17:29.000Z</time>
      </trkpt>
      <trkpt lat="48.68574" lon="1.73624">
        <ele>163.80000305176</ele>
        <time>2015-07-13T09:17:32.000Z</time>
      </trkpt>
      <trkpt lat="48.68564" lon="1.73632">
        <ele>163.60000610352</ele>
        <time>2015-07-13T09:17:38.000Z</time>
      </trkpt>
      <trkpt lat="48.68564" lon="1.73644">
        <ele>163</ele>
        <time>2015-07-13T09:17:43.000Z</time>
      </trkpt>
      <trkpt lat="48.68566" lon="1.73655">
        <ele>162.60000610352</ele>
        <time>2015-07-13T09:17:47.000Z</time>
      </trkpt>
      <trkpt lat="48.68567" lon="1.73665">
        <ele>163</ele>
        <time>2015-07-13T09:17:50.000Z</time>
      </trkpt>
      <trkpt lat="48.68565" lon="1.73673">
        <ele>163.60000610352</ele>
        <time>2015-07-13T09:17:54.000Z</time>
      </trkpt>
      <trkpt lat="48.68562" lon="1.73682">
        <ele>164.19999694824</ele>
        <time>2015-07-13T09:17:59.000Z</time>
      </trkpt>
      <trkpt lat="48.68559" lon="1.73689">
        <ele>164.60000610352</ele>
        <time>2015-07-13T09:18:03.000Z</time>
      </trkpt>
      <trkpt lat="48.68556" lon="1.737">
        <ele>164.60000610352</ele>
        <time>2015-07-13T09:18:08.000Z</time>
      </trkpt>
      <trkpt lat="48.68555" lon="1.73701">
        <ele>164.60000610352</ele>
        <time>2015-07-13T09:18:09.000Z</time>
      </trkpt>
      <trkpt lat="48.6855" lon="1.73702">
        <ele>164.19999694824</ele>
        <time>2015-07-13T09:18:11.000Z</time>
      </trkpt>
      <trkpt lat="48.68543" lon="1.73711">
        <ele>163.80000305176</ele>
        <time>2015-07-13T09:18:17.000Z</time>
      </trkpt>
      <trkpt lat="48.68546" lon="1.73723">
        <ele>163.80000305176</ele>
        <time>2015-07-13T09:18:22.000Z</time>
      </trkpt>
      <trkpt lat="48.68544" lon="1.73731">
        <ele>163.60000610352</ele>
        <time>2015-07-13T09:18:26.000Z</time>
      </trkpt>
      <trkpt lat="48.68539" lon="1.73738">
        <ele>163.19999694824</ele>
        <time>2015-07-13T09:18:30.000Z</time>
      </trkpt>
      <trkpt lat="48.68538" lon="1.7375">
        <ele>163.19999694824</ele>
        <time>2015-07-13T09:18:35.000Z</time>
      </trkpt>
      <trkpt lat="48.68535" lon="1.73763">
        <ele>163</ele>
        <time>2015-07-13T09:18:41.000Z</time>
      </trkpt>
      <trkpt lat="48.6853" lon="1.73768">
        <ele>162.39999389648</ele>
        <time>2015-07-13T09:18:45.000Z</time>
      </trkpt>
      <trkpt lat="48.68525" lon="1.73776">
        <ele>162</ele>
        <time>2015-07-13T09:18:50.000Z</time>
      </trkpt>
      <trkpt lat="48.68519" lon="1.73784">
        <ele>161.39999389648</ele>
        <time>2015-07-13T09:18:56.000Z</time>
      </trkpt>
      <trkpt lat="48.68516" lon="1.73784">
        <ele>161.60000610352</ele>
        <time>2015-07-13T09:19:00.000Z</time>
      </trkpt>
      <trkpt lat="48.68516" lon="1.73783">
        <ele>161.60000610352</ele>
        <time>2015-07-13T09:19:01.000Z</time>
      </trkpt>
      <trkpt lat="48.68517" lon="1.73785">
        <ele>161.60000610352</ele>
        <time>2015-07-13T09:19:25.000Z</time>
      </trkpt>
      <trkpt lat="48.68517" lon="1.73794">
        <ele>161.39999389648</ele>
        <time>2015-07-13T09:19:28.000Z</time>
      </trkpt>
      <trkpt lat="48.68518" lon="1.73798">
        <ele>161.39999389648</ele>
        <time>2015-07-13T09:19:30.000Z</time>
      </trkpt>
      <trkpt lat="48.68515" lon="1.73801">
        <ele>161.39999389648</ele>
        <time>2015-07-13T09:19:35.000Z</time>
      </trkpt>
      <trkpt lat="48.68509" lon="1.73806">
        <ele>161.80000305176</ele>
        <time>2015-07-13T09:19:39.000Z</time>
      </trkpt>
      <trkpt lat="48.68513" lon="1.7382">
        <ele>161.60000610352</ele>
        <time>2015-07-13T09:19:44.000Z</time>
      </trkpt>
      <trkpt lat="48.68514" lon="1.73832">
        <ele>161.39999389648</ele>
        <time>2015-07-13T09:19:49.000Z</time>
      </trkpt>
      <trkpt lat="48.68515" lon="1.73848">
        <ele>161.39999389648</ele>
        <time>2015-07-13T09:19:56.000Z</time>
      </trkpt>
      <trkpt lat="48.68516" lon="1.73868">
        <ele>161.19999694824</ele>
        <time>2015-07-13T09:20:05.000Z</time>
      </trkpt>
      <trkpt lat="48.68514" lon="1.73878">
        <ele>161.39999389648</ele>
        <time>2015-07-13T09:20:10.000Z</time>
      </trkpt>
      <trkpt lat="48.68517" lon="1.73892">
        <ele>161.19999694824</ele>
        <time>2015-07-13T09:20:16.000Z</time>
      </trkpt>
      <trkpt lat="48.68518" lon="1.73895">
        <ele>161.19999694824</ele>
        <time>2015-07-13T09:20:17.000Z</time>
      </trkpt>
      <trkpt lat="48.68517" lon="1.73903">
        <ele>161.19999694824</ele>
        <time>2015-07-13T09:20:21.000Z</time>
      </trkpt>
      <trkpt lat="48.68515" lon="1.73914">
        <ele>161.19999694824</ele>
        <time>2015-07-13T09:20:28.000Z</time>
      </trkpt>
      <trkpt lat="48.68515" lon="1.73919">
        <ele>161.19999694824</ele>
        <time>2015-07-13T09:20:31.000Z</time>
      </trkpt>
      <trkpt lat="48.68518" lon="1.73929">
        <ele>160.80000305176</ele>
        <time>2015-07-13T09:20:36.000Z</time>
      </trkpt>
      <trkpt lat="48.68519" lon="1.73938">
        <ele>160.60000610352</ele>
        <time>2015-07-13T09:20:40.000Z</time>
      </trkpt>
      <trkpt lat="48.68521" lon="1.7395">
        <ele>160.60000610352</ele>
        <time>2015-07-13T09:20:45.000Z</time>
      </trkpt>
      <trkpt lat="48.6852" lon="1.73956">
        <ele>160.39999389648</ele>
        <time>2015-07-13T09:20:48.000Z</time>
      </trkpt>
      <trkpt lat="48.68521" lon="1.73966">
        <ele>160.39999389648</ele>
        <time>2015-07-13T09:20:52.000Z</time>
      </trkpt>
      <trkpt lat="48.68519" lon="1.73971">
        <ele>160.19999694824</ele>
        <time>2015-07-13T09:20:55.000Z</time>
      </trkpt>
      <trkpt lat="48.68517" lon="1.73987">
        <ele>160.19999694824</ele>
        <time>2015-07-13T09:21:03.000Z</time>
      </trkpt>
      <trkpt lat="48.68519" lon="1.73998">
        <ele>159.80000305176</ele>
        <time>2015-07-13T09:21:07.000Z</time>
      </trkpt>
      <trkpt lat="48.68524" lon="1.74018">
        <ele>159.60000610352</ele>
        <time>2015-07-13T09:21:14.000Z</time>
      </trkpt>
      <trkpt lat="48.6853" lon="1.74034">
        <ele>159.60000610352</ele>
        <time>2015-07-13T09:21:18.000Z</time>
      </trkpt>
      <trkpt lat="48.68529" lon="1.74047">
        <ele>159.19999694824</ele>
        <time>2015-07-13T09:21:24.000Z</time>
      </trkpt>
      <trkpt lat="48.68529" lon="1.74051">
        <ele>159.19999694824</ele>
        <time>2015-07-13T09:21:26.000Z</time>
      </trkpt>
      <trkpt lat="48.68528" lon="1.74059">
        <ele>159</ele>
        <time>2015-07-13T09:21:30.000Z</time>
      </trkpt>
      <trkpt lat="48.68527" lon="1.74069">
        <ele>158.60000610352</ele>
        <time>2015-07-13T09:21:35.000Z</time>
      </trkpt>
      <trkpt lat="48.68528" lon="1.7408">
        <ele>158.39999389648</ele>
        <time>2015-07-13T09:21:39.000Z</time>
      </trkpt>
      <trkpt lat="48.68526" lon="1.74091">
        <ele>158.19999694824</ele>
        <time>2015-07-13T09:21:44.000Z</time>
      </trkpt>
      <trkpt lat="48.6852" lon="1.74103">
        <ele>158</ele>
        <time>2015-07-13T09:21:52.000Z</time>
      </trkpt>
      <trkpt lat="48.68523" lon="1.74115">
        <ele>158.19999694824</ele>
        <time>2015-07-13T09:21:59.000Z</time>
      </trkpt>
      <trkpt lat="48.68522" lon="1.74119">
        <ele>158</ele>
        <time>2015-07-13T09:22:01.000Z</time>
      </trkpt>
      <trkpt lat="48.68522" lon="1.74128">
        <ele>158</ele>
        <time>2015-07-13T09:22:05.000Z</time>
      </trkpt>
      <trkpt lat="48.6852" lon="1.74145">
        <ele>158</ele>
        <time>2015-07-13T09:22:12.000Z</time>
      </trkpt>
      <trkpt lat="48.68519" lon="1.74153">
        <ele>158</ele>
        <time>2015-07-13T09:22:15.000Z</time>
      </trkpt>
      <trkpt lat="48.68521" lon="1.74171">
        <ele>157.60000610352</ele>
        <time>2015-07-13T09:22:22.000Z</time>
      </trkpt>
      <trkpt lat="48.6852" lon="1.74177">
        <ele>157.39999389648</ele>
        <time>2015-07-13T09:22:24.000Z</time>
      </trkpt>
      <trkpt lat="48.68518" lon="1.74181">
        <ele>157.39999389648</ele>
        <time>2015-07-13T09:22:26.000Z</time>
      </trkpt>
      <trkpt lat="48.68518" lon="1.74189">
        <ele>157.19999694824</ele>
        <time>2015-07-13T09:22:29.000Z</time>
      </trkpt>
      <trkpt lat="48.68518" lon="1.74203">
        <ele>156.80000305176</ele>
        <time>2015-07-13T09:22:35.000Z</time>
      </trkpt>
      <trkpt lat="48.68519" lon="1.74212">
        <ele>156.60000610352</ele>
        <time>2015-07-13T09:22:39.000Z</time>
      </trkpt>
      <trkpt lat="48.6852" lon="1.7422">
        <ele>156.39999389648</ele>
        <time>2015-07-13T09:22:43.000Z</time>
      </trkpt>
      <trkpt lat="48.68516" lon="1.74227">
        <ele>156.39999389648</ele>
        <time>2015-07-13T09:22:48.000Z</time>
      </trkpt>
      <trkpt lat="48.68515" lon="1.74229">
        <ele>156.39999389648</ele>
        <time>2015-07-13T09:22:49.000Z</time>
      </trkpt>
      <trkpt lat="48.68509" lon="1.74237">
        <ele>156.19999694824</ele>
        <time>2015-07-13T09:22:54.000Z</time>
      </trkpt>
      <trkpt lat="48.68503" lon="1.74247">
        <ele>156</ele>
        <time>2015-07-13T09:23:00.000Z</time>
      </trkpt>
      <trkpt lat="48.68502" lon="1.7425">
        <ele>156</ele>
        <time>2015-07-13T09:23:01.000Z</time>
      </trkpt>
      <trkpt lat="48.68499" lon="1.74257">
        <ele>155.80000305176</ele>
        <time>2015-07-13T09:23:05.000Z</time>
      </trkpt>
      <trkpt lat="48.68501" lon="1.74271">
        <ele>155.39999389648</ele>
        <time>2015-07-13T09:23:11.000Z</time>
      </trkpt>
      <trkpt lat="48.68495" lon="1.74281">
        <ele>155.19999694824</ele>
        <time>2015-07-13T09:23:17.000Z</time>
      </trkpt>
      <trkpt lat="48.68493" lon="1.74292">
        <ele>155</ele>
        <time>2015-07-13T09:23:22.000Z</time>
      </trkpt>
      <trkpt lat="48.68491" lon="1.74301">
        <ele>154.60000610352</ele>
        <time>2015-07-13T09:23:26.000Z</time>
      </trkpt>
      <trkpt lat="48.68491" lon="1.74315">
        <ele>154.19999694824</ele>
        <time>2015-07-13T09:23:32.000Z</time>
      </trkpt>
      <trkpt lat="48.68491" lon="1.74316">
        <ele>154.19999694824</ele>
        <time>2015-07-13T09:23:33.000Z</time>
      </trkpt>
      <trkpt lat="48.6849" lon="1.7433">
        <ele>153.39999389648</ele>
        <time>2015-07-13T09:23:39.000Z</time>
      </trkpt>
      <trkpt lat="48.6849" lon="1.74332">
        <ele>153.19999694824</ele>
        <time>2015-07-13T09:23:40.000Z</time>
      </trkpt>
      <trkpt lat="48.68487" lon="1.74337">
        <ele>153</ele>
        <time>2015-07-13T09:23:43.000Z</time>
      </trkpt>
      <trkpt lat="48.6848" lon="1.74347">
        <ele>152.39999389648</ele>
        <time>2015-07-13T09:23:49.000Z</time>
      </trkpt>
      <trkpt lat="48.68476" lon="1.7436">
        <ele>151.60000610352</ele>
        <time>2015-07-13T09:23:55.000Z</time>
      </trkpt>
      <trkpt lat="48.68477" lon="1.74365">
        <ele>151.39999389648</ele>
        <time>2015-07-13T09:23:57.000Z</time>
      </trkpt>
      <trkpt lat="48.68482" lon="1.74381">
        <ele>151</ele>
        <time>2015-07-13T09:24:03.000Z</time>
      </trkpt>
      <trkpt lat="48.68489" lon="1.74388">
        <ele>150.60000610352</ele>
        <time>2015-07-13T09:24:09.000Z</time>
      </trkpt>
      <trkpt lat="48.685" lon="1.74391">
        <ele>150.19999694824</ele>
        <time>2015-07-13T09:24:16.000Z</time>
      </trkpt>
      <trkpt lat="48.68502" lon="1.7439">
        <ele>150</ele>
        <time>2015-07-13T09:24:18.000Z</time>
      </trkpt>
      <trkpt lat="48.68508" lon="1.74392">
        <ele>149.80000305176</ele>
        <time>2015-07-13T09:24:22.000Z</time>
      </trkpt>
      <trkpt lat="48.68517" lon="1.7439">
        <ele>149.80000305176</ele>
        <time>2015-07-13T09:24:28.000Z</time>
      </trkpt>
      <trkpt lat="48.68524" lon="1.74382">
        <ele>150.60000610352</ele>
        <time>2015-07-13T09:24:34.000Z</time>
      </trkpt>
      <trkpt lat="48.68528" lon="1.74374">
        <ele>151.39999389648</ele>
        <time>2015-07-13T09:24:38.000Z</time>
      </trkpt>
      <trkpt lat="48.68532" lon="1.74357">
        <ele>153</ele>
        <time>2015-07-13T09:24:46.000Z</time>
      </trkpt>
      <trkpt lat="48.68533" lon="1.74355">
        <ele>153</ele>
        <time>2015-07-13T09:24:47.000Z</time>
      </trkpt>
      <trkpt lat="48.68537" lon="1.74341">
        <ele>154.19999694824</ele>
        <time>2015-07-13T09:24:54.000Z</time>
      </trkpt>
      <trkpt lat="48.68546" lon="1.74325">
        <ele>154.39999389648</ele>
        <time>2015-07-13T09:25:03.000Z</time>
      </trkpt>
      <trkpt lat="48.68549" lon="1.74312">
        <ele>154.60000610352</ele>
        <time>2015-07-13T09:25:09.000Z</time>
      </trkpt>
      <trkpt lat="48.68555" lon="1.74306">
        <ele>154.80000305176</ele>
        <time>2015-07-13T09:25:14.000Z</time>
      </trkpt>
      <trkpt lat="48.68557" lon="1.74298">
        <ele>155</ele>
        <time>2015-07-13T09:25:18.000Z</time>
      </trkpt>
      <trkpt lat="48.68559" lon="1.74282">
        <ele>155.39999389648</ele>
        <time>2015-07-13T09:25:25.000Z</time>
      </trkpt>
      <trkpt lat="48.68561" lon="1.74273">
        <ele>155.80000305176</ele>
        <time>2015-07-13T09:25:29.000Z</time>
      </trkpt>
      <trkpt lat="48.68564" lon="1.74266">
        <ele>156</ele>
        <time>2015-07-13T09:25:33.000Z</time>
      </trkpt>
      <trkpt lat="48.68571" lon="1.74251">
        <ele>156.80000305176</ele>
        <time>2015-07-13T09:25:41.000Z</time>
      </trkpt>
      <trkpt lat="48.68583" lon="1.74236">
        <ele>157.60000610352</ele>
        <time>2015-07-13T09:25:50.000Z</time>
      </trkpt>
      <trkpt lat="48.68588" lon="1.74232">
        <ele>157.80000305176</ele>
        <time>2015-07-13T09:25:54.000Z</time>
      </trkpt>
      <trkpt lat="48.68598" lon="1.74224">
        <ele>158.39999389648</ele>
        <time>2015-07-13T09:26:01.000Z</time>
      </trkpt>
      <trkpt lat="48.68611" lon="1.74215">
        <ele>158.60000610352</ele>
        <time>2015-07-13T09:26:09.000Z</time>
      </trkpt>
      <trkpt lat="48.68619" lon="1.74209">
        <ele>158.80000305176</ele>
        <time>2015-07-13T09:26:15.000Z</time>
      </trkpt>
      <trkpt lat="48.68622" lon="1.74205">
        <ele>159</ele>
        <time>2015-07-13T09:26:18.000Z</time>
      </trkpt>
      <trkpt lat="48.68631" lon="1.74204">
        <ele>158.80000305176</ele>
        <time>2015-07-13T09:26:24.000Z</time>
      </trkpt>
      <trkpt lat="48.68636" lon="1.74202">
        <ele>158.80000305176</ele>
        <time>2015-07-13T09:26:27.000Z</time>
      </trkpt>
      <trkpt lat="48.68641" lon="1.742">
        <ele>158.80000305176</ele>
        <time>2015-07-13T09:26:31.000Z</time>
      </trkpt>
      <trkpt lat="48.68649" lon="1.74199">
        <ele>158.80000305176</ele>
        <time>2015-07-13T09:26:36.000Z</time>
      </trkpt>
      <trkpt lat="48.68654" lon="1.74196">
        <ele>158.60000610352</ele>
        <time>2015-07-13T09:26:41.000Z</time>
      </trkpt>
      <trkpt lat="48.68655" lon="1.74195">
        <ele>158.60000610352</ele>
        <time>2015-07-13T09:26:42.000Z</time>
      </trkpt>
      <trkpt lat="48.68661" lon="1.74195">
        <ele>158.39999389648</ele>
        <time>2015-07-13T09:26:46.000Z</time>
      </trkpt>
      <trkpt lat="48.68662" lon="1.74194">
        <ele>158.39999389648</ele>
        <time>2015-07-13T09:26:51.000Z</time>
      </trkpt>
      <trkpt lat="48.68668" lon="1.74193">
        <ele>158.19999694824</ele>
        <time>2015-07-13T09:26:59.000Z</time>
      </trkpt>
      <trkpt lat="48.6867" lon="1.74193">
        <ele>158.19999694824</ele>
        <time>2015-07-13T09:27:00.000Z</time>
      </trkpt>
      <trkpt lat="48.68673" lon="1.74186">
        <ele>158</ele>
        <time>2015-07-13T09:27:07.000Z</time>
      </trkpt>
      <trkpt lat="48.68676" lon="1.74186">
        <ele>158</ele>
        <time>2015-07-13T09:27:11.000Z</time>
      </trkpt>
      <trkpt lat="48.68678" lon="1.74186">
        <ele>158</ele>
        <time>2015-07-13T09:27:12.000Z</time>
      </trkpt>
      <trkpt lat="48.68692" lon="1.74191">
        <ele>157.60000610352</ele>
        <time>2015-07-13T09:27:21.000Z</time>
      </trkpt>
      <trkpt lat="48.68698" lon="1.7419">
        <ele>157.60000610352</ele>
        <time>2015-07-13T09:27:29.000Z</time>
      </trkpt>
      <trkpt lat="48.68698" lon="1.7419">
        <ele>157.60000610352</ele>
        <time>2015-07-13T09:27:31.000Z</time>
      </trkpt>
      <trkpt lat="48.68699" lon="1.74203">
        <ele>157.39999389648</ele>
        <time>2015-07-13T09:27:41.000Z</time>
      </trkpt>
      <trkpt lat="48.687" lon="1.74214">
        <ele>157.19999694824</ele>
        <time>2015-07-13T09:27:44.000Z</time>
      </trkpt>
      <trkpt lat="48.68695" lon="1.74227">
        <ele>157.19999694824</ele>
        <time>2015-07-13T09:27:51.000Z</time>
      </trkpt>
      <trkpt lat="48.68693" lon="1.74231">
        <ele>157</ele>
        <time>2015-07-13T09:27:54.000Z</time>
      </trkpt>
      <trkpt lat="48.68689" lon="1.74234">
        <ele>157</ele>
        <time>2015-07-13T09:27:57.000Z</time>
      </trkpt>
      <trkpt lat="48.68681" lon="1.74235">
        <ele>157.19999694824</ele>
        <time>2015-07-13T09:28:03.000Z</time>
      </trkpt>
      <trkpt lat="48.68675" lon="1.74236">
        <ele>157.19999694824</ele>
        <time>2015-07-13T09:28:07.000Z</time>
      </trkpt>
      <trkpt lat="48.68665" lon="1.74238">
        <ele>157.19999694824</ele>
        <time>2015-07-13T09:28:12.000Z</time>
      </trkpt>
      <trkpt lat="48.68655" lon="1.74241">
        <ele>157.39999389648</ele>
        <time>2015-07-13T09:28:18.000Z</time>
      </trkpt>
      <trkpt lat="48.68645" lon="1.74247">
        <ele>157.80000305176</ele>
        <time>2015-07-13T09:28:25.000Z</time>
      </trkpt>
      <trkpt lat="48.68637" lon="1.74253">
        <ele>158</ele>
        <time>2015-07-13T09:28:32.000Z</time>
      </trkpt>
      <trkpt lat="48.68628" lon="1.74259">
        <ele>158.19999694824</ele>
        <time>2015-07-13T09:28:38.000Z</time>
      </trkpt>
      <trkpt lat="48.68616" lon="1.74265">
        <ele>157.60000610352</ele>
        <time>2015-07-13T09:28:46.000Z</time>
      </trkpt>
      <trkpt lat="48.68606" lon="1.74273">
        <ele>156.80000305176</ele>
        <time>2015-07-13T09:28:52.000Z</time>
      </trkpt>
      <trkpt lat="48.68604" lon="1.74276">
        <ele>156.60000610352</ele>
        <time>2015-07-13T09:28:54.000Z</time>
      </trkpt>
      <trkpt lat="48.68596" lon="1.74281">
        <ele>156.19999694824</ele>
        <time>2015-07-13T09:29:00.000Z</time>
      </trkpt>
      <trkpt lat="48.68587" lon="1.74289">
        <ele>155.80000305176</ele>
        <time>2015-07-13T09:29:08.000Z</time>
      </trkpt>
      <trkpt lat="48.68585" lon="1.7429">
        <ele>155.60000610352</ele>
        <time>2015-07-13T09:29:10.000Z</time>
      </trkpt>
      <trkpt lat="48.68581" lon="1.74296">
        <ele>155.39999389648</ele>
        <time>2015-07-13T09:29:15.000Z</time>
      </trkpt>
      <trkpt lat="48.68576" lon="1.74306">
        <ele>155</ele>
        <time>2015-07-13T09:29:21.000Z</time>
      </trkpt>
      <trkpt lat="48.68573" lon="1.74312">
        <ele>154.80000305176</ele>
        <time>2015-07-13T09:29:25.000Z</time>
      </trkpt>
      <trkpt lat="48.68571" lon="1.74324">
        <ele>154.60000610352</ele>
        <time>2015-07-13T09:29:32.000Z</time>
      </trkpt>
      <trkpt lat="48.68569" lon="1.74337">
        <ele>154.80000305176</ele>
        <time>2015-07-13T09:29:38.000Z</time>
      </trkpt>
      <trkpt lat="48.68568" lon="1.74345">
        <ele>154.80000305176</ele>
        <time>2015-07-13T09:29:42.000Z</time>
      </trkpt>
      <trkpt lat="48.68568" lon="1.74361">
        <ele>155</ele>
        <time>2015-07-13T09:29:50.000Z</time>
      </trkpt>
      <trkpt lat="48.6857" lon="1.74379">
        <ele>154.80000305176</ele>
        <time>2015-07-13T09:29:58.000Z</time>
      </trkpt>
      <trkpt lat="48.68568" lon="1.74394">
        <ele>153.60000610352</ele>
        <time>2015-07-13T09:30:04.000Z</time>
      </trkpt>
      <trkpt lat="48.68568" lon="1.74399">
        <ele>153.39999389648</ele>
        <time>2015-07-13T09:30:06.000Z</time>
      </trkpt>
      <trkpt lat="48.68571" lon="1.74411">
        <ele>153.80000305176</ele>
        <time>2015-07-13T09:30:10.000Z</time>
      </trkpt>
      <trkpt lat="48.68565" lon="1.74423">
        <ele>154.19999694824</ele>
        <time>2015-07-13T09:30:16.000Z</time>
      </trkpt>
      <trkpt lat="48.68561" lon="1.74427">
        <ele>154.19999694824</ele>
        <time>2015-07-13T09:30:19.000Z</time>
      </trkpt>
      <trkpt lat="48.68554" lon="1.74437">
        <ele>154.19999694824</ele>
        <time>2015-07-13T09:30:25.000Z</time>
      </trkpt>
      <trkpt lat="48.68549" lon="1.74441">
        <ele>154</ele>
        <time>2015-07-13T09:30:29.000Z</time>
      </trkpt>
      <trkpt lat="48.68544" lon="1.74452">
        <ele>154.60000610352</ele>
        <time>2015-07-13T09:30:34.000Z</time>
      </trkpt>
      <trkpt lat="48.68538" lon="1.74459">
        <ele>154.39999389648</ele>
        <time>2015-07-13T09:30:39.000Z</time>
      </trkpt>
      <trkpt lat="48.68534" lon="1.74462">
        <ele>154.39999389648</ele>
        <time>2015-07-13T09:30:44.000Z</time>
      </trkpt>
      <trkpt lat="48.68525" lon="1.74464">
        <ele>153.80000305176</ele>
        <time>2015-07-13T09:30:47.000Z</time>
      </trkpt>
      <trkpt lat="48.68518" lon="1.74468">
        <ele>153.60000610352</ele>
        <time>2015-07-13T09:30:52.000Z</time>
      </trkpt>
      <trkpt lat="48.68512" lon="1.7447">
        <ele>154.19999694824</ele>
        <time>2015-07-13T09:30:58.000Z</time>
      </trkpt>
      <trkpt lat="48.6851" lon="1.7447">
        <ele>154.19999694824</ele>
        <time>2015-07-13T09:30:59.000Z</time>
      </trkpt>
      <trkpt lat="48.68501" lon="1.74474">
        <ele>154.39999389648</ele>
        <time>2015-07-13T09:31:06.000Z</time>
      </trkpt>
      <trkpt lat="48.68494" lon="1.74481">
        <ele>154</ele>
        <time>2015-07-13T09:31:12.000Z</time>
      </trkpt>
      <trkpt lat="48.68495" lon="1.74484">
        <ele>153.80000305176</ele>
        <time>2015-07-13T09:31:14.000Z</time>
      </trkpt>
      <trkpt lat="48.68491" lon="1.74487">
        <ele>153.60000610352</ele>
        <time>2015-07-13T09:31:18.000Z</time>
      </trkpt>
      <trkpt lat="48.68481" lon="1.74491">
        <ele>153.39999389648</ele>
        <time>2015-07-13T09:31:25.000Z</time>
      </trkpt>
      <trkpt lat="48.68476" lon="1.74494">
        <ele>153.60000610352</ele>
        <time>2015-07-13T09:31:29.000Z</time>
      </trkpt>
      <trkpt lat="48.68462" lon="1.74501">
        <ele>153.60000610352</ele>
        <time>2015-07-13T09:31:38.000Z</time>
      </trkpt>
      <trkpt lat="48.68452" lon="1.74505">
        <ele>153.39999389648</ele>
        <time>2015-07-13T09:31:44.000Z</time>
      </trkpt>
      <trkpt lat="48.68445" lon="1.74509">
        <ele>152.60000610352</ele>
        <time>2015-07-13T09:31:50.000Z</time>
      </trkpt>
      <trkpt lat="48.68442" lon="1.74509">
        <ele>152.39999389648</ele>
        <time>2015-07-13T09:31:52.000Z</time>
      </trkpt>
      <trkpt lat="48.68433" lon="1.74513">
        <ele>152.19999694824</ele>
        <time>2015-07-13T09:31:58.000Z</time>
      </trkpt>
      <trkpt lat="48.68426" lon="1.74523">
        <ele>153.19999694824</ele>
        <time>2015-07-13T09:32:05.000Z</time>
      </trkpt>
      <trkpt lat="48.68418" lon="1.74529">
        <ele>154</ele>
        <time>2015-07-13T09:32:11.000Z</time>
      </trkpt>
      <trkpt lat="48.68407" lon="1.74532">
        <ele>155</ele>
        <time>2015-07-13T09:32:17.000Z</time>
      </trkpt>
      <trkpt lat="48.68404" lon="1.74541">
        <ele>155.39999389648</ele>
        <time>2015-07-13T09:32:23.000Z</time>
      </trkpt>
      <trkpt lat="48.68397" lon="1.74548">
        <ele>155</ele>
        <time>2015-07-13T09:32:30.000Z</time>
      </trkpt>
      <trkpt lat="48.68391" lon="1.74555">
        <ele>154.80000305176</ele>
        <time>2015-07-13T09:32:36.000Z</time>
      </trkpt>
      <trkpt lat="48.68388" lon="1.74562">
        <ele>154.39999389648</ele>
        <time>2015-07-13T09:32:41.000Z</time>
      </trkpt>
      <trkpt lat="48.68382" lon="1.74571">
        <ele>154</ele>
        <time>2015-07-13T09:32:47.000Z</time>
      </trkpt>
      <trkpt lat="48.6838" lon="1.74574">
        <ele>154.19999694824</ele>
        <time>2015-07-13T09:32:49.000Z</time>
      </trkpt>
      <trkpt lat="48.68377" lon="1.74586">
        <ele>155</ele>
        <time>2015-07-13T09:32:54.000Z</time>
      </trkpt>
      <trkpt lat="48.68371" lon="1.74592">
        <ele>155</ele>
        <time>2015-07-13T09:33:01.000Z</time>
      </trkpt>
      <trkpt lat="48.68369" lon="1.7459">
        <ele>155</ele>
        <time>2015-07-13T09:33:03.000Z</time>
      </trkpt>
      <trkpt lat="48.68365" lon="1.74584">
        <ele>154.80000305176</ele>
        <time>2015-07-13T09:33:08.000Z</time>
      </trkpt>
      <trkpt lat="48.68361" lon="1.74575">
        <ele>154.19999694824</ele>
        <time>2015-07-13T09:33:13.000Z</time>
      </trkpt>
      <trkpt lat="48.68359" lon="1.74568">
        <ele>154.19999694824</ele>
        <time>2015-07-13T09:33:19.000Z</time>
      </trkpt>
      <trkpt lat="48.68357" lon="1.74566">
        <ele>154.19999694824</ele>
        <time>2015-07-13T09:33:23.000Z</time>
      </trkpt>
      <trkpt lat="48.68357" lon="1.74567">
        <ele>154.19999694824</ele>
        <time>2015-07-13T09:33:25.000Z</time>
      </trkpt>
      <trkpt lat="48.68347" lon="1.7456">
        <ele>155</ele>
        <time>2015-07-13T09:33:39.000Z</time>
      </trkpt>
      <trkpt lat="48.68344" lon="1.74557">
        <ele>155.39999389648</ele>
        <time>2015-07-13T09:33:41.000Z</time>
      </trkpt>
      <trkpt lat="48.68339" lon="1.74554">
        <ele>156</ele>
        <time>2015-07-13T09:33:46.000Z</time>
      </trkpt>
      <trkpt lat="48.68337" lon="1.74553">
        <ele>156.19999694824</ele>
        <time>2015-07-13T09:33:47.000Z</time>
      </trkpt>
      <trkpt lat="48.68331" lon="1.74546">
        <ele>157</ele>
        <time>2015-07-13T09:33:53.000Z</time>
      </trkpt>
      <trkpt lat="48.68326" lon="1.7454">
        <ele>157.80000305176</ele>
        <time>2015-07-13T09:33:58.000Z</time>
      </trkpt>
      <trkpt lat="48.68324" lon="1.74535">
        <ele>158.19999694824</ele>
        <time>2015-07-13T09:34:03.000Z</time>
      </trkpt>
      <trkpt lat="48.68316" lon="1.74527">
        <ele>159.19999694824</ele>
        <time>2015-07-13T09:34:09.000Z</time>
      </trkpt>
      <trkpt lat="48.68313" lon="1.74523">
        <ele>159.60000610352</ele>
        <time>2015-07-13T09:34:13.000Z</time>
      </trkpt>
      <trkpt lat="48.68303" lon="1.74515">
        <ele>160.80000305176</ele>
        <time>2015-07-13T09:34:27.000Z</time>
      </trkpt>
      <trkpt lat="48.68303" lon="1.74512">
        <ele>161</ele>
        <time>2015-07-13T09:34:29.000Z</time>
      </trkpt>
      <trkpt lat="48.68299" lon="1.74499">
        <ele>162</ele>
        <time>2015-07-13T09:34:37.000Z</time>
      </trkpt>
      <trkpt lat="48.68295" lon="1.74484">
        <ele>162.80000305176</ele>
        <time>2015-07-13T09:34:44.000Z</time>
      </trkpt>
      <trkpt lat="48.68294" lon="1.74472">
        <ele>162.80000305176</ele>
        <time>2015-07-13T09:34:49.000Z</time>
      </trkpt>
      <trkpt lat="48.6829" lon="1.74456">
        <ele>163</ele>
        <time>2015-07-13T09:34:57.000Z</time>
      </trkpt>
      <trkpt lat="48.68289" lon="1.74452">
        <ele>163</ele>
        <time>2015-07-13T09:34:59.000Z</time>
      </trkpt>
      <trkpt lat="48.68287" lon="1.74437">
        <ele>163</ele>
        <time>2015-07-13T09:35:06.000Z</time>
      </trkpt>
      <trkpt lat="48.68285" lon="1.74431">
        <ele>163</ele>
        <time>2015-07-13T09:35:09.000Z</time>
      </trkpt>
      <trkpt lat="48.68282" lon="1.74417">
        <ele>163</ele>
        <time>2015-07-13T09:35:16.000Z</time>
      </trkpt>
      <trkpt lat="48.68281" lon="1.74403">
        <ele>163.60000610352</ele>
        <time>2015-07-13T09:35:22.000Z</time>
      </trkpt>
      <trkpt lat="48.68277" lon="1.74389">
        <ele>163.80000305176</ele>
        <time>2015-07-13T09:35:28.000Z</time>
      </trkpt>
      <trkpt lat="48.68274" lon="1.74376">
        <ele>163.80000305176</ele>
        <time>2015-07-13T09:35:34.000Z</time>
      </trkpt>
      <trkpt lat="48.68273" lon="1.74371">
        <ele>163.80000305176</ele>
        <time>2015-07-13T09:35:37.000Z</time>
      </trkpt>
      <trkpt lat="48.68274" lon="1.74363">
        <ele>163.80000305176</ele>
        <time>2015-07-13T09:35:42.000Z</time>
      </trkpt>
      <trkpt lat="48.68276" lon="1.74358">
        <ele>163.80000305176</ele>
        <time>2015-07-13T09:35:45.000Z</time>
      </trkpt>
      <trkpt lat="48.68276" lon="1.74347">
        <ele>163.80000305176</ele>
        <time>2015-07-13T09:35:50.000Z</time>
      </trkpt>
      <trkpt lat="48.68271" lon="1.74334">
        <ele>164</ele>
        <time>2015-07-13T09:35:56.000Z</time>
      </trkpt>
      <trkpt lat="48.68268" lon="1.74318">
        <ele>164</ele>
        <time>2015-07-13T09:36:03.000Z</time>
      </trkpt>
      <trkpt lat="48.68268" lon="1.74311">
        <ele>163.80000305176</ele>
        <time>2015-07-13T09:36:07.000Z</time>
      </trkpt>
      <trkpt lat="48.68267" lon="1.74309">
        <ele>163.80000305176</ele>
        <time>2015-07-13T09:36:08.000Z</time>
      </trkpt>
      <trkpt lat="48.68266" lon="1.74299">
        <ele>163.60000610352</ele>
        <time>2015-07-13T09:36:14.000Z</time>
      </trkpt>
      <trkpt lat="48.68263" lon="1.74288">
        <ele>163.60000610352</ele>
        <time>2015-07-13T09:36:19.000Z</time>
      </trkpt>
      <trkpt lat="48.6826" lon="1.74275">
        <ele>163.39999389648</ele>
        <time>2015-07-13T09:36:25.000Z</time>
      </trkpt>
      <trkpt lat="48.68258" lon="1.74265">
        <ele>163.19999694824</ele>
        <time>2015-07-13T09:36:29.000Z</time>
      </trkpt>
      <trkpt lat="48.68254" lon="1.74254">
        <ele>163.19999694824</ele>
        <time>2015-07-13T09:36:35.000Z</time>
      </trkpt>
      <trkpt lat="48.68252" lon="1.7424">
        <ele>163</ele>
        <time>2015-07-13T09:36:41.000Z</time>
      </trkpt>
      <trkpt lat="48.68249" lon="1.74229">
        <ele>163</ele>
        <time>2015-07-13T09:36:46.000Z</time>
      </trkpt>
      <trkpt lat="48.68247" lon="1.74219">
        <ele>163</ele>
        <time>2015-07-13T09:36:51.000Z</time>
      </trkpt>
      <trkpt lat="48.68248" lon="1.74212">
        <ele>163</ele>
        <time>2015-07-13T09:36:55.000Z</time>
      </trkpt>
      <trkpt lat="48.68248" lon="1.74206">
        <ele>163</ele>
        <time>2015-07-13T09:36:59.000Z</time>
      </trkpt>
      <trkpt lat="48.68245" lon="1.74195">
        <ele>163.19999694824</ele>
        <time>2015-07-13T09:37:04.000Z</time>
      </trkpt>
      <trkpt lat="48.68242" lon="1.74187">
        <ele>163.39999389648</ele>
        <time>2015-07-13T09:37:08.000Z</time>
      </trkpt>
      <trkpt lat="48.68241" lon="1.74183">
        <ele>163.39999389648</ele>
        <time>2015-07-13T09:37:10.000Z</time>
      </trkpt>
      <trkpt lat="48.68242" lon="1.74168">
        <ele>163.39999389648</ele>
        <time>2015-07-13T09:37:16.000Z</time>
      </trkpt>
      <trkpt lat="48.68241" lon="1.74165">
        <ele>163.39999389648</ele>
        <time>2015-07-13T09:37:18.000Z</time>
      </trkpt>
      <trkpt lat="48.68239" lon="1.74153">
        <ele>163.39999389648</ele>
        <time>2015-07-13T09:37:22.000Z</time>
      </trkpt>
      <trkpt lat="48.68238" lon="1.7414">
        <ele>163.60000610352</ele>
        <time>2015-07-13T09:37:28.000Z</time>
      </trkpt>
      <trkpt lat="48.68235" lon="1.74127">
        <ele>163.60000610352</ele>
        <time>2015-07-13T09:37:35.000Z</time>
      </trkpt>
      <trkpt lat="48.68231" lon="1.74113">
        <ele>164</ele>
        <time>2015-07-13T09:37:42.000Z</time>
      </trkpt>
      <trkpt lat="48.68229" lon="1.74102">
        <ele>164.19999694824</ele>
        <time>2015-07-13T09:37:48.000Z</time>
      </trkpt>
      <trkpt lat="48.68228" lon="1.74096">
        <ele>164.39999389648</ele>
        <time>2015-07-13T09:37:51.000Z</time>
      </trkpt>
      <trkpt lat="48.68228" lon="1.74094">
        <ele>164.39999389648</ele>
        <time>2015-07-13T09:37:53.000Z</time>
      </trkpt>
      <trkpt lat="48.68229" lon="1.74089">
        <ele>164.60000610352</ele>
        <time>2015-07-13T09:37:55.000Z</time>
      </trkpt>
      <trkpt lat="48.68228" lon="1.74074">
        <ele>165</ele>
        <time>2015-07-13T09:38:02.000Z</time>
      </trkpt>
      <trkpt lat="48.68224" lon="1.74062">
        <ele>165.19999694824</ele>
        <time>2015-07-13T09:38:07.000Z</time>
      </trkpt>
      <trkpt lat="48.68223" lon="1.74058">
        <ele>165.19999694824</ele>
        <time>2015-07-13T09:38:12.000Z</time>
      </trkpt>
      <trkpt lat="48.68223" lon="1.74054">
        <ele>165.39999389648</ele>
        <time>2015-07-13T09:38:14.000Z</time>
      </trkpt>
      <trkpt lat="48.68222" lon="1.74049">
        <ele>165.39999389648</ele>
        <time>2015-07-13T09:38:16.000Z</time>
      </trkpt>
      <trkpt lat="48.68217" lon="1.74031">
        <ele>165.80000305176</ele>
        <time>2015-07-13T09:38:24.000Z</time>
      </trkpt>
      <trkpt lat="48.68213" lon="1.74018">
        <ele>166</ele>
        <time>2015-07-13T09:38:30.000Z</time>
      </trkpt>
      <trkpt lat="48.68211" lon="1.74006">
        <ele>166.19999694824</ele>
        <time>2015-07-13T09:38:37.000Z</time>
      </trkpt>
      <trkpt lat="48.6821" lon="1.74">
        <ele>166.19999694824</ele>
        <time>2015-07-13T09:38:40.000Z</time>
      </trkpt>
      <trkpt lat="48.6821" lon="1.73989">
        <ele>166.39999389648</ele>
        <time>2015-07-13T09:38:44.000Z</time>
      </trkpt>
      <trkpt lat="48.68208" lon="1.73986">
        <ele>166.39999389648</ele>
        <time>2015-07-13T09:38:46.000Z</time>
      </trkpt>
      <trkpt lat="48.68205" lon="1.73977">
        <ele>166.60000610352</ele>
        <time>2015-07-13T09:38:50.000Z</time>
      </trkpt>
      <trkpt lat="48.68202" lon="1.73967">
        <ele>166.60000610352</ele>
        <time>2015-07-13T09:38:56.000Z</time>
      </trkpt>
      <trkpt lat="48.68202" lon="1.73965">
        <ele>166.60000610352</ele>
        <time>2015-07-13T09:38:57.000Z</time>
      </trkpt>
      <trkpt lat="48.68199" lon="1.73951">
        <ele>166.60000610352</ele>
        <time>2015-07-13T09:39:05.000Z</time>
      </trkpt>
      <trkpt lat="48.68197" lon="1.73949">
        <ele>166.80000305176</ele>
        <time>2015-07-13T09:39:07.000Z</time>
      </trkpt>
      <trkpt lat="48.68196" lon="1.73946">
        <ele>166.80000305176</ele>
        <time>2015-07-13T09:39:09.000Z</time>
      </trkpt>
      <trkpt lat="48.6819" lon="1.73935">
        <ele>167</ele>
        <time>2015-07-13T09:39:16.000Z</time>
      </trkpt>
      <trkpt lat="48.68188" lon="1.73934">
        <ele>167</ele>
        <time>2015-07-13T09:39:17.000Z</time>
      </trkpt>
      <trkpt lat="48.6818" lon="1.73925">
        <ele>167.39999389648</ele>
        <time>2015-07-13T09:39:24.000Z</time>
      </trkpt>
      <trkpt lat="48.68174" lon="1.73918">
        <ele>167.60000610352</ele>
        <time>2015-07-13T09:39:30.000Z</time>
      </trkpt>
      <trkpt lat="48.68166" lon="1.73907">
        <ele>168</ele>
        <time>2015-07-13T09:39:37.000Z</time>
      </trkpt>
      <trkpt lat="48.68162" lon="1.739">
        <ele>168.19999694824</ele>
        <time>2015-07-13T09:39:42.000Z</time>
      </trkpt>
      <trkpt lat="48.68155" lon="1.73894">
        <ele>168.60000610352</ele>
        <time>2015-07-13T09:39:48.000Z</time>
      </trkpt>
      <trkpt lat="48.68164" lon="1.73887">
        <ele>168</ele>
        <time>2015-07-13T09:40:00.000Z</time>
      </trkpt>
      <trkpt lat="48.68158" lon="1.73882">
        <ele>168.39999389648</ele>
        <time>2015-07-13T09:40:06.000Z</time>
      </trkpt>
      <trkpt lat="48.68153" lon="1.73877">
        <ele>168.60000610352</ele>
        <time>2015-07-13T09:40:10.000Z</time>
      </trkpt>
      <trkpt lat="48.68152" lon="1.73875">
        <ele>168.60000610352</ele>
        <time>2015-07-13T09:40:12.000Z</time>
      </trkpt>
      <trkpt lat="48.68149" lon="1.73872">
        <ele>168.80000305176</ele>
        <time>2015-07-13T09:40:14.000Z</time>
      </trkpt>
      <trkpt lat="48.68143" lon="1.73863">
        <ele>169</ele>
        <time>2015-07-13T09:40:21.000Z</time>
      </trkpt>
      <trkpt lat="48.68137" lon="1.73856">
        <ele>169.39999389648</ele>
        <time>2015-07-13T09:40:27.000Z</time>
      </trkpt>
      <trkpt lat="48.68129" lon="1.73843">
        <ele>169.80000305176</ele>
        <time>2015-07-13T09:40:35.000Z</time>
      </trkpt>
      <trkpt lat="48.68118" lon="1.73829">
        <ele>170.39999389648</ele>
        <time>2015-07-13T09:40:40.000Z</time>
      </trkpt>
      <trkpt lat="48.68106" lon="1.73814">
        <ele>171</ele>
        <time>2015-07-13T09:40:45.000Z</time>
      </trkpt>
      <trkpt lat="48.68093" lon="1.73797">
        <ele>171.80000305176</ele>
        <time>2015-07-13T09:40:50.000Z</time>
      </trkpt>
      <trkpt lat="48.68078" lon="1.73777">
        <ele>173</ele>
        <time>2015-07-13T09:40:56.000Z</time>
      </trkpt>
      <trkpt lat="48.68067" lon="1.73762">
        <ele>173.80000305176</ele>
        <time>2015-07-13T09:41:00.000Z</time>
      </trkpt>
      <trkpt lat="48.68051" lon="1.7374">
        <ele>175</ele>
        <time>2015-07-13T09:41:06.000Z</time>
      </trkpt>
      <trkpt lat="48.6804" lon="1.73722">
        <ele>175.80000305176</ele>
        <time>2015-07-13T09:41:11.000Z</time>
      </trkpt>
      <trkpt lat="48.68026" lon="1.73707">
        <ele>176.60000610352</ele>
        <time>2015-07-13T09:41:16.000Z</time>
      </trkpt>
      <trkpt lat="48.68019" lon="1.73695">
        <ele>177</ele>
        <time>2015-07-13T09:41:20.000Z</time>
      </trkpt>
      <trkpt lat="48.68008" lon="1.73677">
        <ele>177.39999389648</ele>
        <time>2015-07-13T09:41:25.000Z</time>
      </trkpt>
      <trkpt lat="48.67994" lon="1.73659">
        <ele>178</ele>
        <time>2015-07-13T09:41:30.000Z</time>
      </trkpt>
      <trkpt lat="48.67983" lon="1.73642">
        <ele>178.19999694824</ele>
        <time>2015-07-13T09:41:35.000Z</time>
      </trkpt>
      <trkpt lat="48.6797" lon="1.73623">
        <ele>178.39999389648</ele>
        <time>2015-07-13T09:41:41.000Z</time>
      </trkpt>
      <trkpt lat="48.67959" lon="1.73605">
        <ele>178.60000610352</ele>
        <time>2015-07-13T09:41:46.000Z</time>
      </trkpt>
      <trkpt lat="48.67948" lon="1.73588">
        <ele>178.80000305176</ele>
        <time>2015-07-13T09:41:51.000Z</time>
      </trkpt>
      <trkpt lat="48.67935" lon="1.7357">
        <ele>179</ele>
        <time>2015-07-13T09:41:56.000Z</time>
      </trkpt>
      <trkpt lat="48.67924" lon="1.73552">
        <ele>179.19999694824</ele>
        <time>2015-07-13T09:42:01.000Z</time>
      </trkpt>
      <trkpt lat="48.67909" lon="1.7353">
        <ele>179.60000610352</ele>
        <time>2015-07-13T09:42:07.000Z</time>
      </trkpt>
      <trkpt lat="48.67899" lon="1.73515">
        <ele>179.60000610352</ele>
        <time>2015-07-13T09:42:12.000Z</time>
      </trkpt>
      <trkpt lat="48.67888" lon="1.73501">
        <ele>180</ele>
        <time>2015-07-13T09:42:16.000Z</time>
      </trkpt>
      <trkpt lat="48.67876" lon="1.73485">
        <ele>180</ele>
        <time>2015-07-13T09:42:21.000Z</time>
      </trkpt>
      <trkpt lat="48.67862" lon="1.73464">
        <ele>180.19999694824</ele>
        <time>2015-07-13T09:42:27.000Z</time>
      </trkpt>
      <trkpt lat="48.67849" lon="1.7345">
        <ele>180.19999694824</ele>
        <time>2015-07-13T09:42:32.000Z</time>
      </trkpt>
      <trkpt lat="48.67833" lon="1.73435">
        <ele>180.39999389648</ele>
        <time>2015-07-13T09:42:38.000Z</time>
      </trkpt>
      <trkpt lat="48.67819" lon="1.73422">
        <ele>180.60000610352</ele>
        <time>2015-07-13T09:42:43.000Z</time>
      </trkpt>
      <trkpt lat="48.67817" lon="1.7342">
        <ele>180.60000610352</ele>
        <time>2015-07-13T09:42:44.000Z</time>
      </trkpt>
      <trkpt lat="48.678" lon="1.73406">
        <ele>181</ele>
        <time>2015-07-13T09:42:50.000Z</time>
      </trkpt>
      <trkpt lat="48.67781" lon="1.7339">
        <ele>181</ele>
        <time>2015-07-13T09:42:56.000Z</time>
      </trkpt>
      <trkpt lat="48.67764" lon="1.73374">
        <ele>180.39999389648</ele>
        <time>2015-07-13T09:43:02.000Z</time>
      </trkpt>
      <trkpt lat="48.67747" lon="1.73358">
        <ele>179</ele>
        <time>2015-07-13T09:43:08.000Z</time>
      </trkpt>
      <trkpt lat="48.67733" lon="1.73345">
        <ele>177.80000305176</ele>
        <time>2015-07-13T09:43:13.000Z</time>
      </trkpt>
      <trkpt lat="48.67726" lon="1.73323">
        <ele>176.60000610352</ele>
        <time>2015-07-13T09:43:18.000Z</time>
      </trkpt>
      <trkpt lat="48.67722" lon="1.73289">
        <ele>175.19999694824</ele>
        <time>2015-07-13T09:43:25.000Z</time>
      </trkpt>
      <trkpt lat="48.67717" lon="1.73257">
        <ele>174</ele>
        <time>2015-07-13T09:43:31.000Z</time>
      </trkpt>
      <trkpt lat="48.67712" lon="1.73222">
        <ele>173.80000305176</ele>
        <time>2015-07-13T09:43:38.000Z</time>
      </trkpt>
      <trkpt lat="48.67707" lon="1.73182">
        <ele>174.60000610352</ele>
        <time>2015-07-13T09:43:46.000Z</time>
      </trkpt>
      <trkpt lat="48.67702" lon="1.73143">
        <ele>175</ele>
        <time>2015-07-13T09:43:54.000Z</time>
      </trkpt>
      <trkpt lat="48.67696" lon="1.73109">
        <ele>175.60000610352</ele>
        <time>2015-07-13T09:44:01.000Z</time>
      </trkpt>
      <trkpt lat="48.67691" lon="1.7308">
        <ele>176</ele>
        <time>2015-07-13T09:44:07.000Z</time>
      </trkpt>
      <trkpt lat="48.67684" lon="1.73046">
        <ele>176.19999694824</ele>
        <time>2015-07-13T09:44:14.000Z</time>
      </trkpt>
      <trkpt lat="48.67678" lon="1.73016">
        <ele>176.39999389648</ele>
        <time>2015-07-13T09:44:21.000Z</time>
      </trkpt>
      <trkpt lat="48.67676" lon="1.73">
        <ele>176.60000610352</ele>
        <time>2015-07-13T09:44:28.000Z</time>
      </trkpt>
      <trkpt lat="48.67674" lon="1.72988">
        <ele>176.80000305176</ele>
        <time>2015-07-13T09:44:34.000Z</time>
      </trkpt>
      <trkpt lat="48.67673" lon="1.72976">
        <ele>176.80000305176</ele>
        <time>2015-07-13T09:44:39.000Z</time>
      </trkpt>
      <trkpt lat="48.6767" lon="1.72967">
        <ele>177</ele>
        <time>2015-07-13T09:44:43.000Z</time>
      </trkpt>
      <trkpt lat="48.67666" lon="1.72951">
        <ele>177.60000610352</ele>
        <time>2015-07-13T09:44:51.000Z</time>
      </trkpt>
      <trkpt lat="48.67665" lon="1.72938">
        <ele>178.19999694824</ele>
        <time>2015-07-13T09:44:57.000Z</time>
      </trkpt>
      <trkpt lat="48.67663" lon="1.7292">
        <ele>178.80000305176</ele>
        <time>2015-07-13T09:45:06.000Z</time>
      </trkpt>
      <trkpt lat="48.67661" lon="1.72904">
        <ele>179.39999389648</ele>
        <time>2015-07-13T09:45:13.000Z</time>
      </trkpt>
      <trkpt lat="48.67661" lon="1.72899">
        <ele>179.39999389648</ele>
        <time>2015-07-13T09:45:15.000Z</time>
      </trkpt>
      <trkpt lat="48.67658" lon="1.72891">
        <ele>179.19999694824</ele>
        <time>2015-07-13T09:45:19.000Z</time>
      </trkpt>
      <trkpt lat="48.67655" lon="1.72878">
        <ele>179.19999694824</ele>
        <time>2015-07-13T09:45:25.000Z</time>
      </trkpt>
      <trkpt lat="48.67654" lon="1.72869">
        <ele>179</ele>
        <time>2015-07-13T09:45:29.000Z</time>
      </trkpt>
      <trkpt lat="48.6765" lon="1.72849">
        <ele>178.80000305176</ele>
        <time>2015-07-13T09:45:38.000Z</time>
      </trkpt>
      <trkpt lat="48.67649" lon="1.72844">
        <ele>178.80000305176</ele>
        <time>2015-07-13T09:45:40.000Z</time>
      </trkpt>
      <trkpt lat="48.67647" lon="1.7283">
        <ele>178.60000610352</ele>
        <time>2015-07-13T09:45:46.000Z</time>
      </trkpt>
      <trkpt lat="48.67643" lon="1.72818">
        <ele>178.39999389648</ele>
        <time>2015-07-13T09:45:51.000Z</time>
      </trkpt>
      <trkpt lat="48.67641" lon="1.72806">
        <ele>178</ele>
        <time>2015-07-13T09:45:56.000Z</time>
      </trkpt>
      <trkpt lat="48.67642" lon="1.72794">
        <ele>177.80000305176</ele>
        <time>2015-07-13T09:46:02.000Z</time>
      </trkpt>
      <trkpt lat="48.6764" lon="1.72781">
        <ele>177.19999694824</ele>
        <time>2015-07-13T09:46:08.000Z</time>
      </trkpt>
      <trkpt lat="48.67638" lon="1.72774">
        <ele>177</ele>
        <time>2015-07-13T09:46:12.000Z</time>
      </trkpt>
      <trkpt lat="48.67638" lon="1.72761">
        <ele>176.60000610352</ele>
        <time>2015-07-13T09:46:18.000Z</time>
      </trkpt>
      <trkpt lat="48.67637" lon="1.72754">
        <ele>176.19999694824</ele>
        <time>2015-07-13T09:46:23.000Z</time>
      </trkpt>
      <trkpt lat="48.6763" lon="1.72763">
        <ele>176.19999694824</ele>
        <time>2015-07-13T09:46:30.000Z</time>
      </trkpt>
      <trkpt lat="48.67627" lon="1.72769">
        <ele>176.19999694824</ele>
        <time>2015-07-13T09:46:33.000Z</time>
      </trkpt>
      <trkpt lat="48.67615" lon="1.72781">
        <ele>175.80000305176</ele>
        <time>2015-07-13T09:46:43.000Z</time>
      </trkpt>
      <trkpt lat="48.67606" lon="1.72795">
        <ele>175.60000610352</ele>
        <time>2015-07-13T09:46:51.000Z</time>
      </trkpt>
      <trkpt lat="48.67598" lon="1.72805">
        <ele>175.60000610352</ele>
        <time>2015-07-13T09:46:58.000Z</time>
      </trkpt>
      <trkpt lat="48.67589" lon="1.72816">
        <ele>175.60000610352</ele>
        <time>2015-07-13T09:47:06.000Z</time>
      </trkpt>
      <trkpt lat="48.67577" lon="1.7283">
        <ele>175.60000610352</ele>
        <time>2015-07-13T09:47:16.000Z</time>
      </trkpt>
      <trkpt lat="48.67568" lon="1.72841">
        <ele>175.60000610352</ele>
        <time>2015-07-13T09:47:24.000Z</time>
      </trkpt>
      <trkpt lat="48.67556" lon="1.72853">
        <ele>175.39999389648</ele>
        <time>2015-07-13T09:47:33.000Z</time>
      </trkpt>
      <trkpt lat="48.67545" lon="1.72865">
        <ele>174.80000305176</ele>
        <time>2015-07-13T09:47:42.000Z</time>
      </trkpt>
      <trkpt lat="48.67539" lon="1.72875">
        <ele>174.39999389648</ele>
        <time>2015-07-13T09:47:48.000Z</time>
      </trkpt>
      <trkpt lat="48.67532" lon="1.72886">
        <ele>173.80000305176</ele>
        <time>2015-07-13T09:47:54.000Z</time>
      </trkpt>
      <trkpt lat="48.67524" lon="1.72894">
        <ele>173.39999389648</ele>
        <time>2015-07-13T09:48:01.000Z</time>
      </trkpt>
      <trkpt lat="48.67523" lon="1.72895">
        <ele>173.39999389648</ele>
        <time>2015-07-13T09:48:02.000Z</time>
      </trkpt>
      <trkpt lat="48.67516" lon="1.729">
        <ele>172.80000305176</ele>
        <time>2015-07-13T09:48:08.000Z</time>
      </trkpt>
      <trkpt lat="48.67514" lon="1.72902">
        <ele>172.39999389648</ele>
        <time>2015-07-13T09:48:10.000Z</time>
      </trkpt>
      <trkpt lat="48.67505" lon="1.72915">
        <ele>171.19999694824</ele>
        <time>2015-07-13T09:48:19.000Z</time>
      </trkpt>
      <trkpt lat="48.67496" lon="1.72925">
        <ele>170</ele>
        <time>2015-07-13T09:48:27.000Z</time>
      </trkpt>
      <trkpt lat="48.67492" lon="1.72929">
        <ele>169.39999389648</ele>
        <time>2015-07-13T09:48:31.000Z</time>
      </trkpt>
      <trkpt lat="48.67484" lon="1.72934">
        <ele>168.39999389648</ele>
        <time>2015-07-13T09:48:37.000Z</time>
      </trkpt>
      <trkpt lat="48.67482" lon="1.72937">
        <ele>168.19999694824</ele>
        <time>2015-07-13T09:48:39.000Z</time>
      </trkpt>
      <trkpt lat="48.67473" lon="1.72948">
        <ele>167.19999694824</ele>
        <time>2015-07-13T09:48:47.000Z</time>
      </trkpt>
      <trkpt lat="48.67468" lon="1.72954">
        <ele>166.80000305176</ele>
        <time>2015-07-13T09:48:52.000Z</time>
      </trkpt>
      <trkpt lat="48.67457" lon="1.72965">
        <ele>166.19999694824</ele>
        <time>2015-07-13T09:49:01.000Z</time>
      </trkpt>
      <trkpt lat="48.67449" lon="1.72978">
        <ele>165.80000305176</ele>
        <time>2015-07-13T09:49:08.000Z</time>
      </trkpt>
      <trkpt lat="48.67443" lon="1.72981">
        <ele>165.39999389648</ele>
        <time>2015-07-13T09:49:13.000Z</time>
      </trkpt>
      <trkpt lat="48.67436" lon="1.72991">
        <ele>165.19999694824</ele>
        <time>2015-07-13T09:49:20.000Z</time>
      </trkpt>
      <trkpt lat="48.67435" lon="1.72996">
        <ele>165.39999389648</ele>
        <time>2015-07-13T09:49:24.000Z</time>
      </trkpt>
      <trkpt lat="48.67436" lon="1.72999">
        <ele>165.60000610352</ele>
        <time>2015-07-13T09:49:27.000Z</time>
      </trkpt>
      <trkpt lat="48.67436" lon="1.73">
        <ele>165.60000610352</ele>
        <time>2015-07-13T09:49:29.000Z</time>
      </trkpt>
      <trkpt lat="48.67428" lon="1.73005">
        <ele>165.60000610352</ele>
        <time>2015-07-13T09:49:46.000Z</time>
      </trkpt>
      <trkpt lat="48.67427" lon="1.73006">
        <ele>165.60000610352</ele>
        <time>2015-07-13T09:49:47.000Z</time>
      </trkpt>
      <trkpt lat="48.6742" lon="1.73014">
        <ele>165.80000305176</ele>
        <time>2015-07-13T09:49:53.000Z</time>
      </trkpt>
      <trkpt lat="48.67414" lon="1.73021">
        <ele>166.19999694824</ele>
        <time>2015-07-13T09:49:59.000Z</time>
      </trkpt>
      <trkpt lat="48.67409" lon="1.73025">
        <ele>166.19999694824</ele>
        <time>2015-07-13T09:50:05.000Z</time>
      </trkpt>
      <trkpt lat="48.67406" lon="1.73025">
        <ele>166</ele>
        <time>2015-07-13T09:50:10.000Z</time>
      </trkpt>
      <trkpt lat="48.67395" lon="1.73036">
        <ele>166.60000610352</ele>
        <time>2015-07-13T09:50:29.000Z</time>
      </trkpt>
      <trkpt lat="48.67384" lon="1.73048">
        <ele>167.39999389648</ele>
        <time>2015-07-13T09:50:37.000Z</time>
      </trkpt>
      <trkpt lat="48.67377" lon="1.73057">
        <ele>168</ele>
        <time>2015-07-13T09:50:45.000Z</time>
      </trkpt>
      <trkpt lat="48.67368" lon="1.73069">
        <ele>168.80000305176</ele>
        <time>2015-07-13T09:50:53.000Z</time>
      </trkpt>
      <trkpt lat="48.67364" lon="1.73075">
        <ele>169</ele>
        <time>2015-07-13T09:50:59.000Z</time>
      </trkpt>
      <trkpt lat="48.67357" lon="1.73083">
        <ele>169</ele>
        <time>2015-07-13T09:51:05.000Z</time>
      </trkpt>
      <trkpt lat="48.67352" lon="1.73093">
        <ele>169</ele>
        <time>2015-07-13T09:51:11.000Z</time>
      </trkpt>
      <trkpt lat="48.67344" lon="1.73101">
        <ele>168.80000305176</ele>
        <time>2015-07-13T09:51:19.000Z</time>
      </trkpt>
      <trkpt lat="48.67343" lon="1.73103">
        <ele>168.80000305176</ele>
        <time>2015-07-13T09:51:21.000Z</time>
      </trkpt>
      <trkpt lat="48.67338" lon="1.73109">
        <ele>168.80000305176</ele>
        <time>2015-07-13T09:51:26.000Z</time>
      </trkpt>
      <trkpt lat="48.67337" lon="1.73111">
        <ele>168.80000305176</ele>
        <time>2015-07-13T09:51:27.000Z</time>
      </trkpt>
      <trkpt lat="48.67334" lon="1.73123">
        <ele>168.80000305176</ele>
        <time>2015-07-13T09:51:34.000Z</time>
      </trkpt>
      <trkpt lat="48.67333" lon="1.73125">
        <ele>168.80000305176</ele>
        <time>2015-07-13T09:51:36.000Z</time>
      </trkpt>
      <trkpt lat="48.67324" lon="1.7313">
        <ele>168.19999694824</ele>
        <time>2015-07-13T09:51:44.000Z</time>
      </trkpt>
      <trkpt lat="48.67319" lon="1.73136">
        <ele>167.39999389648</ele>
        <time>2015-07-13T09:51:49.000Z</time>
      </trkpt>
      <trkpt lat="48.67314" lon="1.73139">
        <ele>166.80000305176</ele>
        <time>2015-07-13T09:51:53.000Z</time>
      </trkpt>
      <trkpt lat="48.67303" lon="1.73145">
        <ele>165.39999389648</ele>
        <time>2015-07-13T09:52:01.000Z</time>
      </trkpt>
      <trkpt lat="48.67295" lon="1.73148">
        <ele>164.60000610352</ele>
        <time>2015-07-13T09:52:06.000Z</time>
      </trkpt>
      <trkpt lat="48.67292" lon="1.73149">
        <ele>164.19999694824</ele>
        <time>2015-07-13T09:52:08.000Z</time>
      </trkpt>
      <trkpt lat="48.67287" lon="1.73152">
        <ele>163.60000610352</ele>
        <time>2015-07-13T09:52:12.000Z</time>
      </trkpt>
      <trkpt lat="48.67283" lon="1.73155">
        <ele>163</ele>
        <time>2015-07-13T09:52:16.000Z</time>
      </trkpt>
      <trkpt lat="48.6728" lon="1.73155">
        <ele>162.80000305176</ele>
        <time>2015-07-13T09:52:22.000Z</time>
      </trkpt>
      <trkpt lat="48.67278" lon="1.73153">
        <ele>162.80000305176</ele>
        <time>2015-07-13T09:52:51.000Z</time>
      </trkpt>
      <trkpt lat="48.67275" lon="1.73148">
        <ele>163</ele>
        <time>2015-07-13T09:52:58.000Z</time>
      </trkpt>
      <trkpt lat="48.67269" lon="1.73146">
        <ele>162.60000610352</ele>
        <time>2015-07-13T09:53:04.000Z</time>
      </trkpt>
      <trkpt lat="48.67259" lon="1.73146">
        <ele>161.39999389648</ele>
        <time>2015-07-13T09:53:10.000Z</time>
      </trkpt>
      <trkpt lat="48.67251" lon="1.7314">
        <ele>160.80000305176</ele>
        <time>2015-07-13T09:53:16.000Z</time>
      </trkpt>
      <trkpt lat="48.67241" lon="1.73129">
        <ele>160.39999389648</ele>
        <time>2015-07-13T09:53:25.000Z</time>
      </trkpt>
      <trkpt lat="48.67234" lon="1.7312">
        <ele>160.19999694824</ele>
        <time>2015-07-13T09:53:32.000Z</time>
      </trkpt>
      <trkpt lat="48.67228" lon="1.73112">
        <ele>160</ele>
        <time>2015-07-13T09:53:38.000Z</time>
      </trkpt>
      <trkpt lat="48.6722" lon="1.73101">
        <ele>159.80000305176</ele>
        <time>2015-07-13T09:53:46.000Z</time>
      </trkpt>
      <trkpt lat="48.67211" lon="1.73091">
        <ele>159.60000610352</ele>
        <time>2015-07-13T09:53:53.000Z</time>
      </trkpt>
      <trkpt lat="48.67204" lon="1.73078">
        <ele>159.60000610352</ele>
        <time>2015-07-13T09:54:01.000Z</time>
      </trkpt>
      <trkpt lat="48.67201" lon="1.73075">
        <ele>159.39999389648</ele>
        <time>2015-07-13T09:54:04.000Z</time>
      </trkpt>
      <trkpt lat="48.67196" lon="1.73065">
        <ele>159</ele>
        <time>2015-07-13T09:54:09.000Z</time>
      </trkpt>
      <trkpt lat="48.67191" lon="1.73054">
        <ele>158.39999389648</ele>
        <time>2015-07-13T09:54:15.000Z</time>
      </trkpt>
      <trkpt lat="48.67189" lon="1.73051">
        <ele>158</ele>
        <time>2015-07-13T09:54:17.000Z</time>
      </trkpt>
      <trkpt lat="48.67182" lon="1.73034">
        <ele>157.39999389648</ele>
        <time>2015-07-13T09:54:25.000Z</time>
      </trkpt>
      <trkpt lat="48.67181" lon="1.73024">
        <ele>157.19999694824</ele>
        <time>2015-07-13T09:54:30.000Z</time>
      </trkpt>
      <trkpt lat="48.67181" lon="1.73021">
        <ele>157.19999694824</ele>
        <time>2015-07-13T09:54:32.000Z</time>
      </trkpt>
      <trkpt lat="48.67178" lon="1.73007">
        <ele>156.80000305176</ele>
        <time>2015-07-13T09:54:38.000Z</time>
      </trkpt>
      <trkpt lat="48.67176" lon="1.72997">
        <ele>156.60000610352</ele>
        <time>2015-07-13T09:54:43.000Z</time>
      </trkpt>
      <trkpt lat="48.67173" lon="1.72981">
        <ele>156.39999389648</ele>
        <time>2015-07-13T09:54:50.000Z</time>
      </trkpt>
      <trkpt lat="48.67171" lon="1.72971">
        <ele>156</ele>
        <time>2015-07-13T09:54:54.000Z</time>
      </trkpt>
      <trkpt lat="48.67165" lon="1.72958">
        <ele>155.19999694824</ele>
        <time>2015-07-13T09:55:02.000Z</time>
      </trkpt>
      <trkpt lat="48.67161" lon="1.72952">
        <ele>154.80000305176</ele>
        <time>2015-07-13T09:55:07.000Z</time>
      </trkpt>
      <trkpt lat="48.67158" lon="1.72949">
        <ele>154.60000610352</ele>
        <time>2015-07-13T09:55:11.000Z</time>
      </trkpt>
      <trkpt lat="48.67153" lon="1.72942">
        <ele>154.19999694824</ele>
        <time>2015-07-13T09:55:18.000Z</time>
      </trkpt>
      <trkpt lat="48.67147" lon="1.72933">
        <ele>153.60000610352</ele>
        <time>2015-07-13T09:55:25.000Z</time>
      </trkpt>
      <trkpt lat="48.67142" lon="1.72929">
        <ele>153.39999389648</ele>
        <time>2015-07-13T09:55:29.000Z</time>
      </trkpt>
      <trkpt lat="48.67135" lon="1.72922">
        <ele>152.80000305176</ele>
        <time>2015-07-13T09:55:34.000Z</time>
      </trkpt>
      <trkpt lat="48.67129" lon="1.72917">
        <ele>152.60000610352</ele>
        <time>2015-07-13T09:55:38.000Z</time>
      </trkpt>
      <trkpt lat="48.67125" lon="1.72912">
        <ele>152.19999694824</ele>
        <time>2015-07-13T09:55:42.000Z</time>
      </trkpt>
      <trkpt lat="48.67123" lon="1.72908">
        <ele>152</ele>
        <time>2015-07-13T09:55:46.000Z</time>
      </trkpt>
      <trkpt lat="48.67122" lon="1.72907">
        <ele>152</ele>
        <time>2015-07-13T09:55:49.000Z</time>
      </trkpt>
      <trkpt lat="48.67114" lon="1.72913">
        <ele>152.60000610352</ele>
        <time>2015-07-13T09:56:07.000Z</time>
      </trkpt>
      <trkpt lat="48.6711" lon="1.72918">
        <ele>152.60000610352</ele>
        <time>2015-07-13T09:56:11.000Z</time>
      </trkpt>
      <trkpt lat="48.67107" lon="1.72924">
        <ele>152.39999389648</ele>
        <time>2015-07-13T09:56:17.000Z</time>
      </trkpt>
      <trkpt lat="48.67103" lon="1.7293">
        <ele>152.39999389648</ele>
        <time>2015-07-13T09:56:22.000Z</time>
      </trkpt>
      <trkpt lat="48.67096" lon="1.72943">
        <ele>152.19999694824</ele>
        <time>2015-07-13T09:56:29.000Z</time>
      </trkpt>
      <trkpt lat="48.67092" lon="1.72961">
        <ele>152.19999694824</ele>
        <time>2015-07-13T09:56:36.000Z</time>
      </trkpt>
      <trkpt lat="48.67087" lon="1.72972">
        <ele>152</ele>
        <time>2015-07-13T09:56:42.000Z</time>
      </trkpt>
      <trkpt lat="48.67086" lon="1.72976">
        <ele>152</ele>
        <time>2015-07-13T09:56:44.000Z</time>
      </trkpt>
      <trkpt lat="48.67085" lon="1.72984">
        <ele>152</ele>
        <time>2015-07-13T09:56:47.000Z</time>
      </trkpt>
      <trkpt lat="48.67083" lon="1.72995">
        <ele>151.80000305176</ele>
        <time>2015-07-13T09:56:53.000Z</time>
      </trkpt>
      <trkpt lat="48.67077" lon="1.73006">
        <ele>151.39999389648</ele>
        <time>2015-07-13T09:56:58.000Z</time>
      </trkpt>
      <trkpt lat="48.67076" lon="1.73015">
        <ele>151</ele>
        <time>2015-07-13T09:57:03.000Z</time>
      </trkpt>
      <trkpt lat="48.67074" lon="1.73027">
        <ele>150.60000610352</ele>
        <time>2015-07-13T09:57:08.000Z</time>
      </trkpt>
      <trkpt lat="48.67072" lon="1.73041">
        <ele>150.19999694824</ele>
        <time>2015-07-13T09:57:14.000Z</time>
      </trkpt>
      <trkpt lat="48.67072" lon="1.73054">
        <ele>149.80000305176</ele>
        <time>2015-07-13T09:57:21.000Z</time>
      </trkpt>
      <trkpt lat="48.67071" lon="1.73056">
        <ele>149.60000610352</ele>
        <time>2015-07-13T09:57:22.000Z</time>
      </trkpt>
      <trkpt lat="48.6707" lon="1.73066">
        <ele>149.19999694824</ele>
        <time>2015-07-13T09:57:28.000Z</time>
      </trkpt>
      <trkpt lat="48.67071" lon="1.73074">
        <ele>148.80000305176</ele>
        <time>2015-07-13T09:57:33.000Z</time>
      </trkpt>
      <trkpt lat="48.67071" lon="1.73075">
        <ele>148.80000305176</ele>
        <time>2015-07-13T09:57:34.000Z</time>
      </trkpt>
      <trkpt lat="48.67072" lon="1.73079">
        <ele>148.60000610352</ele>
        <time>2015-07-13T09:57:41.000Z</time>
      </trkpt>
      <trkpt lat="48.67072" lon="1.7304">
        <ele>150.19999694824</ele>
        <time>2015-07-13T10:00:14.000Z</time>
      </trkpt>
      <trkpt lat="48.67073" lon="1.7304">
        <ele>150.39999389648</ele>
        <time>2015-07-13T10:00:17.000Z</time>
      </trkpt>
      <trkpt lat="48.67103" lon="1.73049">
        <ele>151.60000610352</ele>
        <time>2015-07-13T10:01:30.000Z</time>
      </trkpt>
      <trkpt lat="48.67107" lon="1.73048">
        <ele>151.80000305176</ele>
        <time>2015-07-13T10:01:32.000Z</time>
      </trkpt>
      <trkpt lat="48.67114" lon="1.73046">
        <ele>152.60000610352</ele>
        <time>2015-07-13T10:01:38.000Z</time>
      </trkpt>
      <trkpt lat="48.67119" lon="1.73044">
        <ele>153</ele>
        <time>2015-07-13T10:01:42.000Z</time>
      </trkpt>
      <trkpt lat="48.67126" lon="1.73039">
        <ele>153.60000610352</ele>
        <time>2015-07-13T10:01:47.000Z</time>
      </trkpt>
      <trkpt lat="48.67138" lon="1.73035">
        <ele>154.80000305176</ele>
        <time>2015-07-13T10:01:54.000Z</time>
      </trkpt>
      <trkpt lat="48.67141" lon="1.73035">
        <ele>155</ele>
        <time>2015-07-13T10:01:56.000Z</time>
      </trkpt>
      <trkpt lat="48.67148" lon="1.73035">
        <ele>155.60000610352</ele>
        <time>2015-07-13T10:02:01.000Z</time>
      </trkpt>
      <trkpt lat="48.67154" lon="1.73038">
        <ele>156</ele>
        <time>2015-07-13T10:02:06.000Z</time>
      </trkpt>
      <trkpt lat="48.67162" lon="1.73041">
        <ele>156.39999389648</ele>
        <time>2015-07-13T10:02:12.000Z</time>
      </trkpt>
      <trkpt lat="48.67173" lon="1.73045">
        <ele>157</ele>
        <time>2015-07-13T10:02:19.000Z</time>
      </trkpt>
      <trkpt lat="48.67186" lon="1.7305">
        <ele>157.80000305176</ele>
        <time>2015-07-13T10:02:27.000Z</time>
      </trkpt>
      <trkpt lat="48.67191" lon="1.73059">
        <ele>158.39999389648</ele>
        <time>2015-07-13T10:02:34.000Z</time>
      </trkpt>
      <trkpt lat="48.67196" lon="1.73072">
        <ele>159.19999694824</ele>
        <time>2015-07-13T10:02:41.000Z</time>
      </trkpt>
      <trkpt lat="48.67199" lon="1.73074">
        <ele>159.19999694824</ele>
        <time>2015-07-13T10:02:44.000Z</time>
      </trkpt>
      <trkpt lat="48.67205" lon="1.73085">
        <ele>159.19999694824</ele>
        <time>2015-07-13T10:02:51.000Z</time>
      </trkpt>
      <trkpt lat="48.67213" lon="1.73093">
        <ele>159.60000610352</ele>
        <time>2015-07-13T10:02:59.000Z</time>
      </trkpt>
      <trkpt lat="48.6722" lon="1.731">
        <ele>159.80000305176</ele>
        <time>2015-07-13T10:03:05.000Z</time>
      </trkpt>
      <trkpt lat="48.67227" lon="1.73111">
        <ele>160</ele>
        <time>2015-07-13T10:03:12.000Z</time>
      </trkpt>
      <trkpt lat="48.67233" lon="1.7312">
        <ele>160.19999694824</ele>
        <time>2015-07-13T10:03:19.000Z</time>
      </trkpt>
      <trkpt lat="48.6724" lon="1.73127">
        <ele>160.39999389648</ele>
        <time>2015-07-13T10:03:25.000Z</time>
      </trkpt>
      <trkpt lat="48.67243" lon="1.73129">
        <ele>160.60000610352</ele>
        <time>2015-07-13T10:03:27.000Z</time>
      </trkpt>
      <trkpt lat="48.67252" lon="1.73135">
        <ele>161.19999694824</ele>
        <time>2015-07-13T10:03:33.000Z</time>
      </trkpt>
      <trkpt lat="48.67261" lon="1.73142">
        <ele>161.80000305176</ele>
        <time>2015-07-13T10:03:39.000Z</time>
      </trkpt>
      <trkpt lat="48.67266" lon="1.73151">
        <ele>161.80000305176</ele>
        <time>2015-07-13T10:03:45.000Z</time>
      </trkpt>
      <trkpt lat="48.67269" lon="1.73153">
        <ele>162</ele>
        <time>2015-07-13T10:03:48.000Z</time>
      </trkpt>
      <trkpt lat="48.67274" lon="1.73153">
        <ele>162.39999389648</ele>
        <time>2015-07-13T10:03:53.000Z</time>
      </trkpt>
      <trkpt lat="48.67283" lon="1.73154">
        <ele>163.19999694824</ele>
        <time>2015-07-13T10:03:59.000Z</time>
      </trkpt>
      <trkpt lat="48.67285" lon="1.73153">
        <ele>163.39999389648</ele>
        <time>2015-07-13T10:04:01.000Z</time>
      </trkpt>
      <trkpt lat="48.67291" lon="1.73148">
        <ele>164.19999694824</ele>
        <time>2015-07-13T10:04:07.000Z</time>
      </trkpt>
      <trkpt lat="48.67296" lon="1.73144">
        <ele>165</ele>
        <time>2015-07-13T10:04:11.000Z</time>
      </trkpt>
      <trkpt lat="48.67304" lon="1.73136">
        <ele>166.19999694824</ele>
        <time>2015-07-13T10:04:18.000Z</time>
      </trkpt>
      <trkpt lat="48.6731" lon="1.73132">
        <ele>167</ele>
        <time>2015-07-13T10:04:24.000Z</time>
      </trkpt>
      <trkpt lat="48.67315" lon="1.73129">
        <ele>167.60000610352</ele>
        <time>2015-07-13T10:04:29.000Z</time>
      </trkpt>
      <trkpt lat="48.67324" lon="1.73124">
        <ele>168.60000610352</ele>
        <time>2015-07-13T10:04:35.000Z</time>
      </trkpt>
      <trkpt lat="48.67333" lon="1.73122">
        <ele>168.80000305176</ele>
        <time>2015-07-13T10:04:41.000Z</time>
      </trkpt>
      <trkpt lat="48.67341" lon="1.73121">
        <ele>168.80000305176</ele>
        <time>2015-07-13T10:04:47.000Z</time>
      </trkpt>
      <trkpt lat="48.67349" lon="1.73123">
        <ele>169</ele>
        <time>2015-07-13T10:04:52.000Z</time>
      </trkpt>
      <trkpt lat="48.67356" lon="1.73128">
        <ele>169</ele>
        <time>2015-07-13T10:04:58.000Z</time>
      </trkpt>
      <trkpt lat="48.67363" lon="1.73129">
        <ele>169.19999694824</ele>
        <time>2015-07-13T10:05:02.000Z</time>
      </trkpt>
      <trkpt lat="48.67371" lon="1.73136">
        <ele>169.19999694824</ele>
        <time>2015-07-13T10:05:08.000Z</time>
      </trkpt>
      <trkpt lat="48.67372" lon="1.73137">
        <ele>169.19999694824</ele>
        <time>2015-07-13T10:05:09.000Z</time>
      </trkpt>
      <trkpt lat="48.67374" lon="1.73138">
        <ele>169.19999694824</ele>
        <time>2015-07-13T10:05:11.000Z</time>
      </trkpt>
      <trkpt lat="48.67377" lon="1.7314">
        <ele>169.19999694824</ele>
        <time>2015-07-13T10:05:14.000Z</time>
      </trkpt>
      <trkpt lat="48.67386" lon="1.73146">
        <ele>169.39999389648</ele>
        <time>2015-07-13T10:05:19.000Z</time>
      </trkpt>
      <trkpt lat="48.67389" lon="1.7315">
        <ele>169.39999389648</ele>
        <time>2015-07-13T10:05:22.000Z</time>
      </trkpt>
      <trkpt lat="48.67399" lon="1.73156">
        <ele>169.39999389648</ele>
        <time>2015-07-13T10:05:29.000Z</time>
      </trkpt>
      <trkpt lat="48.674" lon="1.73157">
        <ele>169.39999389648</ele>
        <time>2015-07-13T10:05:30.000Z</time>
      </trkpt>
      <trkpt lat="48.67405" lon="1.73158">
        <ele>169.39999389648</ele>
        <time>2015-07-13T10:05:33.000Z</time>
      </trkpt>
      <trkpt lat="48.67415" lon="1.73165">
        <ele>169.39999389648</ele>
        <time>2015-07-13T10:05:40.000Z</time>
      </trkpt>
      <trkpt lat="48.67417" lon="1.73167">
        <ele>169.39999389648</ele>
        <time>2015-07-13T10:05:41.000Z</time>
      </trkpt>
      <trkpt lat="48.67424" lon="1.73172">
        <ele>169.19999694824</ele>
        <time>2015-07-13T10:05:47.000Z</time>
      </trkpt>
      <trkpt lat="48.67429" lon="1.73181">
        <ele>169</ele>
        <time>2015-07-13T10:05:53.000Z</time>
      </trkpt>
      <trkpt lat="48.6744" lon="1.73192">
        <ele>168.80000305176</ele>
        <time>2015-07-13T10:06:00.000Z</time>
      </trkpt>
      <trkpt lat="48.67449" lon="1.73198">
        <ele>168.80000305176</ele>
        <time>2015-07-13T10:06:05.000Z</time>
      </trkpt>
      <trkpt lat="48.67453" lon="1.73203">
        <ele>168.60000610352</ele>
        <time>2015-07-13T10:06:10.000Z</time>
      </trkpt>
      <trkpt lat="48.67457" lon="1.73207">
        <ele>168.60000610352</ele>
        <time>2015-07-13T10:06:14.000Z</time>
      </trkpt>
      <trkpt lat="48.67464" lon="1.73207">
        <ele>168.80000305176</ele>
        <time>2015-07-13T10:06:20.000Z</time>
      </trkpt>
      <trkpt lat="48.67472" lon="1.73211">
        <ele>168.80000305176</ele>
        <time>2015-07-13T10:06:26.000Z</time>
      </trkpt>
      <trkpt lat="48.67479" lon="1.73217">
        <ele>168.80000305176</ele>
        <time>2015-07-13T10:06:31.000Z</time>
      </trkpt>
      <trkpt lat="48.67481" lon="1.73219">
        <ele>168.80000305176</ele>
        <time>2015-07-13T10:06:33.000Z</time>
      </trkpt>
      <trkpt lat="48.67487" lon="1.73223">
        <ele>168.80000305176</ele>
        <time>2015-07-13T10:06:37.000Z</time>
      </trkpt>
      <trkpt lat="48.67494" lon="1.73226">
        <ele>168.80000305176</ele>
        <time>2015-07-13T10:06:41.000Z</time>
      </trkpt>
      <trkpt lat="48.67502" lon="1.7323">
        <ele>168.80000305176</ele>
        <time>2015-07-13T10:06:45.000Z</time>
      </trkpt>
      <trkpt lat="48.6751" lon="1.73237">
        <ele>168.80000305176</ele>
        <time>2015-07-13T10:06:52.000Z</time>
      </trkpt>
      <trkpt lat="48.67519" lon="1.73246">
        <ele>169.19999694824</ele>
        <time>2015-07-13T10:06:58.000Z</time>
      </trkpt>
      <trkpt lat="48.67525" lon="1.73256">
        <ele>169.80000305176</ele>
        <time>2015-07-13T10:07:04.000Z</time>
      </trkpt>
      <trkpt lat="48.67532" lon="1.73264">
        <ele>170.19999694824</ele>
        <time>2015-07-13T10:07:09.000Z</time>
      </trkpt>
      <trkpt lat="48.67538" lon="1.73281">
        <ele>170.80000305176</ele>
        <time>2015-07-13T10:07:17.000Z</time>
      </trkpt>
      <trkpt lat="48.67548" lon="1.73289">
        <ele>171.19999694824</ele>
        <time>2015-07-13T10:07:23.000Z</time>
      </trkpt>
      <trkpt lat="48.67558" lon="1.73298">
        <ele>171.60000610352</ele>
        <time>2015-07-13T10:07:28.000Z</time>
      </trkpt>
      <trkpt lat="48.67565" lon="1.73307">
        <ele>172</ele>
        <time>2015-07-13T10:07:34.000Z</time>
      </trkpt>
      <trkpt lat="48.67571" lon="1.73312">
        <ele>172.39999389648</ele>
        <time>2015-07-13T10:07:39.000Z</time>
      </trkpt>
      <trkpt lat="48.67574" lon="1.73317">
        <ele>172.60000610352</ele>
        <time>2015-07-13T10:07:43.000Z</time>
      </trkpt>
      <trkpt lat="48.67585" lon="1.73321">
        <ele>172.80000305176</ele>
        <time>2015-07-13T10:07:50.000Z</time>
      </trkpt>
      <trkpt lat="48.67597" lon="1.73323">
        <ele>173</ele>
        <time>2015-07-13T10:07:58.000Z</time>
      </trkpt>
      <trkpt lat="48.67598" lon="1.73323">
        <ele>173</ele>
        <time>2015-07-13T10:07:59.000Z</time>
      </trkpt>
      <trkpt lat="48.67606" lon="1.73322">
        <ele>173.19999694824</ele>
        <time>2015-07-13T10:08:03.000Z</time>
      </trkpt>
      <trkpt lat="48.67617" lon="1.73319">
        <ele>173.19999694824</ele>
        <time>2015-07-13T10:08:11.000Z</time>
      </trkpt>
      <trkpt lat="48.67622" lon="1.73318">
        <ele>173.39999389648</ele>
        <time>2015-07-13T10:08:15.000Z</time>
      </trkpt>
      <trkpt lat="48.6763" lon="1.73319">
        <ele>173.60000610352</ele>
        <time>2015-07-13T10:08:20.000Z</time>
      </trkpt>
      <trkpt lat="48.67638" lon="1.7332">
        <ele>173.80000305176</ele>
        <time>2015-07-13T10:08:26.000Z</time>
      </trkpt>
      <trkpt lat="48.67646" lon="1.7332">
        <ele>174</ele>
        <time>2015-07-13T10:08:33.000Z</time>
      </trkpt>
      <trkpt lat="48.67652" lon="1.7332">
        <ele>174.19999694824</ele>
        <time>2015-07-13T10:08:37.000Z</time>
      </trkpt>
      <trkpt lat="48.6766" lon="1.73323">
        <ele>174.39999389648</ele>
        <time>2015-07-13T10:08:43.000Z</time>
      </trkpt>
      <trkpt lat="48.6767" lon="1.73326">
        <ele>174.80000305176</ele>
        <time>2015-07-13T10:08:49.000Z</time>
      </trkpt>
      <trkpt lat="48.67673" lon="1.73327">
        <ele>175</ele>
        <time>2015-07-13T10:08:51.000Z</time>
      </trkpt>
      <trkpt lat="48.67681" lon="1.7333">
        <ele>175.39999389648</ele>
        <time>2015-07-13T10:08:57.000Z</time>
      </trkpt>
      <trkpt lat="48.67689" lon="1.73334">
        <ele>175.80000305176</ele>
        <time>2015-07-13T10:09:03.000Z</time>
      </trkpt>
      <trkpt lat="48.67693" lon="1.73335">
        <ele>176</ele>
        <time>2015-07-13T10:09:05.000Z</time>
      </trkpt>
      <trkpt lat="48.67705" lon="1.73338">
        <ele>176.60000610352</ele>
        <time>2015-07-13T10:09:12.000Z</time>
      </trkpt>
      <trkpt lat="48.67714" lon="1.73341">
        <ele>177</ele>
        <time>2015-07-13T10:09:18.000Z</time>
      </trkpt>
      <trkpt lat="48.67716" lon="1.73341">
        <ele>177</ele>
        <time>2015-07-13T10:09:19.000Z</time>
      </trkpt>
      <trkpt lat="48.67729" lon="1.73347">
        <ele>177.80000305176</ele>
        <time>2015-07-13T10:09:28.000Z</time>
      </trkpt>
      <trkpt lat="48.67732" lon="1.73358">
        <ele>178.39999389648</ele>
        <time>2015-07-13T10:09:34.000Z</time>
      </trkpt>
      <trkpt lat="48.67733" lon="1.7336">
        <ele>178.60000610352</ele>
        <time>2015-07-13T10:09:35.000Z</time>
      </trkpt>
      <trkpt lat="48.67735" lon="1.73373">
        <ele>179.19999694824</ele>
        <time>2015-07-13T10:09:42.000Z</time>
      </trkpt>
      <trkpt lat="48.67736" lon="1.73377">
        <ele>179.39999389648</ele>
        <time>2015-07-13T10:09:44.000Z</time>
      </trkpt>
      <trkpt lat="48.67739" lon="1.73389">
        <ele>180.19999694824</ele>
        <time>2015-07-13T10:09:49.000Z</time>
      </trkpt>
      <trkpt lat="48.67742" lon="1.73394">
        <ele>180.60000610352</ele>
        <time>2015-07-13T10:09:52.000Z</time>
      </trkpt>
      <trkpt lat="48.67742" lon="1.73414">
        <ele>181.19999694824</ele>
        <time>2015-07-13T10:10:00.000Z</time>
      </trkpt>
      <trkpt lat="48.67745" lon="1.73429">
        <ele>181.39999389648</ele>
        <time>2015-07-13T10:10:06.000Z</time>
      </trkpt>
      <trkpt lat="48.67746" lon="1.73431">
        <ele>181.39999389648</ele>
        <time>2015-07-13T10:10:07.000Z</time>
      </trkpt>
      <trkpt lat="48.67751" lon="1.73443">
        <ele>181.80000305176</ele>
        <time>2015-07-13T10:10:14.000Z</time>
      </trkpt>
      <trkpt lat="48.67749" lon="1.73453">
        <ele>181.80000305176</ele>
        <time>2015-07-13T10:10:19.000Z</time>
      </trkpt>
      <trkpt lat="48.67749" lon="1.73465">
        <ele>182</ele>
        <time>2015-07-13T10:10:25.000Z</time>
      </trkpt>
      <trkpt lat="48.67751" lon="1.73481">
        <ele>182.19999694824</ele>
        <time>2015-07-13T10:10:32.000Z</time>
      </trkpt>
      <trkpt lat="48.67754" lon="1.735">
        <ele>182</ele>
        <time>2015-07-13T10:10:40.000Z</time>
      </trkpt>
      <trkpt lat="48.67756" lon="1.73511">
        <ele>181.80000305176</ele>
        <time>2015-07-13T10:10:45.000Z</time>
      </trkpt>
      <trkpt lat="48.67757" lon="1.73519">
        <ele>181.60000610352</ele>
        <time>2015-07-13T10:10:49.000Z</time>
      </trkpt>
      <trkpt lat="48.6776" lon="1.73535">
        <ele>181.39999389648</ele>
        <time>2015-07-13T10:10:56.000Z</time>
      </trkpt>
      <trkpt lat="48.67763" lon="1.73548">
        <ele>181.19999694824</ele>
        <time>2015-07-13T10:11:03.000Z</time>
      </trkpt>
      <trkpt lat="48.67765" lon="1.73559">
        <ele>181</ele>
        <time>2015-07-13T10:11:09.000Z</time>
      </trkpt>
      <trkpt lat="48.67769" lon="1.73573">
        <ele>181</ele>
        <time>2015-07-13T10:11:17.000Z</time>
      </trkpt>
      <trkpt lat="48.67769" lon="1.73595">
        <ele>180.39999389648</ele>
        <time>2015-07-13T10:11:23.000Z</time>
      </trkpt>
      <trkpt lat="48.6777" lon="1.7361">
        <ele>180</ele>
        <time>2015-07-13T10:11:30.000Z</time>
      </trkpt>
      <trkpt lat="48.67771" lon="1.73612">
        <ele>180</ele>
        <time>2015-07-13T10:11:31.000Z</time>
      </trkpt>
      <trkpt lat="48.67771" lon="1.73625">
        <ele>179.80000305176</ele>
        <time>2015-07-13T10:11:37.000Z</time>
      </trkpt>
      <trkpt lat="48.67775" lon="1.7363">
        <ele>179.60000610352</ele>
        <time>2015-07-13T10:11:40.000Z</time>
      </trkpt>
      <trkpt lat="48.67779" lon="1.73642">
        <ele>179.39999389648</ele>
        <time>2015-07-13T10:11:46.000Z</time>
      </trkpt>
      <trkpt lat="48.67783" lon="1.73654">
        <ele>179.19999694824</ele>
        <time>2015-07-13T10:11:53.000Z</time>
      </trkpt>
      <trkpt lat="48.67784" lon="1.73656">
        <ele>179.19999694824</ele>
        <time>2015-07-13T10:11:54.000Z</time>
      </trkpt>
      <trkpt lat="48.67784" lon="1.73675">
        <ele>179.19999694824</ele>
        <time>2015-07-13T10:12:01.000Z</time>
      </trkpt>
      <trkpt lat="48.67784" lon="1.7369">
        <ele>179.39999389648</ele>
        <time>2015-07-13T10:12:08.000Z</time>
      </trkpt>
      <trkpt lat="48.67786" lon="1.73701">
        <ele>179.60000610352</ele>
        <time>2015-07-13T10:12:13.000Z</time>
      </trkpt>
      <trkpt lat="48.67789" lon="1.73712">
        <ele>179.60000610352</ele>
        <time>2015-07-13T10:12:18.000Z</time>
      </trkpt>
      <trkpt lat="48.67791" lon="1.73721">
        <ele>179.80000305176</ele>
        <time>2015-07-13T10:12:22.000Z</time>
      </trkpt>
      <trkpt lat="48.67795" lon="1.7374">
        <ele>180</ele>
        <time>2015-07-13T10:12:30.000Z</time>
      </trkpt>
      <trkpt lat="48.678" lon="1.73753">
        <ele>179.80000305176</ele>
        <time>2015-07-13T10:12:37.000Z</time>
      </trkpt>
      <trkpt lat="48.67801" lon="1.73772">
        <ele>179.60000610352</ele>
        <time>2015-07-13T10:12:44.000Z</time>
      </trkpt>
      <trkpt lat="48.67801" lon="1.73784">
        <ele>179.39999389648</ele>
        <time>2015-07-13T10:12:49.000Z</time>
      </trkpt>
      <trkpt lat="48.67801" lon="1.73786">
        <ele>179.39999389648</ele>
        <time>2015-07-13T10:12:50.000Z</time>
      </trkpt>
      <trkpt lat="48.67801" lon="1.73795">
        <ele>179.39999389648</ele>
        <time>2015-07-13T10:12:54.000Z</time>
      </trkpt>
      <trkpt lat="48.67802" lon="1.73804">
        <ele>179.19999694824</ele>
        <time>2015-07-13T10:12:58.000Z</time>
      </trkpt>
      <trkpt lat="48.67804" lon="1.73815">
        <ele>179</ele>
        <time>2015-07-13T10:13:05.000Z</time>
      </trkpt>
      <trkpt lat="48.67805" lon="1.7382">
        <ele>179</ele>
        <time>2015-07-13T10:13:09.000Z</time>
      </trkpt>
      <trkpt lat="48.6781" lon="1.73834">
        <ele>178.80000305176</ele>
        <time>2015-07-13T10:13:16.000Z</time>
      </trkpt>
      <trkpt lat="48.6781" lon="1.73838">
        <ele>178.80000305176</ele>
        <time>2015-07-13T10:13:18.000Z</time>
      </trkpt>
      <trkpt lat="48.67812" lon="1.73853">
        <ele>178.60000610352</ele>
        <time>2015-07-13T10:13:24.000Z</time>
      </trkpt>
      <trkpt lat="48.67809" lon="1.73863">
        <ele>178.60000610352</ele>
        <time>2015-07-13T10:13:29.000Z</time>
      </trkpt>
      <trkpt lat="48.67809" lon="1.73865">
        <ele>178.60000610352</ele>
        <time>2015-07-13T10:13:30.000Z</time>
      </trkpt>
      <trkpt lat="48.67809" lon="1.73872">
        <ele>178.60000610352</ele>
        <time>2015-07-13T10:13:33.000Z</time>
      </trkpt>
      <trkpt lat="48.67812" lon="1.73885">
        <ele>178.39999389648</ele>
        <time>2015-07-13T10:13:39.000Z</time>
      </trkpt>
      <trkpt lat="48.67815" lon="1.73897">
        <ele>178.39999389648</ele>
        <time>2015-07-13T10:13:44.000Z</time>
      </trkpt>
      <trkpt lat="48.67824" lon="1.7391">
        <ele>178.39999389648</ele>
        <time>2015-07-13T10:13:50.000Z</time>
      </trkpt>
      <trkpt lat="48.67828" lon="1.7393">
        <ele>178.39999389648</ele>
        <time>2015-07-13T10:13:59.000Z</time>
      </trkpt>
      <trkpt lat="48.6783" lon="1.73941">
        <ele>178.19999694824</ele>
        <time>2015-07-13T10:14:04.000Z</time>
      </trkpt>
      <trkpt lat="48.6783" lon="1.73954">
        <ele>178.19999694824</ele>
        <time>2015-07-13T10:14:10.000Z</time>
      </trkpt>
      <trkpt lat="48.67832" lon="1.73966">
        <ele>178.19999694824</ele>
        <time>2015-07-13T10:14:16.000Z</time>
      </trkpt>
      <trkpt lat="48.67831" lon="1.73971">
        <ele>178.19999694824</ele>
        <time>2015-07-13T10:14:18.000Z</time>
      </trkpt>
      <trkpt lat="48.67833" lon="1.73988">
        <ele>178.19999694824</ele>
        <time>2015-07-13T10:14:25.000Z</time>
      </trkpt>
      <trkpt lat="48.67834" lon="1.73993">
        <ele>178.19999694824</ele>
        <time>2015-07-13T10:14:27.000Z</time>
      </trkpt>
      <trkpt lat="48.67835" lon="1.74007">
        <ele>178.19999694824</ele>
        <time>2015-07-13T10:14:33.000Z</time>
      </trkpt>
      <trkpt lat="48.67838" lon="1.74021">
        <ele>178.19999694824</ele>
        <time>2015-07-13T10:14:39.000Z</time>
      </trkpt>
      <trkpt lat="48.6784" lon="1.74034">
        <ele>178.19999694824</ele>
        <time>2015-07-13T10:14:46.000Z</time>
      </trkpt>
      <trkpt lat="48.6784" lon="1.74044">
        <ele>178.19999694824</ele>
        <time>2015-07-13T10:14:51.000Z</time>
      </trkpt>
      <trkpt lat="48.67841" lon="1.74054">
        <ele>178.19999694824</ele>
        <time>2015-07-13T10:14:56.000Z</time>
      </trkpt>
      <trkpt lat="48.67842" lon="1.74067">
        <ele>178</ele>
        <time>2015-07-13T10:15:01.000Z</time>
      </trkpt>
      <trkpt lat="48.67843" lon="1.74084">
        <ele>177.60000610352</ele>
        <time>2015-07-13T10:15:08.000Z</time>
      </trkpt>
      <trkpt lat="48.67844" lon="1.74099">
        <ele>177.39999389648</ele>
        <time>2015-07-13T10:15:14.000Z</time>
      </trkpt>
      <trkpt lat="48.67846" lon="1.7411">
        <ele>177</ele>
        <time>2015-07-13T10:15:19.000Z</time>
      </trkpt>
      <trkpt lat="48.67849" lon="1.74125">
        <ele>176.60000610352</ele>
        <time>2015-07-13T10:15:25.000Z</time>
      </trkpt>
      <trkpt lat="48.67853" lon="1.74139">
        <ele>176.39999389648</ele>
        <time>2015-07-13T10:15:31.000Z</time>
      </trkpt>
      <trkpt lat="48.67854" lon="1.74141">
        <ele>176.39999389648</ele>
        <time>2015-07-13T10:15:32.000Z</time>
      </trkpt>
      <trkpt lat="48.67857" lon="1.74151">
        <ele>176</ele>
        <time>2015-07-13T10:15:37.000Z</time>
      </trkpt>
      <trkpt lat="48.6786" lon="1.74153">
        <ele>176</ele>
        <time>2015-07-13T10:15:39.000Z</time>
      </trkpt>
      <trkpt lat="48.67863" lon="1.74161">
        <ele>175.80000305176</ele>
        <time>2015-07-13T10:15:43.000Z</time>
      </trkpt>
      <trkpt lat="48.67861" lon="1.74174">
        <ele>175.80000305176</ele>
        <time>2015-07-13T10:15:49.000Z</time>
      </trkpt>
      <trkpt lat="48.6786" lon="1.74178">
        <ele>175.80000305176</ele>
        <time>2015-07-13T10:15:51.000Z</time>
      </trkpt>
      <trkpt lat="48.67865" lon="1.7419">
        <ele>175.60000610352</ele>
        <time>2015-07-13T10:15:58.000Z</time>
      </trkpt>
      <trkpt lat="48.67868" lon="1.74204">
        <ele>175.39999389648</ele>
        <time>2015-07-13T10:16:05.000Z</time>
      </trkpt>
      <trkpt lat="48.67868" lon="1.74209">
        <ele>175.39999389648</ele>
        <time>2015-07-13T10:16:07.000Z</time>
      </trkpt>
      <trkpt lat="48.67868" lon="1.74213">
        <ele>175.39999389648</ele>
        <time>2015-07-13T10:16:09.000Z</time>
      </trkpt>
      <trkpt lat="48.67867" lon="1.74228">
        <ele>175.60000610352</ele>
        <time>2015-07-13T10:16:16.000Z</time>
      </trkpt>
      <trkpt lat="48.67872" lon="1.74237">
        <ele>175.39999389648</ele>
        <time>2015-07-13T10:16:20.000Z</time>
      </trkpt>
      <trkpt lat="48.67874" lon="1.7425">
        <ele>175</ele>
        <time>2015-07-13T10:16:27.000Z</time>
      </trkpt>
      <trkpt lat="48.67874" lon="1.74262">
        <ele>174.80000305176</ele>
        <time>2015-07-13T10:16:33.000Z</time>
      </trkpt>
      <trkpt lat="48.67877" lon="1.74273">
        <ele>174.39999389648</ele>
        <time>2015-07-13T10:16:39.000Z</time>
      </trkpt>
      <trkpt lat="48.67878" lon="1.74283">
        <ele>174</ele>
        <time>2015-07-13T10:16:44.000Z</time>
      </trkpt>
      <trkpt lat="48.67879" lon="1.74293">
        <ele>173.60000610352</ele>
        <time>2015-07-13T10:16:49.000Z</time>
      </trkpt>
      <trkpt lat="48.67882" lon="1.7431">
        <ele>173</ele>
        <time>2015-07-13T10:16:56.000Z</time>
      </trkpt>
      <trkpt lat="48.67884" lon="1.74325">
        <ele>172.60000610352</ele>
        <time>2015-07-13T10:17:02.000Z</time>
      </trkpt>
      <trkpt lat="48.67885" lon="1.74332">
        <ele>172.60000610352</ele>
        <time>2015-07-13T10:17:05.000Z</time>
      </trkpt>
      <trkpt lat="48.67885" lon="1.74342">
        <ele>172.60000610352</ele>
        <time>2015-07-13T10:17:10.000Z</time>
      </trkpt>
      <trkpt lat="48.67886" lon="1.74355">
        <ele>172.60000610352</ele>
        <time>2015-07-13T10:17:16.000Z</time>
      </trkpt>
      <trkpt lat="48.67888" lon="1.74366">
        <ele>172.60000610352</ele>
        <time>2015-07-13T10:17:21.000Z</time>
      </trkpt>
      <trkpt lat="48.6789" lon="1.74378">
        <ele>172.60000610352</ele>
        <time>2015-07-13T10:17:27.000Z</time>
      </trkpt>
      <trkpt lat="48.67889" lon="1.7439">
        <ele>172.60000610352</ele>
        <time>2015-07-13T10:17:32.000Z</time>
      </trkpt>
      <trkpt lat="48.67889" lon="1.74404">
        <ele>172.60000610352</ele>
        <time>2015-07-13T10:17:38.000Z</time>
      </trkpt>
      <trkpt lat="48.67889" lon="1.74417">
        <ele>172.19999694824</ele>
        <time>2015-07-13T10:17:44.000Z</time>
      </trkpt>
      <trkpt lat="48.67889" lon="1.74419">
        <ele>172.19999694824</ele>
        <time>2015-07-13T10:17:45.000Z</time>
      </trkpt>
      <trkpt lat="48.67894" lon="1.74433">
        <ele>171.80000305176</ele>
        <time>2015-07-13T10:17:52.000Z</time>
      </trkpt>
      <trkpt lat="48.67894" lon="1.74451">
        <ele>171.60000610352</ele>
        <time>2015-07-13T10:17:59.000Z</time>
      </trkpt>
      <trkpt lat="48.67896" lon="1.74455">
        <ele>171.60000610352</ele>
        <time>2015-07-13T10:18:01.000Z</time>
      </trkpt>
      <trkpt lat="48.67893" lon="1.74467">
        <ele>171.80000305176</ele>
        <time>2015-07-13T10:18:07.000Z</time>
      </trkpt>
      <trkpt lat="48.6789" lon="1.74483">
        <ele>172.19999694824</ele>
        <time>2015-07-13T10:18:13.000Z</time>
      </trkpt>
      <trkpt lat="48.67887" lon="1.74501">
        <ele>172</ele>
        <time>2015-07-13T10:18:20.000Z</time>
      </trkpt>
      <trkpt lat="48.67886" lon="1.74517">
        <ele>171.60000610352</ele>
        <time>2015-07-13T10:18:28.000Z</time>
      </trkpt>
      <trkpt lat="48.67886" lon="1.74522">
        <ele>171.60000610352</ele>
        <time>2015-07-13T10:18:31.000Z</time>
      </trkpt>
      <trkpt lat="48.67885" lon="1.74531">
        <ele>171.60000610352</ele>
        <time>2015-07-13T10:18:35.000Z</time>
      </trkpt>
      <trkpt lat="48.67884" lon="1.74549">
        <ele>171.39999389648</ele>
        <time>2015-07-13T10:18:42.000Z</time>
      </trkpt>
      <trkpt lat="48.67884" lon="1.74553">
        <ele>171.39999389648</ele>
        <time>2015-07-13T10:18:44.000Z</time>
      </trkpt>
      <trkpt lat="48.67883" lon="1.74557">
        <ele>171.39999389648</ele>
        <time>2015-07-13T10:18:46.000Z</time>
      </trkpt>
      <trkpt lat="48.67882" lon="1.74576">
        <ele>171</ele>
        <time>2015-07-13T10:18:54.000Z</time>
      </trkpt>
      <trkpt lat="48.67881" lon="1.74582">
        <ele>171</ele>
        <time>2015-07-13T10:18:56.000Z</time>
      </trkpt>
      <trkpt lat="48.67879" lon="1.74595">
        <ele>170.60000610352</ele>
        <time>2015-07-13T10:19:02.000Z</time>
      </trkpt>
      <trkpt lat="48.67878" lon="1.746">
        <ele>170.39999389648</ele>
        <time>2015-07-13T10:19:05.000Z</time>
      </trkpt>
      <trkpt lat="48.67876" lon="1.74616">
        <ele>170</ele>
        <time>2015-07-13T10:19:13.000Z</time>
      </trkpt>
      <trkpt lat="48.67875" lon="1.74633">
        <ele>169.39999389648</ele>
        <time>2015-07-13T10:19:21.000Z</time>
      </trkpt>
      <trkpt lat="48.67871" lon="1.74641">
        <ele>169.39999389648</ele>
        <time>2015-07-13T10:19:27.000Z</time>
      </trkpt>
      <trkpt lat="48.67869" lon="1.74649">
        <ele>169.19999694824</ele>
        <time>2015-07-13T10:19:32.000Z</time>
      </trkpt>
      <trkpt lat="48.6787" lon="1.74656">
        <ele>169</ele>
        <time>2015-07-13T10:19:37.000Z</time>
      </trkpt>
      <trkpt lat="48.67872" lon="1.7467">
        <ele>168.39999389648</ele>
        <time>2015-07-13T10:19:44.000Z</time>
      </trkpt>
      <trkpt lat="48.67869" lon="1.74679">
        <ele>168.60000610352</ele>
        <time>2015-07-13T10:19:47.000Z</time>
      </trkpt>
      <trkpt lat="48.67865" lon="1.74708">
        <ele>169.39999389648</ele>
        <time>2015-07-13T10:19:58.000Z</time>
      </trkpt>
      <trkpt lat="48.67863" lon="1.74722">
        <ele>169.60000610352</ele>
        <time>2015-07-13T10:20:03.000Z</time>
      </trkpt>
      <trkpt lat="48.67862" lon="1.74733">
        <ele>170</ele>
        <time>2015-07-13T10:20:07.000Z</time>
      </trkpt>
      <trkpt lat="48.67859" lon="1.74742">
        <ele>170.39999389648</ele>
        <time>2015-07-13T10:20:13.000Z</time>
      </trkpt>
      <trkpt lat="48.6786" lon="1.74756">
        <ele>170.19999694824</ele>
        <time>2015-07-13T10:20:20.000Z</time>
      </trkpt>
      <trkpt lat="48.67862" lon="1.74763">
        <ele>170</ele>
        <time>2015-07-13T10:20:24.000Z</time>
      </trkpt>
      <trkpt lat="48.67863" lon="1.74776">
        <ele>169.80000305176</ele>
        <time>2015-07-13T10:20:30.000Z</time>
      </trkpt>
      <trkpt lat="48.67863" lon="1.74793">
        <ele>169.60000610352</ele>
        <time>2015-07-13T10:20:37.000Z</time>
      </trkpt>
      <trkpt lat="48.67863" lon="1.74796">
        <ele>169.60000610352</ele>
        <time>2015-07-13T10:20:39.000Z</time>
      </trkpt>
      <trkpt lat="48.67865" lon="1.74806">
        <ele>169.39999389648</ele>
        <time>2015-07-13T10:20:45.000Z</time>
      </trkpt>
      <trkpt lat="48.67866" lon="1.74816">
        <ele>169.19999694824</ele>
        <time>2015-07-13T10:20:50.000Z</time>
      </trkpt>
      <trkpt lat="48.67867" lon="1.74831">
        <ele>169.19999694824</ele>
        <time>2015-07-13T10:20:55.000Z</time>
      </trkpt>
      <trkpt lat="48.67868" lon="1.74833">
        <ele>169</ele>
        <time>2015-07-13T10:20:56.000Z</time>
      </trkpt>
      <trkpt lat="48.67871" lon="1.74848">
        <ele>168.39999389648</ele>
        <time>2015-07-13T10:21:03.000Z</time>
      </trkpt>
      <trkpt lat="48.67871" lon="1.74853">
        <ele>168</ele>
        <time>2015-07-13T10:21:05.000Z</time>
      </trkpt>
      <trkpt lat="48.67871" lon="1.74865">
        <ele>167.39999389648</ele>
        <time>2015-07-13T10:21:10.000Z</time>
      </trkpt>
      <trkpt lat="48.67876" lon="1.74875">
        <ele>166.80000305176</ele>
        <time>2015-07-13T10:21:16.000Z</time>
      </trkpt>
      <trkpt lat="48.67882" lon="1.74885">
        <ele>166.19999694824</ele>
        <time>2015-07-13T10:21:22.000Z</time>
      </trkpt>
      <trkpt lat="48.67882" lon="1.74892">
        <ele>165.80000305176</ele>
        <time>2015-07-13T10:21:25.000Z</time>
      </trkpt>
      <trkpt lat="48.67884" lon="1.74908">
        <ele>164.80000305176</ele>
        <time>2015-07-13T10:21:33.000Z</time>
      </trkpt>
      <trkpt lat="48.67886" lon="1.74921">
        <ele>164.39999389648</ele>
        <time>2015-07-13T10:21:40.000Z</time>
      </trkpt>
      <trkpt lat="48.67888" lon="1.74927">
        <ele>164.19999694824</ele>
        <time>2015-07-13T10:21:43.000Z</time>
      </trkpt>
      <trkpt lat="48.67892" lon="1.74947">
        <ele>163.39999389648</ele>
        <time>2015-07-13T10:21:52.000Z</time>
      </trkpt>
      <trkpt lat="48.67894" lon="1.74962">
        <ele>162.60000610352</ele>
        <time>2015-07-13T10:21:58.000Z</time>
      </trkpt>
      <trkpt lat="48.67894" lon="1.74971">
        <ele>162</ele>
        <time>2015-07-13T10:22:04.000Z</time>
      </trkpt>
      <trkpt lat="48.67895" lon="1.74985">
        <ele>161.19999694824</ele>
        <time>2015-07-13T10:22:11.000Z</time>
      </trkpt>
      <trkpt lat="48.67898" lon="1.74998">
        <ele>160.19999694824</ele>
        <time>2015-07-13T10:22:17.000Z</time>
      </trkpt>
      <trkpt lat="48.67899" lon="1.75012">
        <ele>159.39999389648</ele>
        <time>2015-07-13T10:22:23.000Z</time>
      </trkpt>
      <trkpt lat="48.67901" lon="1.75026">
        <ele>158.39999389648</ele>
        <time>2015-07-13T10:22:29.000Z</time>
      </trkpt>
      <trkpt lat="48.67903" lon="1.75036">
        <ele>157.60000610352</ele>
        <time>2015-07-13T10:22:34.000Z</time>
      </trkpt>
      <trkpt lat="48.67904" lon="1.75051">
        <ele>157</ele>
        <time>2015-07-13T10:22:40.000Z</time>
      </trkpt>
      <trkpt lat="48.67905" lon="1.75071">
        <ele>156</ele>
        <time>2015-07-13T10:22:48.000Z</time>
      </trkpt>
      <trkpt lat="48.67903" lon="1.75087">
        <ele>155.39999389648</ele>
        <time>2015-07-13T10:22:55.000Z</time>
      </trkpt>
      <trkpt lat="48.67901" lon="1.75103">
        <ele>154.80000305176</ele>
        <time>2015-07-13T10:23:02.000Z</time>
      </trkpt>
      <trkpt lat="48.67896" lon="1.75121">
        <ele>154.39999389648</ele>
        <time>2015-07-13T10:23:11.000Z</time>
      </trkpt>
      <trkpt lat="48.67892" lon="1.75139">
        <ele>154.19999694824</ele>
        <time>2015-07-13T10:23:19.000Z</time>
      </trkpt>
      <trkpt lat="48.6789" lon="1.75148">
        <ele>154.19999694824</ele>
        <time>2015-07-13T10:23:24.000Z</time>
      </trkpt>
      <trkpt lat="48.67889" lon="1.75163">
        <ele>153.80000305176</ele>
        <time>2015-07-13T10:23:32.000Z</time>
      </trkpt>
      <trkpt lat="48.67888" lon="1.75179">
        <ele>153.19999694824</ele>
        <time>2015-07-13T10:23:39.000Z</time>
      </trkpt>
      <trkpt lat="48.67887" lon="1.75193">
        <ele>152.80000305176</ele>
        <time>2015-07-13T10:23:46.000Z</time>
      </trkpt>
      <trkpt lat="48.67887" lon="1.75211">
        <ele>152.39999389648</ele>
        <time>2015-07-13T10:23:54.000Z</time>
      </trkpt>
      <trkpt lat="48.67888" lon="1.7523">
        <ele>152</ele>
        <time>2015-07-13T10:24:02.000Z</time>
      </trkpt>
      <trkpt lat="48.67892" lon="1.75234">
        <ele>151.80000305176</ele>
        <time>2015-07-13T10:24:05.000Z</time>
      </trkpt>
      <trkpt lat="48.67903" lon="1.75238">
        <ele>151.19999694824</ele>
        <time>2015-07-13T10:24:13.000Z</time>
      </trkpt>
      <trkpt lat="48.67913" lon="1.75241">
        <ele>150.80000305176</ele>
        <time>2015-07-13T10:24:20.000Z</time>
      </trkpt>
      <trkpt lat="48.67924" lon="1.75245">
        <ele>150.39999389648</ele>
        <time>2015-07-13T10:24:28.000Z</time>
      </trkpt>
      <trkpt lat="48.67933" lon="1.75249">
        <ele>150</ele>
        <time>2015-07-13T10:24:35.000Z</time>
      </trkpt>
      <trkpt lat="48.67942" lon="1.75259">
        <ele>149.60000610352</ele>
        <time>2015-07-13T10:24:43.000Z</time>
      </trkpt>
      <trkpt lat="48.6795" lon="1.75267">
        <ele>149.39999389648</ele>
        <time>2015-07-13T10:24:50.000Z</time>
      </trkpt>
      <trkpt lat="48.67957" lon="1.75274">
        <ele>149.39999389648</ele>
        <time>2015-07-13T10:24:57.000Z</time>
      </trkpt>
      <trkpt lat="48.67965" lon="1.7528">
        <ele>149.19999694824</ele>
        <time>2015-07-13T10:25:03.000Z</time>
      </trkpt>
      <trkpt lat="48.67972" lon="1.75285">
        <ele>149</ele>
        <time>2015-07-13T10:25:08.000Z</time>
      </trkpt>
      <trkpt lat="48.67985" lon="1.75294">
        <ele>148.80000305176</ele>
        <time>2015-07-13T10:25:17.000Z</time>
      </trkpt>
      <trkpt lat="48.67996" lon="1.75301">
        <ele>148.60000610352</ele>
        <time>2015-07-13T10:25:24.000Z</time>
      </trkpt>
      <trkpt lat="48.68001" lon="1.75305">
        <ele>148.39999389648</ele>
        <time>2015-07-13T10:25:28.000Z</time>
      </trkpt>
      <trkpt lat="48.68011" lon="1.75313">
        <ele>148.19999694824</ele>
        <time>2015-07-13T10:25:37.000Z</time>
      </trkpt>
      <trkpt lat="48.68015" lon="1.75317">
        <ele>148.19999694824</ele>
        <time>2015-07-13T10:25:41.000Z</time>
      </trkpt>
      <trkpt lat="48.68025" lon="1.75323">
        <ele>148.19999694824</ele>
        <time>2015-07-13T10:25:49.000Z</time>
      </trkpt>
      <trkpt lat="48.68028" lon="1.75326">
        <ele>148.19999694824</ele>
        <time>2015-07-13T10:25:52.000Z</time>
      </trkpt>
      <trkpt lat="48.68031" lon="1.75329">
        <ele>148.19999694824</ele>
        <time>2015-07-13T10:25:54.000Z</time>
      </trkpt>
      <trkpt lat="48.68038" lon="1.75335">
        <ele>148.39999389648</ele>
        <time>2015-07-13T10:26:00.000Z</time>
      </trkpt>
      <trkpt lat="48.68052" lon="1.75345">
        <ele>148.80000305176</ele>
        <time>2015-07-13T10:26:11.000Z</time>
      </trkpt>
      <trkpt lat="48.68057" lon="1.75349">
        <ele>149</ele>
        <time>2015-07-13T10:26:16.000Z</time>
      </trkpt>
      <trkpt lat="48.68067" lon="1.7536">
        <ele>149.19999694824</ele>
        <time>2015-07-13T10:26:25.000Z</time>
      </trkpt>
      <trkpt lat="48.68068" lon="1.75377">
        <ele>149.19999694824</ele>
        <time>2015-07-13T10:26:33.000Z</time>
      </trkpt>
      <trkpt lat="48.68064" lon="1.75397">
        <ele>149</ele>
        <time>2015-07-13T10:26:43.000Z</time>
      </trkpt>
      <trkpt lat="48.68061" lon="1.75414">
        <ele>149</ele>
        <time>2015-07-13T10:26:51.000Z</time>
      </trkpt>
      <trkpt lat="48.68061" lon="1.75416">
        <ele>149</ele>
        <time>2015-07-13T10:26:52.000Z</time>
      </trkpt>
      <trkpt lat="48.68059" lon="1.75425">
        <ele>149</ele>
        <time>2015-07-13T10:26:57.000Z</time>
      </trkpt>
      <trkpt lat="48.68059" lon="1.75427">
        <ele>149</ele>
        <time>2015-07-13T10:26:58.000Z</time>
      </trkpt>
      <trkpt lat="48.68057" lon="1.75443">
        <ele>148.80000305176</ele>
        <time>2015-07-13T10:27:06.000Z</time>
      </trkpt>
      <trkpt lat="48.68054" lon="1.75459">
        <ele>148.39999389648</ele>
        <time>2015-07-13T10:27:14.000Z</time>
      </trkpt>
      <trkpt lat="48.68052" lon="1.75474">
        <ele>147.80000305176</ele>
        <time>2015-07-13T10:27:21.000Z</time>
      </trkpt>
      <trkpt lat="48.68048" lon="1.75496">
        <ele>147.39999389648</ele>
        <time>2015-07-13T10:27:32.000Z</time>
      </trkpt>
      <trkpt lat="48.68048" lon="1.75508">
        <ele>147.39999389648</ele>
        <time>2015-07-13T10:27:38.000Z</time>
      </trkpt>
      <trkpt lat="48.68058" lon="1.75519">
        <ele>147.80000305176</ele>
        <time>2015-07-13T10:27:47.000Z</time>
      </trkpt>
      <trkpt lat="48.68067" lon="1.75526">
        <ele>148.19999694824</ele>
        <time>2015-07-13T10:27:53.000Z</time>
      </trkpt>
      <trkpt lat="48.68078" lon="1.75533">
        <ele>148.80000305176</ele>
        <time>2015-07-13T10:28:02.000Z</time>
      </trkpt>
      <trkpt lat="48.68087" lon="1.7554">
        <ele>149.19999694824</ele>
        <time>2015-07-13T10:28:10.000Z</time>
      </trkpt>
      <trkpt lat="48.68095" lon="1.75547">
        <ele>149.60000610352</ele>
        <time>2015-07-13T10:28:17.000Z</time>
      </trkpt>
      <trkpt lat="48.68105" lon="1.75556">
        <ele>150</ele>
        <time>2015-07-13T10:28:26.000Z</time>
      </trkpt>
      <trkpt lat="48.68114" lon="1.75566">
        <ele>150.19999694824</ele>
        <time>2015-07-13T10:28:34.000Z</time>
      </trkpt>
      <trkpt lat="48.68125" lon="1.75575">
        <ele>150.60000610352</ele>
        <time>2015-07-13T10:28:43.000Z</time>
      </trkpt>
      <trkpt lat="48.68126" lon="1.75577">
        <ele>150.60000610352</ele>
        <time>2015-07-13T10:28:44.000Z</time>
      </trkpt>
      <trkpt lat="48.68136" lon="1.75584">
        <ele>150.80000305176</ele>
        <time>2015-07-13T10:28:52.000Z</time>
      </trkpt>
      <trkpt lat="48.68149" lon="1.75592">
        <ele>151.19999694824</ele>
        <time>2015-07-13T10:29:02.000Z</time>
      </trkpt>
      <trkpt lat="48.68164" lon="1.75598">
        <ele>151.39999389648</ele>
        <time>2015-07-13T10:29:13.000Z</time>
      </trkpt>
      <trkpt lat="48.68181" lon="1.75607">
        <ele>151.80000305176</ele>
        <time>2015-07-13T10:29:26.000Z</time>
      </trkpt>
      <trkpt lat="48.68194" lon="1.75614">
        <ele>152</ele>
        <time>2015-07-13T10:29:35.000Z</time>
      </trkpt>
      <trkpt lat="48.68206" lon="1.75617">
        <ele>152.19999694824</ele>
        <time>2015-07-13T10:29:44.000Z</time>
      </trkpt>
      <trkpt lat="48.68223" lon="1.75622">
        <ele>152.39999389648</ele>
        <time>2015-07-13T10:29:56.000Z</time>
      </trkpt>
      <trkpt lat="48.68232" lon="1.75625">
        <ele>152.60000610352</ele>
        <time>2015-07-13T10:30:03.000Z</time>
      </trkpt>
      <trkpt lat="48.68242" lon="1.75628">
        <ele>152.60000610352</ele>
        <time>2015-07-13T10:30:10.000Z</time>
      </trkpt>
      <trkpt lat="48.68249" lon="1.7563">
        <ele>152.80000305176</ele>
        <time>2015-07-13T10:30:16.000Z</time>
      </trkpt>
      <trkpt lat="48.68255" lon="1.75631">
        <ele>152.80000305176</ele>
        <time>2015-07-13T10:30:20.000Z</time>
      </trkpt>
      <trkpt lat="48.68268" lon="1.75636">
        <ele>153</ele>
        <time>2015-07-13T10:30:30.000Z</time>
      </trkpt>
      <trkpt lat="48.68281" lon="1.75641">
        <ele>152.80000305176</ele>
        <time>2015-07-13T10:30:40.000Z</time>
      </trkpt>
      <trkpt lat="48.68282" lon="1.75642">
        <ele>152.80000305176</ele>
        <time>2015-07-13T10:30:41.000Z</time>
      </trkpt>
      <trkpt lat="48.6829" lon="1.75643">
        <ele>152.80000305176</ele>
        <time>2015-07-13T10:30:47.000Z</time>
      </trkpt>
      <trkpt lat="48.68297" lon="1.75643">
        <ele>152.60000610352</ele>
        <time>2015-07-13T10:30:52.000Z</time>
      </trkpt>
      <trkpt lat="48.68298" lon="1.75643">
        <ele>152.60000610352</ele>
        <time>2015-07-13T10:30:53.000Z</time>
      </trkpt>
      <trkpt lat="48.68311" lon="1.75643">
        <ele>152.60000610352</ele>
        <time>2015-07-13T10:31:02.000Z</time>
      </trkpt>
      <trkpt lat="48.6832" lon="1.75642">
        <ele>152.39999389648</ele>
        <time>2015-07-13T10:31:09.000Z</time>
      </trkpt>
      <trkpt lat="48.68332" lon="1.75636">
        <ele>152.19999694824</ele>
        <time>2015-07-13T10:31:18.000Z</time>
      </trkpt>
      <trkpt lat="48.68336" lon="1.75631">
        <ele>152.19999694824</ele>
        <time>2015-07-13T10:31:23.000Z</time>
      </trkpt>
      <trkpt lat="48.68342" lon="1.75626">
        <ele>152.39999389648</ele>
        <time>2015-07-13T10:31:29.000Z</time>
      </trkpt>
      <trkpt lat="48.68343" lon="1.75626">
        <ele>152.39999389648</ele>
        <time>2015-07-13T10:31:30.000Z</time>
      </trkpt>
      <trkpt lat="48.68352" lon="1.7562">
        <ele>152.39999389648</ele>
        <time>2015-07-13T10:31:37.000Z</time>
      </trkpt>
      <trkpt lat="48.68359" lon="1.75612">
        <ele>152.60000610352</ele>
        <time>2015-07-13T10:31:43.000Z</time>
      </trkpt>
      <trkpt lat="48.68368" lon="1.75609">
        <ele>153</ele>
        <time>2015-07-13T10:31:50.000Z</time>
      </trkpt>
      <trkpt lat="48.68376" lon="1.75606">
        <ele>153.19999694824</ele>
        <time>2015-07-13T10:31:55.000Z</time>
      </trkpt>
      <trkpt lat="48.6838" lon="1.75606">
        <ele>153.19999694824</ele>
        <time>2015-07-13T10:31:58.000Z</time>
      </trkpt>
      <trkpt lat="48.68389" lon="1.75597">
        <ele>153.60000610352</ele>
        <time>2015-07-13T10:32:05.000Z</time>
      </trkpt>
      <trkpt lat="48.68398" lon="1.75592">
        <ele>153.80000305176</ele>
        <time>2015-07-13T10:32:11.000Z</time>
      </trkpt>
      <trkpt lat="48.68407" lon="1.75589">
        <ele>154</ele>
        <time>2015-07-13T10:32:17.000Z</time>
      </trkpt>
      <trkpt lat="48.6841" lon="1.75587">
        <ele>154.19999694824</ele>
        <time>2015-07-13T10:32:19.000Z</time>
      </trkpt>
      <trkpt lat="48.68422" lon="1.7558">
        <ele>154.60000610352</ele>
        <time>2015-07-13T10:32:28.000Z</time>
      </trkpt>
      <trkpt lat="48.68431" lon="1.75575">
        <ele>154.80000305176</ele>
        <time>2015-07-13T10:32:35.000Z</time>
      </trkpt>
      <trkpt lat="48.68439" lon="1.75571">
        <ele>155</ele>
        <time>2015-07-13T10:32:41.000Z</time>
      </trkpt>
      <trkpt lat="48.68451" lon="1.75565">
        <ele>155.39999389648</ele>
        <time>2015-07-13T10:32:48.000Z</time>
      </trkpt>
      <trkpt lat="48.68458" lon="1.75565">
        <ele>155.39999389648</ele>
        <time>2015-07-13T10:32:52.000Z</time>
      </trkpt>
      <trkpt lat="48.68459" lon="1.75562">
        <ele>155.60000610352</ele>
        <time>2015-07-13T10:32:54.000Z</time>
      </trkpt>
      <trkpt lat="48.68468" lon="1.75556">
        <ele>156</ele>
        <time>2015-07-13T10:33:01.000Z</time>
      </trkpt>
      <trkpt lat="48.68475" lon="1.75554">
        <ele>156.19999694824</ele>
        <time>2015-07-13T10:33:06.000Z</time>
      </trkpt>
      <trkpt lat="48.68482" lon="1.7555">
        <ele>156.39999389648</ele>
        <time>2015-07-13T10:33:12.000Z</time>
      </trkpt>
      <trkpt lat="48.6849" lon="1.75547">
        <ele>156.80000305176</ele>
        <time>2015-07-13T10:33:18.000Z</time>
      </trkpt>
      <trkpt lat="48.68495" lon="1.75545">
        <ele>156.80000305176</ele>
        <time>2015-07-13T10:33:21.000Z</time>
      </trkpt>
      <trkpt lat="48.68505" lon="1.75542">
        <ele>156.80000305176</ele>
        <time>2015-07-13T10:33:28.000Z</time>
      </trkpt>
      <trkpt lat="48.68511" lon="1.75541">
        <ele>156.60000610352</ele>
        <time>2015-07-13T10:33:33.000Z</time>
      </trkpt>
      <trkpt lat="48.68512" lon="1.75543">
        <ele>156.60000610352</ele>
        <time>2015-07-13T10:33:35.000Z</time>
      </trkpt>
      <trkpt lat="48.68512" lon="1.75549">
        <ele>156.19999694824</ele>
        <time>2015-07-13T10:33:40.000Z</time>
      </trkpt>
      <trkpt lat="48.68512" lon="1.75549">
        <ele>156.19999694824</ele>
        <time>2015-07-13T10:33:41.000Z</time>
      </trkpt>
      <trkpt lat="48.68518" lon="1.75548">
        <ele>156.19999694824</ele>
        <time>2015-07-13T10:34:16.000Z</time>
      </trkpt>
      <trkpt lat="48.68521" lon="1.75544">
        <ele>156.39999389648</ele>
        <time>2015-07-13T10:34:19.000Z</time>
      </trkpt>
      <trkpt lat="48.68523" lon="1.75541">
        <ele>156.60000610352</ele>
        <time>2015-07-13T10:34:28.000Z</time>
      </trkpt>
      <trkpt lat="48.68515" lon="1.7554">
        <ele>156.60000610352</ele>
        <time>2015-07-13T10:34:49.000Z</time>
      </trkpt>
      <trkpt lat="48.68515" lon="1.75541">
        <ele>156.60000610352</ele>
        <time>2015-07-13T10:34:50.000Z</time>
      </trkpt>
      <trkpt lat="48.68516" lon="1.75555">
        <ele>155.80000305176</ele>
        <time>2015-07-13T10:34:56.000Z</time>
      </trkpt>
      <trkpt lat="48.68517" lon="1.75568">
        <ele>155.19999694824</ele>
        <time>2015-07-13T10:35:02.000Z</time>
      </trkpt>
      <trkpt lat="48.68518" lon="1.75571">
        <ele>155</ele>
        <time>2015-07-13T10:35:04.000Z</time>
      </trkpt>
      <trkpt lat="48.68519" lon="1.75589">
        <ele>155</ele>
        <time>2015-07-13T10:35:12.000Z</time>
      </trkpt>
      <trkpt lat="48.68522" lon="1.75603">
        <ele>155</ele>
        <time>2015-07-13T10:35:19.000Z</time>
      </trkpt>
      <trkpt lat="48.68522" lon="1.7561">
        <ele>155</ele>
        <time>2015-07-13T10:35:22.000Z</time>
      </trkpt>
      <trkpt lat="48.68524" lon="1.75621">
        <ele>155.19999694824</ele>
        <time>2015-07-13T10:35:27.000Z</time>
      </trkpt>
      <trkpt lat="48.68525" lon="1.75631">
        <ele>155.19999694824</ele>
        <time>2015-07-13T10:35:32.000Z</time>
      </trkpt>
      <trkpt lat="48.68526" lon="1.75645">
        <ele>155.19999694824</ele>
        <time>2015-07-13T10:35:38.000Z</time>
      </trkpt>
      <trkpt lat="48.68527" lon="1.75652">
        <ele>155.19999694824</ele>
        <time>2015-07-13T10:35:41.000Z</time>
      </trkpt>
      <trkpt lat="48.6853" lon="1.75665">
        <ele>155.19999694824</ele>
        <time>2015-07-13T10:35:46.000Z</time>
      </trkpt>
      <trkpt lat="48.68531" lon="1.75676">
        <ele>155</ele>
        <time>2015-07-13T10:35:51.000Z</time>
      </trkpt>
      <trkpt lat="48.68534" lon="1.75686">
        <ele>154.80000305176</ele>
        <time>2015-07-13T10:35:56.000Z</time>
      </trkpt>
      <trkpt lat="48.68536" lon="1.757">
        <ele>154.39999389648</ele>
        <time>2015-07-13T10:36:03.000Z</time>
      </trkpt>
      <trkpt lat="48.68539" lon="1.75718">
        <ele>154.19999694824</ele>
        <time>2015-07-13T10:36:11.000Z</time>
      </trkpt>
      <trkpt lat="48.68541" lon="1.75728">
        <ele>154</ele>
        <time>2015-07-13T10:36:15.000Z</time>
      </trkpt>
      <trkpt lat="48.68548" lon="1.75751">
        <ele>153.60000610352</ele>
        <time>2015-07-13T10:36:24.000Z</time>
      </trkpt>
      <trkpt lat="48.68549" lon="1.75769">
        <ele>153.39999389648</ele>
        <time>2015-07-13T10:36:32.000Z</time>
      </trkpt>
      <trkpt lat="48.6855" lon="1.75789">
        <ele>153</ele>
        <time>2015-07-13T10:36:41.000Z</time>
      </trkpt>
      <trkpt lat="48.68551" lon="1.75802">
        <ele>153</ele>
        <time>2015-07-13T10:36:47.000Z</time>
      </trkpt>
      <trkpt lat="48.68551" lon="1.75818">
        <ele>152.80000305176</ele>
        <time>2015-07-13T10:36:55.000Z</time>
      </trkpt>
      <trkpt lat="48.68551" lon="1.7583">
        <ele>152.60000610352</ele>
        <time>2015-07-13T10:37:01.000Z</time>
      </trkpt>
      <trkpt lat="48.68553" lon="1.75847">
        <ele>152.39999389648</ele>
        <time>2015-07-13T10:37:09.000Z</time>
      </trkpt>
      <trkpt lat="48.68554" lon="1.75865">
        <ele>152</ele>
        <time>2015-07-13T10:37:17.000Z</time>
      </trkpt>
      <trkpt lat="48.68557" lon="1.75882">
        <ele>151.60000610352</ele>
        <time>2015-07-13T10:37:25.000Z</time>
      </trkpt>
      <trkpt lat="48.68559" lon="1.75901">
        <ele>151</ele>
        <time>2015-07-13T10:37:34.000Z</time>
      </trkpt>
      <trkpt lat="48.68562" lon="1.75914">
        <ele>151</ele>
        <time>2015-07-13T10:37:40.000Z</time>
      </trkpt>
      <trkpt lat="48.68563" lon="1.75923">
        <ele>151</ele>
        <time>2015-07-13T10:37:44.000Z</time>
      </trkpt>
      <trkpt lat="48.68566" lon="1.75938">
        <ele>151.19999694824</ele>
        <time>2015-07-13T10:37:52.000Z</time>
      </trkpt>
      <trkpt lat="48.68566" lon="1.75955">
        <ele>151.19999694824</ele>
        <time>2015-07-13T10:38:01.000Z</time>
      </trkpt>
      <trkpt lat="48.68566" lon="1.75972">
        <ele>151.39999389648</ele>
        <time>2015-07-13T10:38:09.000Z</time>
      </trkpt>
      <trkpt lat="48.68568" lon="1.75983">
        <ele>151.60000610352</ele>
        <time>2015-07-13T10:38:15.000Z</time>
      </trkpt>
      <trkpt lat="48.6857" lon="1.75987">
        <ele>151.80000305176</ele>
        <time>2015-07-13T10:38:17.000Z</time>
      </trkpt>
      <trkpt lat="48.68575" lon="1.75999">
        <ele>152</ele>
        <time>2015-07-13T10:38:23.000Z</time>
      </trkpt>
      <trkpt lat="48.68576" lon="1.76">
        <ele>152</ele>
        <time>2015-07-13T10:38:24.000Z</time>
      </trkpt>
      <trkpt lat="48.68586" lon="1.76004">
        <ele>152.39999389648</ele>
        <time>2015-07-13T10:38:31.000Z</time>
      </trkpt>
      <trkpt lat="48.68598" lon="1.76008">
        <ele>152.80000305176</ele>
        <time>2015-07-13T10:38:38.000Z</time>
      </trkpt>
      <trkpt lat="48.68617" lon="1.76015">
        <ele>153.80000305176</ele>
        <time>2015-07-13T10:38:44.000Z</time>
      </trkpt>
      <trkpt lat="48.68636" lon="1.76022">
        <ele>155</ele>
        <time>2015-07-13T10:38:50.000Z</time>
      </trkpt>
      <trkpt lat="48.68653" lon="1.7603">
        <ele>156.19999694824</ele>
        <time>2015-07-13T10:38:56.000Z</time>
      </trkpt>
      <trkpt lat="48.68667" lon="1.76035">
        <ele>157.19999694824</ele>
        <time>2015-07-13T10:39:01.000Z</time>
      </trkpt>
      <trkpt lat="48.6869" lon="1.76042">
        <ele>159</ele>
        <time>2015-07-13T10:39:07.000Z</time>
      </trkpt>
      <trkpt lat="48.68711" lon="1.76049">
        <ele>160.19999694824</ele>
        <time>2015-07-13T10:39:12.000Z</time>
      </trkpt>
      <trkpt lat="48.68715" lon="1.76051">
        <ele>160.60000610352</ele>
        <time>2015-07-13T10:39:13.000Z</time>
      </trkpt>
      <trkpt lat="48.68739" lon="1.76061">
        <ele>162</ele>
        <time>2015-07-13T10:39:18.000Z</time>
      </trkpt>
      <trkpt lat="48.68759" lon="1.76066">
        <ele>163.39999389648</ele>
        <time>2015-07-13T10:39:23.000Z</time>
      </trkpt>
      <trkpt lat="48.68777" lon="1.76073">
        <ele>164.39999389648</ele>
        <time>2015-07-13T10:39:29.000Z</time>
      </trkpt>
      <trkpt lat="48.68798" lon="1.76083">
        <ele>165.39999389648</ele>
        <time>2015-07-13T10:39:34.000Z</time>
      </trkpt>
      <trkpt lat="48.68808" lon="1.76086">
        <ele>166</ele>
        <time>2015-07-13T10:39:36.000Z</time>
      </trkpt>
      <trkpt lat="48.68834" lon="1.76096">
        <ele>167.19999694824</ele>
        <time>2015-07-13T10:39:41.000Z</time>
      </trkpt>
      <trkpt lat="48.68839" lon="1.76098">
        <ele>167.39999389648</ele>
        <time>2015-07-13T10:39:42.000Z</time>
      </trkpt>
      <trkpt lat="48.68865" lon="1.76106">
        <ele>169.19999694824</ele>
        <time>2015-07-13T10:39:47.000Z</time>
      </trkpt>
      <trkpt lat="48.68882" lon="1.76111">
        <ele>170.60000610352</ele>
        <time>2015-07-13T10:39:51.000Z</time>
      </trkpt>
      <trkpt lat="48.68904" lon="1.7612">
        <ele>172.39999389648</ele>
        <time>2015-07-13T10:39:57.000Z</time>
      </trkpt>
      <trkpt lat="48.68919" lon="1.76121">
        <ele>173.39999389648</ele>
        <time>2015-07-13T10:40:02.000Z</time>
      </trkpt>
      <trkpt lat="48.68931" lon="1.76125">
        <ele>174.19999694824</ele>
        <time>2015-07-13T10:40:06.000Z</time>
      </trkpt>
      <trkpt lat="48.68943" lon="1.76128">
        <ele>175.19999694824</ele>
        <time>2015-07-13T10:40:10.000Z</time>
      </trkpt>
      <trkpt lat="48.68948" lon="1.76131">
        <ele>175.80000305176</ele>
        <time>2015-07-13T10:40:12.000Z</time>
      </trkpt>
      <trkpt lat="48.68962" lon="1.76137">
        <ele>177.19999694824</ele>
        <time>2015-07-13T10:40:18.000Z</time>
      </trkpt>
      <trkpt lat="48.6897" lon="1.76145">
        <ele>178.39999389648</ele>
        <time>2015-07-13T10:40:25.000Z</time>
      </trkpt>
      <trkpt lat="48.68977" lon="1.76151">
        <ele>179.19999694824</ele>
        <time>2015-07-13T10:40:30.000Z</time>
      </trkpt>
      <trkpt lat="48.68982" lon="1.76151">
        <ele>179.60000610352</ele>
        <time>2015-07-13T10:40:33.000Z</time>
      </trkpt>
      <trkpt lat="48.68992" lon="1.76158">
        <ele>180.60000610352</ele>
        <time>2015-07-13T10:40:41.000Z</time>
      </trkpt>
      <trkpt lat="48.68994" lon="1.76159">
        <ele>180.80000305176</ele>
        <time>2015-07-13T10:40:43.000Z</time>
      </trkpt>
      <trkpt lat="48.69" lon="1.7616">
        <ele>181.39999389648</ele>
        <time>2015-07-13T10:40:48.000Z</time>
      </trkpt>
      <trkpt lat="48.69012" lon="1.76162">
        <ele>182.39999389648</ele>
        <time>2015-07-13T10:40:55.000Z</time>
      </trkpt>
      <trkpt lat="48.69019" lon="1.7617">
        <ele>183</ele>
        <time>2015-07-13T10:41:00.000Z</time>
      </trkpt>
      <trkpt lat="48.69022" lon="1.76171">
        <ele>183</ele>
        <time>2015-07-13T10:41:02.000Z</time>
      </trkpt>
      <trkpt lat="48.69032" lon="1.76172">
        <ele>183.19999694824</ele>
        <time>2015-07-13T10:41:09.000Z</time>
      </trkpt>
      <trkpt lat="48.6904" lon="1.76179">
        <ele>183.19999694824</ele>
        <time>2015-07-13T10:41:15.000Z</time>
      </trkpt>
      <trkpt lat="48.69044" lon="1.7618">
        <ele>183.19999694824</ele>
        <time>2015-07-13T10:41:17.000Z</time>
      </trkpt>
      <trkpt lat="48.69057" lon="1.7619">
        <ele>183.39999389648</ele>
        <time>2015-07-13T10:41:25.000Z</time>
      </trkpt>
      <trkpt lat="48.69062" lon="1.76195">
        <ele>183.39999389648</ele>
        <time>2015-07-13T10:41:28.000Z</time>
      </trkpt>
      <trkpt lat="48.69068" lon="1.762">
        <ele>183.60000610352</ele>
        <time>2015-07-13T10:41:35.000Z</time>
      </trkpt>
      <trkpt lat="48.69078" lon="1.76202">
        <ele>183.39999389648</ele>
        <time>2015-07-13T10:41:41.000Z</time>
      </trkpt>
      <trkpt lat="48.69089" lon="1.76204">
        <ele>183.39999389648</ele>
        <time>2015-07-13T10:41:49.000Z</time>
      </trkpt>
      <trkpt lat="48.6909" lon="1.76205">
        <ele>183.39999389648</ele>
        <time>2015-07-13T10:41:50.000Z</time>
      </trkpt>
      <trkpt lat="48.69093" lon="1.76207">
        <ele>183.39999389648</ele>
        <time>2015-07-13T10:41:52.000Z</time>
      </trkpt>
      <trkpt lat="48.69101" lon="1.76213">
        <ele>183.39999389648</ele>
        <time>2015-07-13T10:41:58.000Z</time>
      </trkpt>
      <trkpt lat="48.69102" lon="1.76215">
        <ele>183.39999389648</ele>
        <time>2015-07-13T10:41:59.000Z</time>
      </trkpt>
      <trkpt lat="48.69108" lon="1.7622">
        <ele>183.60000610352</ele>
        <time>2015-07-13T10:42:04.000Z</time>
      </trkpt>
      <trkpt lat="48.69116" lon="1.76222">
        <ele>183.39999389648</ele>
        <time>2015-07-13T10:42:09.000Z</time>
      </trkpt>
      <trkpt lat="48.69123" lon="1.76231">
        <ele>183.60000610352</ele>
        <time>2015-07-13T10:42:16.000Z</time>
      </trkpt>
      <trkpt lat="48.6913" lon="1.76234">
        <ele>183.60000610352</ele>
        <time>2015-07-13T10:42:21.000Z</time>
      </trkpt>
      <trkpt lat="48.6914" lon="1.76238">
        <ele>183.60000610352</ele>
        <time>2015-07-13T10:42:27.000Z</time>
      </trkpt>
      <trkpt lat="48.69145" lon="1.76242">
        <ele>183.39999389648</ele>
        <time>2015-07-13T10:42:31.000Z</time>
      </trkpt>
      <trkpt lat="48.69157" lon="1.76251">
        <ele>183.39999389648</ele>
        <time>2015-07-13T10:42:39.000Z</time>
      </trkpt>
      <trkpt lat="48.69158" lon="1.76253">
        <ele>183.39999389648</ele>
        <time>2015-07-13T10:42:41.000Z</time>
      </trkpt>
      <trkpt lat="48.69162" lon="1.76254">
        <ele>183.19999694824</ele>
        <time>2015-07-13T10:42:44.000Z</time>
      </trkpt>
      <trkpt lat="48.69169" lon="1.76259">
        <ele>183.19999694824</ele>
        <time>2015-07-13T10:42:49.000Z</time>
      </trkpt>
      <trkpt lat="48.69182" lon="1.76265">
        <ele>183</ele>
        <time>2015-07-13T10:42:56.000Z</time>
      </trkpt>
      <trkpt lat="48.69182" lon="1.76266">
        <ele>183</ele>
        <time>2015-07-13T10:42:57.000Z</time>
      </trkpt>
      <trkpt lat="48.69191" lon="1.76271">
        <ele>182.80000305176</ele>
        <time>2015-07-13T10:43:04.000Z</time>
      </trkpt>
      <trkpt lat="48.69192" lon="1.76272">
        <ele>182.80000305176</ele>
        <time>2015-07-13T10:43:05.000Z</time>
      </trkpt>
      <trkpt lat="48.69196" lon="1.76273">
        <ele>182.80000305176</ele>
        <time>2015-07-13T10:43:08.000Z</time>
      </trkpt>
      <trkpt lat="48.692" lon="1.76276">
        <ele>182.60000610352</ele>
        <time>2015-07-13T10:43:12.000Z</time>
      </trkpt>
      <trkpt lat="48.69213" lon="1.76283">
        <ele>182.39999389648</ele>
        <time>2015-07-13T10:43:20.000Z</time>
      </trkpt>
      <trkpt lat="48.69217" lon="1.76283">
        <ele>182.19999694824</ele>
        <time>2015-07-13T10:43:23.000Z</time>
      </trkpt>
      <trkpt lat="48.69225" lon="1.76288">
        <ele>182</ele>
        <time>2015-07-13T10:43:29.000Z</time>
      </trkpt>
      <trkpt lat="48.69232" lon="1.76293">
        <ele>182</ele>
        <time>2015-07-13T10:43:33.000Z</time>
      </trkpt>
      <trkpt lat="48.69247" lon="1.763">
        <ele>181.60000610352</ele>
        <time>2015-07-13T10:43:41.000Z</time>
      </trkpt>
      <trkpt lat="48.69251" lon="1.76303">
        <ele>181.39999389648</ele>
        <time>2015-07-13T10:43:44.000Z</time>
      </trkpt>
      <trkpt lat="48.69256" lon="1.7631">
        <ele>181.39999389648</ele>
        <time>2015-07-13T10:43:49.000Z</time>
      </trkpt>
      <trkpt lat="48.69262" lon="1.76312">
        <ele>181.19999694824</ele>
        <time>2015-07-13T10:43:52.000Z</time>
      </trkpt>
      <trkpt lat="48.69269" lon="1.76315">
        <ele>181</ele>
        <time>2015-07-13T10:43:57.000Z</time>
      </trkpt>
      <trkpt lat="48.69277" lon="1.76323">
        <ele>181</ele>
        <time>2015-07-13T10:44:04.000Z</time>
      </trkpt>
      <trkpt lat="48.69287" lon="1.76327">
        <ele>180.80000305176</ele>
        <time>2015-07-13T10:44:11.000Z</time>
      </trkpt>
      <trkpt lat="48.69296" lon="1.76325">
        <ele>181</ele>
        <time>2015-07-13T10:44:17.000Z</time>
      </trkpt>
      <trkpt lat="48.69298" lon="1.7632">
        <ele>181.39999389648</ele>
        <time>2015-07-13T10:44:20.000Z</time>
      </trkpt>
      <trkpt lat="48.69304" lon="1.76312">
        <ele>181.60000610352</ele>
        <time>2015-07-13T10:44:25.000Z</time>
      </trkpt>
      <trkpt lat="48.69304" lon="1.7631">
        <ele>181.60000610352</ele>
        <time>2015-07-13T10:44:26.000Z</time>
      </trkpt>
      <trkpt lat="48.69316" lon="1.76297">
        <ele>181.80000305176</ele>
        <time>2015-07-13T10:44:37.000Z</time>
      </trkpt>
      <trkpt lat="48.69318" lon="1.76294">
        <ele>181.80000305176</ele>
        <time>2015-07-13T10:44:39.000Z</time>
      </trkpt>
      <trkpt lat="48.69321" lon="1.76288">
        <ele>182</ele>
        <time>2015-07-13T10:44:43.000Z</time>
      </trkpt>
      <trkpt lat="48.69325" lon="1.76284">
        <ele>182.19999694824</ele>
        <time>2015-07-13T10:44:46.000Z</time>
      </trkpt>
      <trkpt lat="48.69333" lon="1.76272">
        <ele>182.39999389648</ele>
        <time>2015-07-13T10:44:52.000Z</time>
      </trkpt>
      <trkpt lat="48.69338" lon="1.76267">
        <ele>182.39999389648</ele>
        <time>2015-07-13T10:44:55.000Z</time>
      </trkpt>
      <trkpt lat="48.69344" lon="1.76258">
        <ele>182.60000610352</ele>
        <time>2015-07-13T10:45:00.000Z</time>
      </trkpt>
      <trkpt lat="48.69346" lon="1.76252">
        <ele>182.80000305176</ele>
        <time>2015-07-13T10:45:04.000Z</time>
      </trkpt>
      <trkpt lat="48.69351" lon="1.76243">
        <ele>183</ele>
        <time>2015-07-13T10:45:09.000Z</time>
      </trkpt>
      <trkpt lat="48.69354" lon="1.76239">
        <ele>183</ele>
        <time>2015-07-13T10:45:12.000Z</time>
      </trkpt>
      <trkpt lat="48.69359" lon="1.76226">
        <ele>182.80000305176</ele>
        <time>2015-07-13T10:45:18.000Z</time>
      </trkpt>
      <trkpt lat="48.69363" lon="1.76216">
        <ele>182.60000610352</ele>
        <time>2015-07-13T10:45:23.000Z</time>
      </trkpt>
      <trkpt lat="48.69371" lon="1.76198">
        <ele>182.39999389648</ele>
        <time>2015-07-13T10:45:31.000Z</time>
      </trkpt>
      <trkpt lat="48.69373" lon="1.76193">
        <ele>182.19999694824</ele>
        <time>2015-07-13T10:45:33.000Z</time>
      </trkpt>
      <trkpt lat="48.69376" lon="1.76183">
        <ele>182</ele>
        <time>2015-07-13T10:45:37.000Z</time>
      </trkpt>
      <trkpt lat="48.6938" lon="1.76173">
        <ele>182</ele>
        <time>2015-07-13T10:45:42.000Z</time>
      </trkpt>
      <trkpt lat="48.69384" lon="1.76162">
        <ele>182</ele>
        <time>2015-07-13T10:45:48.000Z</time>
      </trkpt>
      <trkpt lat="48.69391" lon="1.76151">
        <ele>181.80000305176</ele>
        <time>2015-07-13T10:45:55.000Z</time>
      </trkpt>
      <trkpt lat="48.69397" lon="1.7615">
        <ele>181.80000305176</ele>
        <time>2015-07-13T10:46:00.000Z</time>
      </trkpt>
      <trkpt lat="48.69404" lon="1.76153">
        <ele>182</ele>
        <time>2015-07-13T10:46:05.000Z</time>
      </trkpt>
      <trkpt lat="48.69412" lon="1.76153">
        <ele>182</ele>
        <time>2015-07-13T10:46:12.000Z</time>
      </trkpt>
      <trkpt lat="48.69415" lon="1.76154">
        <ele>182</ele>
        <time>2015-07-13T10:46:14.000Z</time>
      </trkpt>
      <trkpt lat="48.69425" lon="1.76157">
        <ele>182</ele>
        <time>2015-07-13T10:46:21.000Z</time>
      </trkpt>
      <trkpt lat="48.69428" lon="1.76159">
        <ele>182</ele>
        <time>2015-07-13T10:46:24.000Z</time>
      </trkpt>
      <trkpt lat="48.69436" lon="1.76159">
        <ele>182</ele>
        <time>2015-07-13T10:46:29.000Z</time>
      </trkpt>
      <trkpt lat="48.69443" lon="1.76159">
        <ele>182.19999694824</ele>
        <time>2015-07-13T10:46:33.000Z</time>
      </trkpt>
      <trkpt lat="48.69457" lon="1.76163">
        <ele>182.39999389648</ele>
        <time>2015-07-13T10:46:41.000Z</time>
      </trkpt>
      <trkpt lat="48.69464" lon="1.76165">
        <ele>182.39999389648</ele>
        <time>2015-07-13T10:46:45.000Z</time>
      </trkpt>
      <trkpt lat="48.69471" lon="1.76167">
        <ele>182.60000610352</ele>
        <time>2015-07-13T10:46:50.000Z</time>
      </trkpt>
      <trkpt lat="48.69472" lon="1.76168">
        <ele>182.60000610352</ele>
        <time>2015-07-13T10:46:51.000Z</time>
      </trkpt>
      <trkpt lat="48.6948" lon="1.76171">
        <ele>182.80000305176</ele>
        <time>2015-07-13T10:46:56.000Z</time>
      </trkpt>
      <trkpt lat="48.69487" lon="1.76178">
        <ele>182.80000305176</ele>
        <time>2015-07-13T10:47:02.000Z</time>
      </trkpt>
      <trkpt lat="48.69498" lon="1.76188">
        <ele>183.19999694824</ele>
        <time>2015-07-13T10:47:08.000Z</time>
      </trkpt>
      <trkpt lat="48.69499" lon="1.76191">
        <ele>183.19999694824</ele>
        <time>2015-07-13T10:47:10.000Z</time>
      </trkpt>
      <trkpt lat="48.69507" lon="1.76201">
        <ele>183.39999389648</ele>
        <time>2015-07-13T10:47:17.000Z</time>
      </trkpt>
      <trkpt lat="48.69508" lon="1.76203">
        <ele>183.39999389648</ele>
        <time>2015-07-13T10:47:18.000Z</time>
      </trkpt>
      <trkpt lat="48.6951" lon="1.7621">
        <ele>183.60000610352</ele>
        <time>2015-07-13T10:47:22.000Z</time>
      </trkpt>
      <trkpt lat="48.69519" lon="1.76223">
        <ele>183.80000305176</ele>
        <time>2015-07-13T10:47:30.000Z</time>
      </trkpt>
      <trkpt lat="48.69526" lon="1.7623">
        <ele>184</ele>
        <time>2015-07-13T10:47:35.000Z</time>
      </trkpt>
      <trkpt lat="48.69532" lon="1.7624">
        <ele>184</ele>
        <time>2015-07-13T10:47:41.000Z</time>
      </trkpt>
      <trkpt lat="48.69536" lon="1.76251">
        <ele>183.80000305176</ele>
        <time>2015-07-13T10:47:47.000Z</time>
      </trkpt>
      <trkpt lat="48.69537" lon="1.76256">
        <ele>183.80000305176</ele>
        <time>2015-07-13T10:47:50.000Z</time>
      </trkpt>
      <trkpt lat="48.69544" lon="1.76267">
        <ele>183.60000610352</ele>
        <time>2015-07-13T10:47:57.000Z</time>
      </trkpt>
      <trkpt lat="48.69553" lon="1.76281">
        <ele>183.39999389648</ele>
        <time>2015-07-13T10:48:05.000Z</time>
      </trkpt>
      <trkpt lat="48.69554" lon="1.76283">
        <ele>183.39999389648</ele>
        <time>2015-07-13T10:48:06.000Z</time>
      </trkpt>
      <trkpt lat="48.69561" lon="1.76294">
        <ele>183.39999389648</ele>
        <time>2015-07-13T10:48:11.000Z</time>
      </trkpt>
      <trkpt lat="48.69569" lon="1.76303">
        <ele>183.19999694824</ele>
        <time>2015-07-13T10:48:19.000Z</time>
      </trkpt>
      <trkpt lat="48.6957" lon="1.76305">
        <ele>183.19999694824</ele>
        <time>2015-07-13T10:48:20.000Z</time>
      </trkpt>
      <trkpt lat="48.69577" lon="1.76318">
        <ele>183</ele>
        <time>2015-07-13T10:48:28.000Z</time>
      </trkpt>
      <trkpt lat="48.69585" lon="1.76332">
        <ele>182.80000305176</ele>
        <time>2015-07-13T10:48:36.000Z</time>
      </trkpt>
      <trkpt lat="48.6959" lon="1.76341">
        <ele>182.80000305176</ele>
        <time>2015-07-13T10:48:42.000Z</time>
      </trkpt>
      <trkpt lat="48.69592" lon="1.76346">
        <ele>182.60000610352</ele>
        <time>2015-07-13T10:48:45.000Z</time>
      </trkpt>
      <trkpt lat="48.69598" lon="1.76355">
        <ele>182.60000610352</ele>
        <time>2015-07-13T10:48:50.000Z</time>
      </trkpt>
      <trkpt lat="48.69599" lon="1.76357">
        <ele>182.60000610352</ele>
        <time>2015-07-13T10:48:51.000Z</time>
      </trkpt>
      <trkpt lat="48.69613" lon="1.76377">
        <ele>182.39999389648</ele>
        <time>2015-07-13T10:49:01.000Z</time>
      </trkpt>
      <trkpt lat="48.69618" lon="1.76388">
        <ele>182.19999694824</ele>
        <time>2015-07-13T10:49:07.000Z</time>
      </trkpt>
      <trkpt lat="48.69622" lon="1.76392">
        <ele>182.19999694824</ele>
        <time>2015-07-13T10:49:10.000Z</time>
      </trkpt>
      <trkpt lat="48.69627" lon="1.76402">
        <ele>182</ele>
        <time>2015-07-13T10:49:16.000Z</time>
      </trkpt>
      <trkpt lat="48.69632" lon="1.76412">
        <ele>182</ele>
        <time>2015-07-13T10:49:22.000Z</time>
      </trkpt>
      <trkpt lat="48.6964" lon="1.76424">
        <ele>182</ele>
        <time>2015-07-13T10:49:31.000Z</time>
      </trkpt>
      <trkpt lat="48.69645" lon="1.76432">
        <ele>182</ele>
        <time>2015-07-13T10:49:36.000Z</time>
      </trkpt>
      <trkpt lat="48.6965" lon="1.76443">
        <ele>182</ele>
        <time>2015-07-13T10:49:42.000Z</time>
      </trkpt>
      <trkpt lat="48.69657" lon="1.76457">
        <ele>182</ele>
        <time>2015-07-13T10:49:49.000Z</time>
      </trkpt>
      <trkpt lat="48.69662" lon="1.76468">
        <ele>181.80000305176</ele>
        <time>2015-07-13T10:49:55.000Z</time>
      </trkpt>
      <trkpt lat="48.69671" lon="1.76478">
        <ele>181.80000305176</ele>
        <time>2015-07-13T10:50:02.000Z</time>
      </trkpt>
      <trkpt lat="48.69674" lon="1.76486">
        <ele>181.60000610352</ele>
        <time>2015-07-13T10:50:06.000Z</time>
      </trkpt>
      <trkpt lat="48.69683" lon="1.76501">
        <ele>181.39999389648</ele>
        <time>2015-07-13T10:50:14.000Z</time>
      </trkpt>
      <trkpt lat="48.69691" lon="1.7651">
        <ele>181.39999389648</ele>
        <time>2015-07-13T10:50:20.000Z</time>
      </trkpt>
      <trkpt lat="48.69698" lon="1.76523">
        <ele>181.39999389648</ele>
        <time>2015-07-13T10:50:27.000Z</time>
      </trkpt>
      <trkpt lat="48.69704" lon="1.76535">
        <ele>181.39999389648</ele>
        <time>2015-07-13T10:50:34.000Z</time>
      </trkpt>
      <trkpt lat="48.69708" lon="1.76542">
        <ele>181.39999389648</ele>
        <time>2015-07-13T10:50:39.000Z</time>
      </trkpt>
      <trkpt lat="48.69711" lon="1.76548">
        <ele>181.39999389648</ele>
        <time>2015-07-13T10:50:43.000Z</time>
      </trkpt>
      <trkpt lat="48.69715" lon="1.76554">
        <ele>181.39999389648</ele>
        <time>2015-07-13T10:50:46.000Z</time>
      </trkpt>
      <trkpt lat="48.69721" lon="1.76564">
        <ele>181.39999389648</ele>
        <time>2015-07-13T10:50:52.000Z</time>
      </trkpt>
      <trkpt lat="48.69724" lon="1.7657">
        <ele>181.19999694824</ele>
        <time>2015-07-13T10:50:56.000Z</time>
      </trkpt>
      <trkpt lat="48.69731" lon="1.76583">
        <ele>181.60000610352</ele>
        <time>2015-07-13T10:51:04.000Z</time>
      </trkpt>
      <trkpt lat="48.69736" lon="1.76587">
        <ele>182</ele>
        <time>2015-07-13T10:51:08.000Z</time>
      </trkpt>
      <trkpt lat="48.69744" lon="1.76601">
        <ele>182.39999389648</ele>
        <time>2015-07-13T10:51:17.000Z</time>
      </trkpt>
      <trkpt lat="48.69755" lon="1.76616">
        <ele>183</ele>
        <time>2015-07-13T10:51:25.000Z</time>
      </trkpt>
      <trkpt lat="48.69764" lon="1.76628">
        <ele>183.60000610352</ele>
        <time>2015-07-13T10:51:29.000Z</time>
      </trkpt>
      <trkpt lat="48.69777" lon="1.76644">
        <ele>184</ele>
        <time>2015-07-13T10:51:34.000Z</time>
      </trkpt>
      <trkpt lat="48.69796" lon="1.76666">
        <ele>184.19999694824</ele>
        <time>2015-07-13T10:51:40.000Z</time>
      </trkpt>
      <trkpt lat="48.6981" lon="1.76686">
        <ele>184.80000305176</ele>
        <time>2015-07-13T10:51:45.000Z</time>
      </trkpt>
      <trkpt lat="48.69822" lon="1.76699">
        <ele>185</ele>
        <time>2015-07-13T10:51:49.000Z</time>
      </trkpt>
      <trkpt lat="48.69837" lon="1.76716">
        <ele>185.39999389648</ele>
        <time>2015-07-13T10:51:54.000Z</time>
      </trkpt>
      <trkpt lat="48.69849" lon="1.76738">
        <ele>185.80000305176</ele>
        <time>2015-07-13T10:52:00.000Z</time>
      </trkpt>
      <trkpt lat="48.6986" lon="1.76748">
        <ele>185.39999389648</ele>
        <time>2015-07-13T10:52:04.000Z</time>
      </trkpt>
      <trkpt lat="48.69877" lon="1.76762">
        <ele>184.60000610352</ele>
        <time>2015-07-13T10:52:09.000Z</time>
      </trkpt>
      <trkpt lat="48.69899" lon="1.76779">
        <ele>183.39999389648</ele>
        <time>2015-07-13T10:52:15.000Z</time>
      </trkpt>
      <trkpt lat="48.69916" lon="1.76798">
        <ele>182.39999389648</ele>
        <time>2015-07-13T10:52:20.000Z</time>
      </trkpt>
      <trkpt lat="48.69925" lon="1.76808">
        <ele>181.80000305176</ele>
        <time>2015-07-13T10:52:23.000Z</time>
      </trkpt>
      <trkpt lat="48.69945" lon="1.76835">
        <ele>180.80000305176</ele>
        <time>2015-07-13T10:52:31.000Z</time>
      </trkpt>
      <trkpt lat="48.69962" lon="1.76854">
        <ele>181</ele>
        <time>2015-07-13T10:52:37.000Z</time>
      </trkpt>
      <trkpt lat="48.69985" lon="1.7688">
        <ele>181</ele>
        <time>2015-07-13T10:52:45.000Z</time>
      </trkpt>
      <trkpt lat="48.69997" lon="1.76893">
        <ele>181.19999694824</ele>
        <time>2015-07-13T10:52:49.000Z</time>
      </trkpt>
      <trkpt lat="48.70012" lon="1.76908">
        <ele>181.39999389648</ele>
        <time>2015-07-13T10:52:54.000Z</time>
      </trkpt>
      <trkpt lat="48.70029" lon="1.76929">
        <ele>181.39999389648</ele>
        <time>2015-07-13T10:53:00.000Z</time>
      </trkpt>
      <trkpt lat="48.70041" lon="1.76941">
        <ele>181.19999694824</ele>
        <time>2015-07-13T10:53:06.000Z</time>
      </trkpt>
      <trkpt lat="48.70051" lon="1.76952">
        <ele>180.80000305176</ele>
        <time>2015-07-13T10:53:13.000Z</time>
      </trkpt>
      <trkpt lat="48.7006" lon="1.76957">
        <ele>180.80000305176</ele>
        <time>2015-07-13T10:53:18.000Z</time>
      </trkpt>
      <trkpt lat="48.70071" lon="1.76968">
        <ele>180.39999389648</ele>
        <time>2015-07-13T10:53:27.000Z</time>
      </trkpt>
      <trkpt lat="48.70075" lon="1.76973">
        <ele>180.39999389648</ele>
        <time>2015-07-13T10:53:31.000Z</time>
      </trkpt>
      <trkpt lat="48.70085" lon="1.76986">
        <ele>180</ele>
        <time>2015-07-13T10:53:40.000Z</time>
      </trkpt>
      <trkpt lat="48.7009" lon="1.76994">
        <ele>179.60000610352</ele>
        <time>2015-07-13T10:53:47.000Z</time>
      </trkpt>
      <trkpt lat="48.70097" lon="1.77001">
        <ele>179.19999694824</ele>
        <time>2015-07-13T10:53:53.000Z</time>
      </trkpt>
      <trkpt lat="48.70106" lon="1.77009">
        <ele>178.80000305176</ele>
        <time>2015-07-13T10:54:01.000Z</time>
      </trkpt>
      <trkpt lat="48.70115" lon="1.77019">
        <ele>178.60000610352</ele>
        <time>2015-07-13T10:54:06.000Z</time>
      </trkpt>
      <trkpt lat="48.70133" lon="1.77039">
        <ele>178</ele>
        <time>2015-07-13T10:54:12.000Z</time>
      </trkpt>
      <trkpt lat="48.70162" lon="1.77072">
        <ele>177.19999694824</ele>
        <time>2015-07-13T10:54:21.000Z</time>
      </trkpt>
      <trkpt lat="48.70189" lon="1.77101">
        <ele>178.39999389648</ele>
        <time>2015-07-13T10:54:29.000Z</time>
      </trkpt>
      <trkpt lat="48.70219" lon="1.77132">
        <ele>180</ele>
        <time>2015-07-13T10:54:37.000Z</time>
      </trkpt>
      <trkpt lat="48.70229" lon="1.77144">
        <ele>180.39999389648</ele>
        <time>2015-07-13T10:54:40.000Z</time>
      </trkpt>
      <trkpt lat="48.70248" lon="1.77158">
        <ele>181</ele>
        <time>2015-07-13T10:54:45.000Z</time>
      </trkpt>
      <trkpt lat="48.70275" lon="1.77188">
        <ele>180.19999694824</ele>
        <time>2015-07-13T10:54:53.000Z</time>
      </trkpt>
      <trkpt lat="48.70297" lon="1.77214">
        <ele>179.39999389648</ele>
        <time>2015-07-13T10:55:00.000Z</time>
      </trkpt>
      <trkpt lat="48.70317" lon="1.77236">
        <ele>178.80000305176</ele>
        <time>2015-07-13T10:55:06.000Z</time>
      </trkpt>
      <trkpt lat="48.70333" lon="1.77254">
        <ele>179.39999389648</ele>
        <time>2015-07-13T10:55:11.000Z</time>
      </trkpt>
      <trkpt lat="48.70356" lon="1.77278">
        <ele>180.60000610352</ele>
        <time>2015-07-13T10:55:19.000Z</time>
      </trkpt>
      <trkpt lat="48.70363" lon="1.77286">
        <ele>180.80000305176</ele>
        <time>2015-07-13T10:55:24.000Z</time>
      </trkpt>
      <trkpt lat="48.70366" lon="1.77287">
        <ele>180.80000305176</ele>
        <time>2015-07-13T10:55:26.000Z</time>
      </trkpt>
      <trkpt lat="48.70369" lon="1.77278">
        <ele>180.80000305176</ele>
        <time>2015-07-13T10:55:32.000Z</time>
      </trkpt>
      <trkpt lat="48.70368" lon="1.7726">
        <ele>180.60000610352</ele>
        <time>2015-07-13T10:55:40.000Z</time>
      </trkpt>
      <trkpt lat="48.70367" lon="1.77247">
        <ele>180.39999389648</ele>
        <time>2015-07-13T10:55:46.000Z</time>
      </trkpt>
      <trkpt lat="48.70366" lon="1.77238">
        <ele>180.19999694824</ele>
        <time>2015-07-13T10:55:50.000Z</time>
      </trkpt>
      <trkpt lat="48.70362" lon="1.77226">
        <ele>180.39999389648</ele>
        <time>2015-07-13T10:55:57.000Z</time>
      </trkpt>
      <trkpt lat="48.70364" lon="1.77211">
        <ele>180.80000305176</ele>
        <time>2015-07-13T10:56:02.000Z</time>
      </trkpt>
      <trkpt lat="48.70364" lon="1.772">
        <ele>181</ele>
        <time>2015-07-13T10:56:08.000Z</time>
      </trkpt>
      <trkpt lat="48.70363" lon="1.7719">
        <ele>181.19999694824</ele>
        <time>2015-07-13T10:56:12.000Z</time>
      </trkpt>
      <trkpt lat="48.7036" lon="1.77169">
        <ele>181.80000305176</ele>
        <time>2015-07-13T10:56:21.000Z</time>
      </trkpt>
      <trkpt lat="48.70356" lon="1.77149">
        <ele>181.80000305176</ele>
        <time>2015-07-13T10:56:31.000Z</time>
      </trkpt>
      <trkpt lat="48.70355" lon="1.77133">
        <ele>182</ele>
        <time>2015-07-13T10:56:38.000Z</time>
      </trkpt>
      <trkpt lat="48.70354" lon="1.77119">
        <ele>182</ele>
        <time>2015-07-13T10:56:44.000Z</time>
      </trkpt>
      <trkpt lat="48.70354" lon="1.77114">
        <ele>182</ele>
        <time>2015-07-13T10:56:46.000Z</time>
      </trkpt>
      <trkpt lat="48.70351" lon="1.77097">
        <ele>182</ele>
        <time>2015-07-13T10:56:55.000Z</time>
      </trkpt>
      <trkpt lat="48.70349" lon="1.77084">
        <ele>182.19999694824</ele>
        <time>2015-07-13T10:57:02.000Z</time>
      </trkpt>
      <trkpt lat="48.70349" lon="1.77082">
        <ele>182.19999694824</ele>
        <time>2015-07-13T10:57:03.000Z</time>
      </trkpt>
      <trkpt lat="48.7035" lon="1.77076">
        <ele>182</ele>
        <time>2015-07-13T10:57:07.000Z</time>
      </trkpt>
      <trkpt lat="48.7035" lon="1.77068">
        <ele>182</ele>
        <time>2015-07-13T10:57:11.000Z</time>
      </trkpt>
      <trkpt lat="48.7035" lon="1.77059">
        <ele>182</ele>
        <time>2015-07-13T10:57:15.000Z</time>
      </trkpt>
      <trkpt lat="48.70349" lon="1.77048">
        <ele>182</ele>
        <time>2015-07-13T10:57:19.000Z</time>
      </trkpt>
      <trkpt lat="48.70345" lon="1.77026">
        <ele>182.19999694824</ele>
        <time>2015-07-13T10:57:28.000Z</time>
      </trkpt>
      <trkpt lat="48.70344" lon="1.77015">
        <ele>182.19999694824</ele>
        <time>2015-07-13T10:57:32.000Z</time>
      </trkpt>
      <trkpt lat="48.70341" lon="1.77">
        <ele>182.19999694824</ele>
        <time>2015-07-13T10:57:40.000Z</time>
      </trkpt>
      <trkpt lat="48.70341" lon="1.76986">
        <ele>182.19999694824</ele>
        <time>2015-07-13T10:57:47.000Z</time>
      </trkpt>
      <trkpt lat="48.7034" lon="1.76972">
        <ele>181.80000305176</ele>
        <time>2015-07-13T10:57:56.000Z</time>
      </trkpt>
      <trkpt lat="48.7034" lon="1.76968">
        <ele>181.60000610352</ele>
        <time>2015-07-13T10:58:01.000Z</time>
      </trkpt>
      <trkpt lat="48.70339" lon="1.76959">
        <ele>181.39999389648</ele>
        <time>2015-07-13T10:58:10.000Z</time>
      </trkpt>
      <trkpt lat="48.70337" lon="1.76939">
        <ele>181</ele>
        <time>2015-07-13T10:58:19.000Z</time>
      </trkpt>
      <trkpt lat="48.70336" lon="1.76923">
        <ele>180.60000610352</ele>
        <time>2015-07-13T10:58:26.000Z</time>
      </trkpt>
      <trkpt lat="48.70336" lon="1.76919">
        <ele>180.60000610352</ele>
        <time>2015-07-13T10:58:28.000Z</time>
      </trkpt>
      <trkpt lat="48.70337" lon="1.76915">
        <ele>180.39999389648</ele>
        <time>2015-07-13T10:58:30.000Z</time>
      </trkpt>
      <trkpt lat="48.70336" lon="1.76902">
        <ele>180.19999694824</ele>
        <time>2015-07-13T10:58:36.000Z</time>
      </trkpt>
      <trkpt lat="48.70334" lon="1.7689">
        <ele>179.80000305176</ele>
        <time>2015-07-13T10:58:43.000Z</time>
      </trkpt>
      <trkpt lat="48.70333" lon="1.76869">
        <ele>179.60000610352</ele>
        <time>2015-07-13T10:58:52.000Z</time>
      </trkpt>
      <trkpt lat="48.70333" lon="1.76858">
        <ele>179.39999389648</ele>
        <time>2015-07-13T10:58:57.000Z</time>
      </trkpt>
      <trkpt lat="48.70333" lon="1.76836">
        <ele>179.19999694824</ele>
        <time>2015-07-13T10:59:07.000Z</time>
      </trkpt>
      <trkpt lat="48.70333" lon="1.76814">
        <ele>179</ele>
        <time>2015-07-13T10:59:17.000Z</time>
      </trkpt>
      <trkpt lat="48.70332" lon="1.76799">
        <ele>179.19999694824</ele>
        <time>2015-07-13T10:59:23.000Z</time>
      </trkpt>
      <trkpt lat="48.70334" lon="1.76779">
        <ele>179</ele>
        <time>2015-07-13T10:59:31.000Z</time>
      </trkpt>
      <trkpt lat="48.70333" lon="1.76762">
        <ele>178.80000305176</ele>
        <time>2015-07-13T10:59:38.000Z</time>
      </trkpt>
      <trkpt lat="48.70332" lon="1.76752">
        <ele>178.60000610352</ele>
        <time>2015-07-13T10:59:42.000Z</time>
      </trkpt>
      <trkpt lat="48.7033" lon="1.76736">
        <ele>178.60000610352</ele>
        <time>2015-07-13T10:59:49.000Z</time>
      </trkpt>
      <trkpt lat="48.7033" lon="1.76723">
        <ele>178.60000610352</ele>
        <time>2015-07-13T10:59:55.000Z</time>
      </trkpt>
      <trkpt lat="48.7033" lon="1.76714">
        <ele>178.60000610352</ele>
        <time>2015-07-13T10:59:59.000Z</time>
      </trkpt>
      <trkpt lat="48.70329" lon="1.767">
        <ele>178.60000610352</ele>
        <time>2015-07-13T11:00:04.000Z</time>
      </trkpt>
      <trkpt lat="48.7033" lon="1.76688">
        <ele>178.60000610352</ele>
        <time>2015-07-13T11:00:09.000Z</time>
      </trkpt>
      <trkpt lat="48.7033" lon="1.7668">
        <ele>178.60000610352</ele>
        <time>2015-07-13T11:00:13.000Z</time>
      </trkpt>
      <trkpt lat="48.70329" lon="1.76669">
        <ele>178.60000610352</ele>
        <time>2015-07-13T11:00:18.000Z</time>
      </trkpt>
      <trkpt lat="48.70332" lon="1.76651">
        <ele>178.60000610352</ele>
        <time>2015-07-13T11:00:26.000Z</time>
      </trkpt>
      <trkpt lat="48.70335" lon="1.76637">
        <ele>178.39999389648</ele>
        <time>2015-07-13T11:00:33.000Z</time>
      </trkpt>
      <trkpt lat="48.70335" lon="1.76636">
        <ele>178.39999389648</ele>
        <time>2015-07-13T11:00:34.000Z</time>
      </trkpt>
      <trkpt lat="48.7034" lon="1.76633">
        <ele>178.39999389648</ele>
        <time>2015-07-13T11:00:39.000Z</time>
      </trkpt>
      <trkpt lat="48.70347" lon="1.76625">
        <ele>178.19999694824</ele>
        <time>2015-07-13T11:00:45.000Z</time>
      </trkpt>
      <trkpt lat="48.7035" lon="1.76624">
        <ele>178</ele>
        <time>2015-07-13T11:00:48.000Z</time>
      </trkpt>
      <trkpt lat="48.70359" lon="1.76618">
        <ele>178.19999694824</ele>
        <time>2015-07-13T11:00:55.000Z</time>
      </trkpt>
      <trkpt lat="48.70363" lon="1.76613">
        <ele>178.19999694824</ele>
        <time>2015-07-13T11:00:59.000Z</time>
      </trkpt>
      <trkpt lat="48.70375" lon="1.76606">
        <ele>178.60000610352</ele>
        <time>2015-07-13T11:01:06.000Z</time>
      </trkpt>
      <trkpt lat="48.7038" lon="1.76604">
        <ele>178.60000610352</ele>
        <time>2015-07-13T11:01:10.000Z</time>
      </trkpt>
      <trkpt lat="48.70387" lon="1.76599">
        <ele>178.80000305176</ele>
        <time>2015-07-13T11:01:16.000Z</time>
      </trkpt>
      <trkpt lat="48.70395" lon="1.76596">
        <ele>179.19999694824</ele>
        <time>2015-07-13T11:01:22.000Z</time>
      </trkpt>
      <trkpt lat="48.70403" lon="1.76591">
        <ele>179.60000610352</ele>
        <time>2015-07-13T11:01:28.000Z</time>
      </trkpt>
      <trkpt lat="48.70412" lon="1.76587">
        <ele>180</ele>
        <time>2015-07-13T11:01:35.000Z</time>
      </trkpt>
      <trkpt lat="48.70419" lon="1.76584">
        <ele>180.19999694824</ele>
        <time>2015-07-13T11:01:40.000Z</time>
      </trkpt>
      <trkpt lat="48.70421" lon="1.76583">
        <ele>180.39999389648</ele>
        <time>2015-07-13T11:01:42.000Z</time>
      </trkpt>
      <trkpt lat="48.70426" lon="1.76579">
        <ele>180.60000610352</ele>
        <time>2015-07-13T11:01:46.000Z</time>
      </trkpt>
      <trkpt lat="48.7043" lon="1.76573">
        <ele>180.80000305176</ele>
        <time>2015-07-13T11:01:50.000Z</time>
      </trkpt>
      <trkpt lat="48.70436" lon="1.7656">
        <ele>181</ele>
        <time>2015-07-13T11:01:57.000Z</time>
      </trkpt>
      <trkpt lat="48.70441" lon="1.76544">
        <ele>181.19999694824</ele>
        <time>2015-07-13T11:02:05.000Z</time>
      </trkpt>
      <trkpt lat="48.70444" lon="1.7653">
        <ele>181.19999694824</ele>
        <time>2015-07-13T11:02:12.000Z</time>
      </trkpt>
      <trkpt lat="48.70446" lon="1.76516">
        <ele>181.19999694824</ele>
        <time>2015-07-13T11:02:19.000Z</time>
      </trkpt>
      <trkpt lat="48.70448" lon="1.76502">
        <ele>181.19999694824</ele>
        <time>2015-07-13T11:02:26.000Z</time>
      </trkpt>
      <trkpt lat="48.7045" lon="1.76495">
        <ele>181.19999694824</ele>
        <time>2015-07-13T11:02:29.000Z</time>
      </trkpt>
      <trkpt lat="48.70451" lon="1.76488">
        <ele>181</ele>
        <time>2015-07-13T11:02:32.000Z</time>
      </trkpt>
      <trkpt lat="48.70453" lon="1.76478">
        <ele>180.39999389648</ele>
        <time>2015-07-13T11:02:38.000Z</time>
      </trkpt>
      <trkpt lat="48.70454" lon="1.76472">
        <ele>180</ele>
        <time>2015-07-13T11:02:41.000Z</time>
      </trkpt>
      <trkpt lat="48.70459" lon="1.76456">
        <ele>178.80000305176</ele>
        <time>2015-07-13T11:02:48.000Z</time>
      </trkpt>
      <trkpt lat="48.70464" lon="1.7644">
        <ele>177.80000305176</ele>
        <time>2015-07-13T11:02:56.000Z</time>
      </trkpt>
      <trkpt lat="48.70463" lon="1.76424">
        <ele>177.19999694824</ele>
        <time>2015-07-13T11:03:02.000Z</time>
      </trkpt>
      <trkpt lat="48.70461" lon="1.7641">
        <ele>177.19999694824</ele>
        <time>2015-07-13T11:03:07.000Z</time>
      </trkpt>
      <trkpt lat="48.70459" lon="1.76399">
        <ele>177</ele>
        <time>2015-07-13T11:03:12.000Z</time>
      </trkpt>
      <trkpt lat="48.70456" lon="1.76382">
        <ele>176.19999694824</ele>
        <time>2015-07-13T11:03:18.000Z</time>
      </trkpt>
      <trkpt lat="48.70455" lon="1.76374">
        <ele>175.80000305176</ele>
        <time>2015-07-13T11:03:21.000Z</time>
      </trkpt>
      <trkpt lat="48.70453" lon="1.76364">
        <ele>175.39999389648</ele>
        <time>2015-07-13T11:03:26.000Z</time>
      </trkpt>
      <trkpt lat="48.70452" lon="1.76353">
        <ele>175</ele>
        <time>2015-07-13T11:03:29.000Z</time>
      </trkpt>
      <trkpt lat="48.70448" lon="1.76337">
        <ele>174.39999389648</ele>
        <time>2015-07-13T11:03:35.000Z</time>
      </trkpt>
      <trkpt lat="48.70448" lon="1.76332">
        <ele>174.19999694824</ele>
        <time>2015-07-13T11:03:37.000Z</time>
      </trkpt>
      <trkpt lat="48.70447" lon="1.7632">
        <ele>173.60000610352</ele>
        <time>2015-07-13T11:03:44.000Z</time>
      </trkpt>
      <trkpt lat="48.70446" lon="1.76309">
        <ele>173.60000610352</ele>
        <time>2015-07-13T11:03:49.000Z</time>
      </trkpt>
      <trkpt lat="48.70446" lon="1.76301">
        <ele>173.60000610352</ele>
        <time>2015-07-13T11:03:55.000Z</time>
      </trkpt>
      <trkpt lat="48.70449" lon="1.76286">
        <ele>173.60000610352</ele>
        <time>2015-07-13T11:04:02.000Z</time>
      </trkpt>
      <trkpt lat="48.70449" lon="1.76284">
        <ele>173.60000610352</ele>
        <time>2015-07-13T11:04:03.000Z</time>
      </trkpt>
      <trkpt lat="48.70451" lon="1.76279">
        <ele>173.60000610352</ele>
        <time>2015-07-13T11:04:06.000Z</time>
      </trkpt>
      <trkpt lat="48.70456" lon="1.76265">
        <ele>173.39999389648</ele>
        <time>2015-07-13T11:04:13.000Z</time>
      </trkpt>
      <trkpt lat="48.7046" lon="1.76248">
        <ele>172.80000305176</ele>
        <time>2015-07-13T11:04:20.000Z</time>
      </trkpt>
      <trkpt lat="48.70461" lon="1.7624">
        <ele>172.60000610352</ele>
        <time>2015-07-13T11:04:23.000Z</time>
      </trkpt>
      <trkpt lat="48.70464" lon="1.76223">
        <ele>172.80000305176</ele>
        <time>2015-07-13T11:04:31.000Z</time>
      </trkpt>
      <trkpt lat="48.70463" lon="1.76218">
        <ele>172.80000305176</ele>
        <time>2015-07-13T11:04:33.000Z</time>
      </trkpt>
      <trkpt lat="48.70462" lon="1.76213">
        <ele>173</ele>
        <time>2015-07-13T11:04:35.000Z</time>
      </trkpt>
      <trkpt lat="48.70459" lon="1.76204">
        <ele>173.39999389648</ele>
        <time>2015-07-13T11:04:39.000Z</time>
      </trkpt>
      <trkpt lat="48.70453" lon="1.76184">
        <ele>174.39999389648</ele>
        <time>2015-07-13T11:04:48.000Z</time>
      </trkpt>
      <trkpt lat="48.70451" lon="1.76174">
        <ele>174.60000610352</ele>
        <time>2015-07-13T11:04:52.000Z</time>
      </trkpt>
      <trkpt lat="48.70448" lon="1.76162">
        <ele>175.19999694824</ele>
        <time>2015-07-13T11:04:58.000Z</time>
      </trkpt>
      <trkpt lat="48.70447" lon="1.76157">
        <ele>175.39999389648</ele>
        <time>2015-07-13T11:05:01.000Z</time>
      </trkpt>
      <trkpt lat="48.70452" lon="1.76141">
        <ele>175.39999389648</ele>
        <time>2015-07-13T11:05:08.000Z</time>
      </trkpt>
      <trkpt lat="48.70454" lon="1.7613">
        <ele>175.39999389648</ele>
        <time>2015-07-13T11:05:12.000Z</time>
      </trkpt>
      <trkpt lat="48.7046" lon="1.76114">
        <ele>175.39999389648</ele>
        <time>2015-07-13T11:05:19.000Z</time>
      </trkpt>
      <trkpt lat="48.70461" lon="1.76112">
        <ele>175.39999389648</ele>
        <time>2015-07-13T11:05:20.000Z</time>
      </trkpt>
      <trkpt lat="48.70465" lon="1.76098">
        <ele>175.19999694824</ele>
        <time>2015-07-13T11:05:27.000Z</time>
      </trkpt>
      <trkpt lat="48.70466" lon="1.76093">
        <ele>175.39999389648</ele>
        <time>2015-07-13T11:05:29.000Z</time>
      </trkpt>
      <trkpt lat="48.70468" lon="1.76085">
        <ele>175.39999389648</ele>
        <time>2015-07-13T11:05:33.000Z</time>
      </trkpt>
      <trkpt lat="48.70468" lon="1.76082">
        <ele>175.39999389648</ele>
        <time>2015-07-13T11:05:35.000Z</time>
      </trkpt>
      <trkpt lat="48.70466" lon="1.76078">
        <ele>175.39999389648</ele>
        <time>2015-07-13T11:05:37.000Z</time>
      </trkpt>
      <trkpt lat="48.7047" lon="1.76061">
        <ele>175.80000305176</ele>
        <time>2015-07-13T11:05:44.000Z</time>
      </trkpt>
      <trkpt lat="48.70475" lon="1.76042">
        <ele>176.60000610352</ele>
        <time>2015-07-13T11:05:52.000Z</time>
      </trkpt>
      <trkpt lat="48.70478" lon="1.76029">
        <ele>177</ele>
        <time>2015-07-13T11:05:57.000Z</time>
      </trkpt>
      <trkpt lat="48.70481" lon="1.76013">
        <ele>177.80000305176</ele>
        <time>2015-07-13T11:06:05.000Z</time>
      </trkpt>
      <trkpt lat="48.70483" lon="1.76005">
        <ele>178.19999694824</ele>
        <time>2015-07-13T11:06:10.000Z</time>
      </trkpt>
      <trkpt lat="48.70486" lon="1.75992">
        <ele>179</ele>
        <time>2015-07-13T11:06:17.000Z</time>
      </trkpt>
      <trkpt lat="48.70489" lon="1.75987">
        <ele>179.19999694824</ele>
        <time>2015-07-13T11:06:20.000Z</time>
      </trkpt>
      <trkpt lat="48.70491" lon="1.7598">
        <ele>179.19999694824</ele>
        <time>2015-07-13T11:06:24.000Z</time>
      </trkpt>
      <trkpt lat="48.70492" lon="1.75975">
        <ele>179.19999694824</ele>
        <time>2015-07-13T11:06:26.000Z</time>
      </trkpt>
      <trkpt lat="48.70498" lon="1.75965">
        <ele>179</ele>
        <time>2015-07-13T11:06:31.000Z</time>
      </trkpt>
      <trkpt lat="48.705" lon="1.75961">
        <ele>179.19999694824</ele>
        <time>2015-07-13T11:06:34.000Z</time>
      </trkpt>
      <trkpt lat="48.70507" lon="1.75953">
        <ele>179.60000610352</ele>
        <time>2015-07-13T11:06:41.000Z</time>
      </trkpt>
      <trkpt lat="48.70514" lon="1.75943">
        <ele>180.19999694824</ele>
        <time>2015-07-13T11:06:47.000Z</time>
      </trkpt>
      <trkpt lat="48.70519" lon="1.75937">
        <ele>180.39999389648</ele>
        <time>2015-07-13T11:06:52.000Z</time>
      </trkpt>
      <trkpt lat="48.70522" lon="1.75934">
        <ele>180.39999389648</ele>
        <time>2015-07-13T11:06:54.000Z</time>
      </trkpt>
      <trkpt lat="48.70527" lon="1.75927">
        <ele>180.60000610352</ele>
        <time>2015-07-13T11:06:58.000Z</time>
      </trkpt>
      <trkpt lat="48.70533" lon="1.75914">
        <ele>180.80000305176</ele>
        <time>2015-07-13T11:07:05.000Z</time>
      </trkpt>
      <trkpt lat="48.70538" lon="1.759">
        <ele>180.80000305176</ele>
        <time>2015-07-13T11:07:12.000Z</time>
      </trkpt>
      <trkpt lat="48.70539" lon="1.75899">
        <ele>180.80000305176</ele>
        <time>2015-07-13T11:07:13.000Z</time>
      </trkpt>
      <trkpt lat="48.70542" lon="1.75894">
        <ele>180.80000305176</ele>
        <time>2015-07-13T11:07:16.000Z</time>
      </trkpt>
      <trkpt lat="48.70543" lon="1.75888">
        <ele>180.80000305176</ele>
        <time>2015-07-13T11:07:18.000Z</time>
      </trkpt>
      <trkpt lat="48.70547" lon="1.75881">
        <ele>180.60000610352</ele>
        <time>2015-07-13T11:07:22.000Z</time>
      </trkpt>
      <trkpt lat="48.7055" lon="1.75874">
        <ele>180.60000610352</ele>
        <time>2015-07-13T11:07:25.000Z</time>
      </trkpt>
      <trkpt lat="48.70553" lon="1.75866">
        <ele>180.60000610352</ele>
        <time>2015-07-13T11:07:30.000Z</time>
      </trkpt>
      <trkpt lat="48.70559" lon="1.75851">
        <ele>180.19999694824</ele>
        <time>2015-07-13T11:07:38.000Z</time>
      </trkpt>
      <trkpt lat="48.70563" lon="1.75842">
        <ele>179.60000610352</ele>
        <time>2015-07-13T11:07:43.000Z</time>
      </trkpt>
      <trkpt lat="48.70565" lon="1.75835">
        <ele>179.39999389648</ele>
        <time>2015-07-13T11:07:47.000Z</time>
      </trkpt>
      <trkpt lat="48.70572" lon="1.75822">
        <ele>178.39999389648</ele>
        <time>2015-07-13T11:07:55.000Z</time>
      </trkpt>
      <trkpt lat="48.70579" lon="1.75807">
        <ele>177.80000305176</ele>
        <time>2015-07-13T11:08:03.000Z</time>
      </trkpt>
      <trkpt lat="48.70582" lon="1.75801">
        <ele>177.60000610352</ele>
        <time>2015-07-13T11:08:06.000Z</time>
      </trkpt>
      <trkpt lat="48.70586" lon="1.75792">
        <ele>177.60000610352</ele>
        <time>2015-07-13T11:08:12.000Z</time>
      </trkpt>
      <trkpt lat="48.70589" lon="1.75785">
        <ele>177.80000305176</ele>
        <time>2015-07-13T11:08:16.000Z</time>
      </trkpt>
      <trkpt lat="48.70597" lon="1.75774">
        <ele>177.80000305176</ele>
        <time>2015-07-13T11:08:23.000Z</time>
      </trkpt>
      <trkpt lat="48.70603" lon="1.75764">
        <ele>177.80000305176</ele>
        <time>2015-07-13T11:08:30.000Z</time>
      </trkpt>
      <trkpt lat="48.70604" lon="1.75762">
        <ele>177.80000305176</ele>
        <time>2015-07-13T11:08:31.000Z</time>
      </trkpt>
      <trkpt lat="48.70606" lon="1.75754">
        <ele>178</ele>
        <time>2015-07-13T11:08:36.000Z</time>
      </trkpt>
      <trkpt lat="48.70612" lon="1.75749">
        <ele>178.19999694824</ele>
        <time>2015-07-13T11:08:40.000Z</time>
      </trkpt>
      <trkpt lat="48.70617" lon="1.75741">
        <ele>178.19999694824</ele>
        <time>2015-07-13T11:08:46.000Z</time>
      </trkpt>
      <trkpt lat="48.70624" lon="1.75729">
        <ele>178.39999389648</ele>
        <time>2015-07-13T11:08:54.000Z</time>
      </trkpt>
      <trkpt lat="48.70628" lon="1.75719">
        <ele>178.80000305176</ele>
        <time>2015-07-13T11:09:01.000Z</time>
      </trkpt>
      <trkpt lat="48.70633" lon="1.75706">
        <ele>179.39999389648</ele>
        <time>2015-07-13T11:09:08.000Z</time>
      </trkpt>
      <trkpt lat="48.70638" lon="1.75696">
        <ele>180</ele>
        <time>2015-07-13T11:09:14.000Z</time>
      </trkpt>
      <trkpt lat="48.70639" lon="1.75693">
        <ele>180</ele>
        <time>2015-07-13T11:09:16.000Z</time>
      </trkpt>
      <trkpt lat="48.70644" lon="1.75686">
        <ele>179.80000305176</ele>
        <time>2015-07-13T11:09:23.000Z</time>
      </trkpt>
      <trkpt lat="48.70644" lon="1.75686">
        <ele>179.80000305176</ele>
        <time>2015-07-13T11:09:25.000Z</time>
      </trkpt>
      <trkpt lat="48.70641" lon="1.75659">
        <ele>180.39999389648</ele>
        <time>2015-07-13T11:10:40.000Z</time>
      </trkpt>
      <trkpt lat="48.70638" lon="1.75652">
        <ele>180.80000305176</ele>
        <time>2015-07-13T11:10:45.000Z</time>
      </trkpt>
      <trkpt lat="48.70638" lon="1.75642">
        <ele>180.60000610352</ele>
        <time>2015-07-13T11:10:53.000Z</time>
      </trkpt>
      <trkpt lat="48.70645" lon="1.75622">
        <ele>179.19999694824</ele>
        <time>2015-07-13T11:11:21.000Z</time>
      </trkpt>
      <trkpt lat="48.70649" lon="1.75612">
        <ele>178.60000610352</ele>
        <time>2015-07-13T11:11:29.000Z</time>
      </trkpt>
      <trkpt lat="48.7066" lon="1.75585">
        <ele>177.60000610352</ele>
        <time>2015-07-13T11:11:58.000Z</time>
      </trkpt>
      <trkpt lat="48.70663" lon="1.75577">
        <ele>177.19999694824</ele>
        <time>2015-07-13T11:12:02.000Z</time>
      </trkpt>
      <trkpt lat="48.70667" lon="1.75569">
        <ele>176.80000305176</ele>
        <time>2015-07-13T11:12:07.000Z</time>
      </trkpt>
      <trkpt lat="48.70668" lon="1.75567">
        <ele>176.39999389648</ele>
        <time>2015-07-13T11:12:09.000Z</time>
      </trkpt>
      <trkpt lat="48.70672" lon="1.7556">
        <ele>175.19999694824</ele>
        <time>2015-07-13T11:12:14.000Z</time>
      </trkpt>
      <trkpt lat="48.70676" lon="1.75552">
        <ele>174.60000610352</ele>
        <time>2015-07-13T11:12:19.000Z</time>
      </trkpt>
      <trkpt lat="48.7068" lon="1.75543">
        <ele>174.39999389648</ele>
        <time>2015-07-13T11:12:25.000Z</time>
      </trkpt>
      <trkpt lat="48.70681" lon="1.7554">
        <ele>174.39999389648</ele>
        <time>2015-07-13T11:12:27.000Z</time>
      </trkpt>
      <trkpt lat="48.70688" lon="1.75525">
        <ele>173.80000305176</ele>
        <time>2015-07-13T11:12:36.000Z</time>
      </trkpt>
      <trkpt lat="48.70695" lon="1.75511">
        <ele>173.19999694824</ele>
        <time>2015-07-13T11:12:45.000Z</time>
      </trkpt>
      <trkpt lat="48.70701" lon="1.75494">
        <ele>172.60000610352</ele>
        <time>2015-07-13T11:12:54.000Z</time>
      </trkpt>
      <trkpt lat="48.70702" lon="1.75481">
        <ele>172.39999389648</ele>
        <time>2015-07-13T11:13:02.000Z</time>
      </trkpt>
      <trkpt lat="48.70702" lon="1.75479">
        <ele>172.39999389648</ele>
        <time>2015-07-13T11:13:06.000Z</time>
      </trkpt>
      <trkpt lat="48.70702" lon="1.75487">
        <ele>172.60000610352</ele>
        <time>2015-07-13T11:13:14.000Z</time>
      </trkpt>
      <trkpt lat="48.70701" lon="1.75491">
        <ele>172.60000610352</ele>
        <time>2015-07-13T11:13:15.000Z</time>
      </trkpt>
    </trkseg>
  </trk>
</gpx>